Provisional Data: Little Pine Creek near Waterville, PA


Please select a monitoring station.
Please select start date.
Please select start date.

Toggle Unit: C/F Toggle Unit: C/F
Sample Time Temperature (C) Temperature (F) Specific Conductivity (mS/cm) pH   Turbidity (NTU+) DO (mg/L)
6/3/2022 12:00:00 AM 20.03 68.054 0.13 6.8 2.47 7.77
6/3/2022 12:15:00 AM 19.92 67.856 0.13 6.8 2.57 7.8
6/3/2022 12:30:00 AM 19.8 67.64 0.13 6.82 2.48 7.81
6/3/2022 12:45:00 AM 19.69 67.442 0.13 6.81 2.52 7.85
6/3/2022 1:00:00 AM 19.59 67.262 0.13 6.81 2.43 7.87
6/3/2022 1:15:00 AM 19.52 67.136 0.13 6.79 2.52 7.89
6/3/2022 1:30:00 AM 19.44 66.992 0.13 6.78 2.51 7.9
6/3/2022 1:45:00 AM 19.36 66.848 0.13 6.78 2.53 7.92
6/3/2022 2:00:00 AM 19.28 66.704 0.13 6.78 2.6 7.95
6/3/2022 2:15:00 AM 19.2 66.56 0.13 6.78 2.58 7.96
6/3/2022 2:30:00 AM 19.13 66.434 0.13 6.76 2.43 7.97
6/3/2022 2:45:00 AM 19.07 66.326 0.13 6.76 2.5 7.99
6/3/2022 3:00:00 AM 19.01 66.218 0.13 6.75 2.54 7.99
6/3/2022 3:15:00 AM 18.96 66.128 0.13 6.77 2.44 8.02
6/3/2022 3:30:00 AM 18.92 66.056 0.13 6.77 2.53 8.03
6/3/2022 3:45:00 AM 18.89 66.002 0.13 6.76 2.41 8.03
6/3/2022 4:00:00 AM 18.84 65.912 0.13 6.76 2.33 8.04
6/3/2022 4:15:00 AM 18.79 65.82201 0.131 6.76 2.33 8.04
6/3/2022 4:30:00 AM 18.75 65.75 0.131 6.78 2.33 8.05
6/3/2022 4:45:00 AM 18.72 65.696 0.131 6.78 2.51 8.05
6/3/2022 5:00:00 AM 18.68 65.624 0.131 6.79 2.71 8.07
6/3/2022 5:15:00 AM 18.63 65.534 0.131 6.79 2.39 8.08
6/3/2022 5:30:00 AM 18.59 65.462 0.131 6.79 2.4 8.1
6/3/2022 5:45:00 AM 18.53 65.354 0.131 6.8 2.36 8.11
6/3/2022 6:00:00 AM 18.47 65.246 0.131 6.79 2.24 8.15
6/3/2022 6:15:00 AM 18.41 65.138 0.131 6.81 2.26 8.19
6/3/2022 6:30:00 AM 18.35 65.03 0.13 6.82 2.23 8.23
6/3/2022 6:45:00 AM 18.3 64.94 0.13 6.81 2.29 8.28
6/3/2022 7:00:00 AM 18.24 64.832 0.13 6.83 2.22 8.32
6/3/2022 7:15:00 AM 18.18 64.724 0.13 6.83 2.53 8.37
6/3/2022 7:30:00 AM 18.15 64.67 0.13 6.84 2.14 8.42
6/3/2022 7:45:00 AM 18.15 64.67 0.13 6.87 2.19 8.5
6/3/2022 8:00:00 AM 18.15 64.67 0.13 6.86 2.24 8.57
6/3/2022 8:15:00 AM 18.15 64.67 0.13 6.89 2.29 8.64
6/3/2022 8:30:00 AM 18.18 64.724 0.13 6.91 2.18 8.7
6/3/2022 8:45:00 AM 18.22 64.796 0.13 6.93 2.29 8.75
6/3/2022 9:00:00 AM 18.23 64.814 0.13 6.94 2.17 8.8
6/3/2022 9:15:00 AM 18.26 64.868 0.13 6.96 2.24 8.85
6/3/2022 9:30:00 AM 18.29 64.922 0.13 6.97 2.26 8.88
6/3/2022 9:45:00 AM 18.31 64.958 0.13 6.98 2.27 8.92
6/3/2022 10:00:00 AM 18.34 65.012 0.13 6.99 2.38 8.96
6/3/2022 10:15:00 AM 18.39 65.102 0.129 7.01 2.21 9
6/3/2022 10:30:00 AM 18.45 65.21 0.129 7.03 2.19 9.03
6/3/2022 10:45:00 AM 18.51 65.318 0.129 7.04 2.24 9.07
6/3/2022 11:00:00 AM 18.64 65.552 0.129 7.07 2.19 9.11
6/3/2022 11:15:00 AM 18.78 65.804 0.129 7.08 2.21 9.14
6/3/2022 11:30:00 AM 18.98 66.164 0.129 7.1 2.19 9.16
6/3/2022 11:45:00 AM 19.21 66.578 0.129 7.12 2.28 9.18
6/3/2022 12:00:00 PM 19.5 67.1 0.128 7.15 2.17 9.19
6/3/2022 12:15:00 PM 19.82 67.676 0.128 7.17 2.15 9.21
6/3/2022 12:30:00 PM 20.18 68.324 0.128 7.19 2.11 9.23
6/3/2022 12:45:00 PM 20.56 69.008 0.128 7.22 2.24 9.24
6/3/2022 1:00:00 PM 20.98 69.764 0.128 7.27 2.14 9.26
6/3/2022 1:15:00 PM 21.3 70.34 0.128 7.3 2.15 9.25
6/3/2022 1:30:00 PM 21.46 70.628 0.128 7.3 2.25 9.19
6/3/2022 1:45:00 PM 21.75 71.15 0.128 7.31 2.08 9.2
6/3/2022 2:00:00 PM 21.95 71.51 0.128 7.33 2.17 9.18
6/3/2022 2:15:00 PM 22.38 72.284 0.128 7.36 2.12 9.19
6/3/2022 2:30:00 PM 22.36 72.248 0.128 7.34 2.08 9.08
6/3/2022 2:45:00 PM 22.36 72.248 0.128 7.33 2.22 9
6/3/2022 3:00:00 PM 22.32 72.176 0.128 7.33 2.08 8.98
6/3/2022 3:15:00 PM 22.32 72.176 0.128 7.33 1.99 8.93
6/3/2022 3:30:00 PM 22.39 72.302 0.128 7.31 2 8.84
6/3/2022 3:45:00 PM 22.43 72.374 0.128 7.27 1.99 8.78
6/3/2022 4:00:00 PM 22.67 72.806 0.127 7.3 2.04 8.79
6/3/2022 4:15:00 PM 22.74 72.932 0.127 7.31 2.06 8.78
6/3/2022 4:30:00 PM 22.89 73.202 0.127 7.32 1.97 8.77
6/3/2022 4:45:00 PM 22.89 73.202 0.127 7.29 2.15 8.7
6/3/2022 5:00:00 PM 23.13 73.634 0.127 7.3 1.95 8.75
6/3/2022 5:15:00 PM 23 73.4 0.128 7.31 1.81 8.67
6/3/2022 5:30:00 PM 22.86 73.148 0.128 7.27 1.9 8.6
6/3/2022 5:45:00 PM 22.55 72.59 0.128 7.23 1.83 8.49
6/3/2022 6:00:00 PM 22.33 72.194 0.128 7.18 1.9 8.39
6/3/2022 6:15:00 PM 22.19 71.942 0.128 7.14 1.84 8.31
6/3/2022 6:30:00 PM 22.08 71.744 0.128 7.1 1.89 8.23
6/3/2022 6:45:00 PM 21.99 71.582 0.128 7.07 1.86 8.16
6/3/2022 7:00:00 PM 21.9 71.42 0.129 7.05 1.85 8.09
6/3/2022 7:15:00 PM 21.78 71.204 0.129 7.02 1.92 8.02
6/3/2022 7:30:00 PM 21.64 70.952 0.129 7 1.84 7.97
6/3/2022 7:45:00 PM 21.49 70.682 0.129 7 1.94 7.94
6/3/2022 8:00:00 PM 21.34 70.412 0.13 6.96 1.94 7.91
6/3/2022 8:15:00 PM 21.2 70.16 0.13 6.95 1.82 7.88
6/3/2022 8:30:00 PM 21.07 69.926 0.13 6.93 1.99 7.84
6/3/2022 8:45:00 PM 20.93 69.674 0.13 6.9 1.92 7.81
6/3/2022 9:00:00 PM 20.79 69.422 0.13 6.9 2.15 7.79
6/3/2022 9:15:00 PM 20.65 69.17 0.131 6.87 2.1 7.78
6/3/2022 9:30:00 PM 20.52 68.936 0.131 6.85 2.09 7.77
6/3/2022 9:45:00 PM 20.38 68.684 0.131 6.83 2.33 7.78
6/3/2022 10:00:00 PM 20.26 68.468 0.131 6.83 2.25 7.78
6/3/2022 10:15:00 PM 20.12 68.216 0.131 6.81 2.24 7.8
6/3/2022 10:30:00 PM 19.98 67.964 0.131 6.79 2.21 7.82
6/3/2022 10:45:00 PM 19.84 67.712 0.131 6.78 2.44 7.84
6/3/2022 11:00:00 PM 19.69 67.442 0.131 6.78 2.4 7.87
6/3/2022 11:15:00 PM 19.54 67.172 0.131 6.77 2.6 7.9
6/3/2022 11:30:00 PM 19.38 66.884 0.131 6.77 2.27 7.93
6/3/2022 11:45:00 PM 19.23 66.614 0.132 6.76 2.42 7.97
6/4/2022 12:00:00 AM 19.09 66.362 0.132 6.75 2.31 7.99
6/4/2022 12:15:00 AM 18.94 66.092 0.132 6.75 2.32 8.03
6/4/2022 12:30:00 AM 18.8 65.84 0.132 6.75 2.22 8.05
6/4/2022 12:45:00 AM 18.67 65.606 0.132 6.75 2.41 8.08
6/4/2022 1:00:00 AM 18.54 65.372 0.132 6.75 2.3 8.11
6/4/2022 1:15:00 AM 18.41 65.138 0.132 6.75 2.35 8.15
6/4/2022 1:30:00 AM 18.29 64.922 0.132 6.75 2.38 8.17
6/4/2022 1:45:00 AM 18.18 64.724 0.132 6.75 2.38 8.2
6/4/2022 2:00:00 AM 18.08 64.544 0.132 6.76 2.34 8.22
6/4/2022 2:15:00 AM 17.97 64.346 0.132 6.77 2.35 8.25
6/4/2022 2:30:00 AM 17.88 64.184 0.132 6.77 2.42 8.27
6/4/2022 2:45:00 AM 17.79 64.022 0.132 6.77 2.49 8.28
6/4/2022 3:00:00 AM 17.71 63.878 0.132 6.78 2.39 8.3
6/4/2022 3:15:00 AM 17.65 63.77 0.132 6.78 2.39 8.32
6/4/2022 3:30:00 AM 17.59 63.662 0.132 6.79 2.43 8.32
6/4/2022 3:45:00 AM 17.52 63.536 0.132 6.78 2.42 8.34
6/4/2022 4:00:00 AM 17.47 63.446 0.132 6.79 2.37 8.35
6/4/2022 4:15:00 AM 17.42 63.356 0.132 6.8 2.43 8.37
6/4/2022 4:30:00 AM 17.36 63.248 0.132 6.79 2.4 8.37
6/4/2022 4:45:00 AM 17.32 63.176 0.132 6.79 2.3 8.38
6/4/2022 5:00:00 AM 17.27 63.086 0.132 6.79 2.33 8.39
6/4/2022 5:15:00 AM 17.22 62.996 0.132 6.8 2.42 8.4
6/4/2022 5:30:00 AM 17.18 62.924 0.131 6.8 2.63 8.41
6/4/2022 5:45:00 AM 17.13 62.834 0.131 6.79 2.31 8.43
6/4/2022 6:00:00 AM 17.09 62.762 0.131 6.81 2.3 8.46
6/4/2022 6:15:00 AM 17.06 62.708 0.131 6.81 2.32 8.5
6/4/2022 6:30:00 AM 17.02 62.636 0.131 6.81 2.11 8.54
6/4/2022 6:45:00 AM 16.99 62.582 0.131 6.83 2.19 8.59
6/4/2022 7:00:00 AM 16.97 62.546 0.131 6.84 2.13 8.63
6/4/2022 7:15:00 AM 16.95 62.51 0.131 6.84 2.22 8.68
6/4/2022 7:30:00 AM 16.93 62.474 0.131 6.86 2.12 8.72
6/4/2022 7:45:00 AM 16.96 62.528 0.131 6.88 2.11 8.81
6/4/2022 8:00:00 AM 16.99 62.582 0.13 6.87 2.16 8.87
6/4/2022 8:15:00 AM 17.04 62.672 0.13 6.89 2.08 8.93
6/4/2022 8:30:00 AM 17.11 62.798 0.13 6.91 2.06 8.99
6/4/2022 8:45:00 AM 17.19 62.942 0.13 6.93 2.13 9.04
6/4/2022 9:00:00 AM 17.26 63.068 0.13 6.96 2.06 9.07
6/4/2022 9:15:00 AM 17.34 63.212 0.13 6.98 2.15 9.11
6/4/2022 9:30:00 AM 17.41 63.338 0.13 6.98 2.09 9.13
6/4/2022 9:45:00 AM 17.52 63.536 0.129 7 2.03 9.15
6/4/2022 10:00:00 AM 17.63 63.734 0.129 7.01 2.02 9.17
6/4/2022 10:15:00 AM 17.75 63.95 0.129 7.03 2.04 9.19
6/4/2022 10:30:00 AM 17.85 64.13 0.129 7.05 1.99 9.22
6/4/2022 10:45:00 AM 17.99 64.382 0.129 7.06 2.84 9.25
6/4/2022 11:00:00 AM 18.13 64.634 0.129 7.06 2.47 9.27
6/4/2022 11:15:00 AM 18.31 64.958 0.129 7.1 2.47 9.3
6/4/2022 11:30:00 AM 18.5 65.3 0.129 7.11 2.45 9.32
6/4/2022 11:45:00 AM 18.71 65.67799 0.129 7.13 2.43 9.35
6/4/2022 12:00:00 PM 18.96 66.128 0.128 7.17 2.36 9.36
6/4/2022 12:15:00 PM 19.29 66.722 0.128 7.19 2.63 9.38
6/4/2022 12:30:00 PM 19.64 67.352 0.128 7.21 2.39 9.36
6/4/2022 12:45:00 PM 20.03 68.054 0.128 7.23 3.1 9.36
6/4/2022 1:00:00 PM 20.43 68.774 0.128 7.24 2.4 9.36
6/4/2022 1:15:00 PM 20.87 69.566 0.128 7.26 2.33 9.35
6/4/2022 1:30:00 PM 21.3 70.34 0.128 7.28 2.29 9.34
6/4/2022 1:45:00 PM 21.73 71.114 0.128 7.31 2.47 9.31
6/4/2022 2:00:00 PM 22.15 71.87 0.128 7.34 2.36 9.29
6/4/2022 2:15:00 PM 22.52 72.536 0.128 7.37 2.31 9.25
6/4/2022 2:30:00 PM 22.88 73.184 0.128 7.39 2.3 9.24
6/4/2022 2:45:00 PM 23.19 73.742 0.128 7.4 2.21 9.18
6/4/2022 3:00:00 PM 23.5 74.3 0.128 7.42 2.24 9.15
6/4/2022 3:15:00 PM 23.68 74.624 0.128 7.43 2.32 9.11
6/4/2022 3:30:00 PM 23.78 74.804 0.128 7.44 2.26 9.07
6/4/2022 3:45:00 PM 23.85 74.93 0.128 7.43 2.25 9.01
6/4/2022 4:00:00 PM 23.88 74.984 0.129 7.43 2.3 8.98
6/4/2022 4:15:00 PM 23.77 74.786 0.129 7.41 1.92 8.92
6/4/2022 4:30:00 PM 23.68 74.624 0.131 7.4 1.86 8.87
6/4/2022 4:45:00 PM 23.53 74.354 0.132 7.37 1.87 8.82
6/4/2022 5:00:00 PM 23.33 73.994 0.131 7.34 1.88 8.76
6/4/2022 5:15:00 PM 23.12 73.616 0.131 7.32 2.01 8.68
6/4/2022 5:30:00 PM 22.8 73.04 0.131 7.28 1.86 8.6
6/4/2022 5:45:00 PM 22.39 72.302 0.132 7.22 1.87 8.4
6/4/2022 6:00:00 PM 22.05 71.69 0.132 7.15 1.91 8.25
6/4/2022 6:15:00 PM 21.79 71.222 0.133 7.11 1.85 8.16
6/4/2022 6:30:00 PM 21.64 70.952 0.132 7.07 1.86 8.11
6/4/2022 6:45:00 PM 21.49 70.682 0.133 7.04 1.88 8.07
6/4/2022 7:00:00 PM 21.32 70.376 0.133 7.02 1.94 8.04
6/4/2022 7:15:00 PM 21.13 70.034 0.134 6.99 1.82 8.01
6/4/2022 7:30:00 PM 20.95 69.71 0.134 6.97 1.89 7.98
6/4/2022 7:45:00 PM 20.79 69.422 0.134 6.95 1.94 7.98
6/4/2022 8:00:00 PM 20.62 69.116 0.134 6.94 2.03 7.96
6/4/2022 8:15:00 PM 20.45 68.81 0.135 6.91 1.94 7.96
6/4/2022 8:30:00 PM 20.28 68.504 0.135 6.89 1.98 7.94
6/4/2022 8:45:00 PM 20.11 68.198 0.135 6.87 1.88 7.92
6/4/2022 9:00:00 PM 19.94 67.892 0.135 6.85 2.1 7.91
6/4/2022 9:15:00 PM 19.78 67.604 0.134 6.83 2.13 7.9
6/4/2022 9:30:00 PM 19.62 67.316 0.133 6.8 2.19 7.91
6/4/2022 9:45:00 PM 19.46 67.028 0.133 6.78 2.18 7.92
6/4/2022 10:00:00 PM 19.32 66.776 0.134 6.78 2.4 7.93
6/4/2022 10:15:00 PM 19.17 66.506 0.134 6.76 2.56 7.93
6/4/2022 10:30:00 PM 19.04 66.272 0.134 6.76 2.4 7.97
6/4/2022 10:45:00 PM 18.9 66.02 0.134 6.76 2.29 8
6/4/2022 11:00:00 PM 18.77 65.786 0.134 6.76 2.4 8.02
6/4/2022 11:15:00 PM 18.65 65.57 0.134 6.77 2.66 8.04
6/4/2022 11:30:00 PM 18.54 65.372 0.134 6.77 2.21 8.06
6/4/2022 11:45:00 PM 18.45 65.21 0.134 6.78 2.27 8.09
6/5/2022 12:00:00 AM 18.34 65.012 0.134 6.79 2.52 8.1
6/5/2022 12:15:00 AM 18.23 64.814 0.134 6.78 2.27 8.13
6/5/2022 12:30:00 AM 18.13 64.634 0.134 6.79 2.21 8.14
6/5/2022 12:45:00 AM 18.04 64.472 0.134 6.79 2.24 8.17
6/5/2022 1:00:00 AM 17.95 64.31 0.134 6.8 2.32 8.2
6/5/2022 1:15:00 AM 17.87 64.166 0.133 6.79 2.13 8.21
6/5/2022 1:30:00 AM 17.76 63.968 0.133 6.79 2.29 8.24
6/5/2022 1:45:00 AM 17.67 63.806 0.133 6.8 2.32 8.26
6/5/2022 2:00:00 AM 17.57 63.626 0.133 6.79 2.38 8.29
6/5/2022 2:15:00 AM 17.47 63.446 0.133 6.8 2.29 8.31
6/5/2022 2:30:00 AM 17.37 63.266 0.133 6.81 2.49 8.34
6/5/2022 2:45:00 AM 17.27 63.086 0.133 6.8 2.22 8.36
6/5/2022 3:00:00 AM 17.18 62.924 0.133 6.8 2.2 8.38
6/5/2022 3:15:00 AM 17.09 62.762 0.134 6.79 2.32 8.4
6/5/2022 3:30:00 AM 17 62.6 0.134 6.81 2.26 8.43
6/5/2022 3:45:00 AM 16.93 62.474 0.134 6.8 2.54 8.44
6/5/2022 4:00:00 AM 16.88 62.384 0.134 6.8 2.77 8.46
6/5/2022 4:15:00 AM 16.82 62.276 0.134 6.81 2.48 8.47
6/5/2022 4:30:00 AM 16.77 62.186 0.134 6.79 2.28 8.47
6/5/2022 4:45:00 AM 16.71 62.078 0.134 6.81 2.42 8.5
6/5/2022 5:00:00 AM 16.64 61.952 0.134 6.81 2.3 8.51
6/5/2022 5:15:00 AM 16.57 61.826 0.134 6.81 2.13 8.53
6/5/2022 5:30:00 AM 16.49 61.682 0.134 6.81 2.22 8.55
6/5/2022 5:45:00 AM 16.43 61.574 0.134 6.81 2.18 8.58
6/5/2022 6:00:00 AM 16.37 61.466 0.134 6.81 2.2 8.6
6/5/2022 6:15:00 AM 16.32 61.376 0.134 6.82 2.07 8.66
6/5/2022 6:30:00 AM 16.26 61.268 0.134 6.82 2.06 8.71
6/5/2022 6:45:00 AM 16.21 61.178 0.133 6.83 2.12 8.77
6/5/2022 7:00:00 AM 16.16 61.088 0.133 6.85 2.18 8.83
6/5/2022 7:15:00 AM 16.13 61.034 0.133 6.86 2.19 8.88
6/5/2022 7:30:00 AM 16.1 60.98 0.133 6.87 2.12 8.96
6/5/2022 7:45:00 AM 16.11 60.998 0.133 6.88 2.2 9.04
6/5/2022 8:00:00 AM 16.12 61.016 0.133 6.9 2.12 9.13
6/5/2022 8:15:00 AM 16.15 61.07 0.133 6.92 2.18 9.21
6/5/2022 8:30:00 AM 16.22 61.196 0.132 6.94 2.23 9.31
6/5/2022 8:45:00 AM 16.3 61.34 0.132 6.97 2.13 9.4
6/5/2022 9:00:00 AM 16.39 61.502 0.132 7 2.25 9.51
6/5/2022 9:15:00 AM 16.45 61.61 0.132 7.04 2.16 9.58
6/5/2022 9:30:00 AM 16.54 61.772 0.131 7.05 2.13 9.68
6/5/2022 9:45:00 AM 16.66 61.988 0.131 7.1 2.09 9.76
6/5/2022 10:00:00 AM 16.78 62.204 0.131 7.13 2.13 9.83
6/5/2022 10:15:00 AM 16.86 62.348 0.131 7.17 2.32 9.86
6/5/2022 10:30:00 AM 17.01 62.618 0.131 7.21 1.85 9.92
6/5/2022 10:45:00 AM 17.13 62.834 0.13 7.22 1.81 9.93
6/5/2022 11:00:00 AM 17.29 63.122 0.13 7.26 1.91 9.93
6/5/2022 11:15:00 AM 17.52 63.536 0.13 7.27 1.84 9.97
6/5/2022 11:30:00 AM 17.73 63.914 0.13 7.32 1.95 9.98
6/5/2022 11:45:00 AM 17.93 64.274 0.13 7.35 1.82 9.98
6/5/2022 12:00:00 PM 18.14 64.652 0.13 7.37 1.81 9.99
6/5/2022 12:15:00 PM 18.31 64.958 0.13 7.41 1.85 9.98
6/5/2022 12:30:00 PM 18.49 65.282 0.13 7.44 1.83 9.98
6/5/2022 12:45:00 PM 18.7 65.66 0.129 7.46 1.76 9.95
6/5/2022 1:00:00 PM 18.98 66.164 0.129 7.49 1.76 9.94
6/5/2022 1:15:00 PM 19.23 66.614 0.129 7.5 1.76 9.92
6/5/2022 1:30:00 PM 19.56 67.208 0.129 7.53 1.81 9.9
6/5/2022 1:45:00 PM 19.85 67.73 0.129 7.55 1.77 9.86
6/5/2022 2:00:00 PM 20.13 68.234 0.129 7.57 1.73 9.81
6/5/2022 2:15:00 PM 20.45 68.81 0.129 7.58 1.73 9.78
6/5/2022 2:30:00 PM 20.67 69.206 0.129 7.59 1.87 9.73
6/5/2022 2:45:00 PM 20.89 69.602 0.129 7.6 1.69 9.69
6/5/2022 3:00:00 PM 21.14 70.052 0.129 7.61 1.78 9.64
6/5/2022 3:15:00 PM 21.48 70.664 0.129 7.61 1.76 9.59
6/5/2022 3:30:00 PM 21.78 71.204 0.129 7.61 1.78 9.52
6/5/2022 3:45:00 PM 22 71.6 0.129 7.6 1.75 9.44
6/5/2022 4:00:00 PM 22.05 71.69 0.129 7.59 1.72 9.38
6/5/2022 4:15:00 PM 22.05 71.69 0.129 7.56 1.66 9.31
6/5/2022 4:30:00 PM 22.03 71.654 0.13 7.54 1.83 9.25
6/5/2022 4:45:00 PM 22.05 71.69 0.13 7.52 1.73 9.2
6/5/2022 5:00:00 PM 22.07 71.726 0.13 7.5 1.75 9.15
6/5/2022 5:15:00 PM 21.94 71.492 0.13 7.47 1.75 9.07
6/5/2022 5:30:00 PM 21.69 71.042 0.13 7.41 1.77 8.97
6/5/2022 5:45:00 PM 21.3 70.34 0.131 7.34 1.84 8.78
6/5/2022 6:00:00 PM 20.89 69.602 0.131 7.27 1.87 8.6
6/5/2022 6:15:00 PM 20.65 69.17 0.132 7.22 1.7 8.59
6/5/2022 6:30:00 PM 20.57 69.026 0.132 7.21 1.81 8.61
6/5/2022 6:45:00 PM 20.39 68.702 0.132 7.16 1.77 8.51
6/5/2022 7:00:00 PM 20.19 68.342 0.133 7.14 1.85 8.45
6/5/2022 7:15:00 PM 19.98 67.964 0.133 7.1 1.81 8.4
6/5/2022 7:30:00 PM 19.79 67.622 0.134 7.08 1.84 8.35
6/5/2022 7:45:00 PM 19.64 67.352 0.134 7.05 1.8 8.34
6/5/2022 8:00:00 PM 19.5 67.1 0.135 7.04 1.81 8.3
6/5/2022 8:15:00 PM 19.37 66.866 0.135 7.01 1.81 8.28
6/5/2022 8:30:00 PM 19.24 66.632 0.135 6.99 1.94 8.24
6/5/2022 8:45:00 PM 19.11 66.398 0.135 6.97 1.99 8.21
6/5/2022 9:00:00 PM 18.98 66.164 0.136 6.96 2.03 8.18
6/5/2022 9:15:00 PM 18.85 65.93 0.136 6.92 2.02 8.16
6/5/2022 9:30:00 PM 18.71 65.67799 0.136 6.89 2.15 8.16
6/5/2022 9:45:00 PM 18.58 65.444 0.136 6.9 2.1 8.16
6/5/2022 10:00:00 PM 18.45 65.21 0.136 6.87 2.21 8.17
6/5/2022 10:15:00 PM 18.32 64.976 0.136 6.87 2.11 8.18
6/5/2022 10:30:00 PM 18.19 64.742 0.136 6.84 2.16 8.2
6/5/2022 10:45:00 PM 18.06 64.508 0.136 6.84 2.11 8.22
6/5/2022 11:00:00 PM 17.94 64.292 0.136 6.82 2.16 8.24
6/5/2022 11:15:00 PM 17.82 64.076 0.136 6.81 2.11 8.26
6/5/2022 11:30:00 PM 17.71 63.878 0.136 6.82 2.14 8.27
6/5/2022 11:45:00 PM 17.6 63.68 0.136 6.81 2.34 8.28
6/6/2022 12:00:00 AM 17.5 63.5 0.137 6.81 2.31 8.31
6/6/2022 12:15:00 AM 17.4 63.32 0.137 6.82 2.32 8.33
6/6/2022 12:30:00 AM 17.31 63.158 0.137 6.81 2.3 8.34
6/6/2022 12:45:00 AM 17.22 62.996 0.137 6.81 2.21 8.36
6/6/2022 1:00:00 AM 17.14 62.852 0.137 6.82 2.24 8.38
6/6/2022 1:15:00 AM 17.06 62.708 0.137 6.81 2.26 8.4
6/6/2022 1:30:00 AM 16.99 62.582 0.137 6.81 2.32 8.41
6/6/2022 1:45:00 AM 16.92 62.456 0.137 6.82 2.21 8.43
6/6/2022 2:00:00 AM 16.85 62.33 0.137 6.83 2.17 8.44
6/6/2022 2:15:00 AM 16.79 62.222 0.137 6.83 2.28 8.46
6/6/2022 2:30:00 AM 16.72 62.096 0.137 6.82 2.25 8.48
6/6/2022 2:45:00 AM 16.67 62.006 0.137 6.81 2.25 8.49
6/6/2022 3:00:00 AM 16.61 61.898 0.137 6.81 2.27 8.5
6/6/2022 3:15:00 AM 16.56 61.808 0.137 6.81 2.3 8.52
6/6/2022 3:30:00 AM 16.51 61.718 0.137 6.81 2.38 8.53
6/6/2022 3:45:00 AM 16.46 61.628 0.137 6.8 2.26 8.54
6/6/2022 4:00:00 AM 16.41 61.538 0.137 6.81 2.25 8.55
6/6/2022 4:15:00 AM 16.36 61.448 0.137 6.81 2.29 8.56
6/6/2022 4:30:00 AM 16.32 61.376 0.137 6.81 2.27 8.58
6/6/2022 4:45:00 AM 16.28 61.304 0.136 6.82 2.33 8.59
6/6/2022 5:00:00 AM 16.23 61.214 0.136 6.82 2.36 8.6
6/6/2022 5:15:00 AM 16.19 61.142 0.136 6.81 2.26 8.61
6/6/2022 5:30:00 AM 16.15 61.07 0.136 6.81 2.27 8.63
6/6/2022 5:45:00 AM 16.1 60.98 0.136 6.82 2.3 8.65
6/6/2022 6:00:00 AM 16.07 60.926 0.136 6.82 2.14 8.69
6/6/2022 6:15:00 AM 16.04 60.872 0.136 6.81 2.2 8.74
6/6/2022 6:30:00 AM 16.01 60.818 0.136 6.83 2.17 8.79
6/6/2022 6:45:00 AM 15.99 60.782 0.136 6.84 2.08 8.85
6/6/2022 7:00:00 AM 15.96 60.728 0.136 6.86 2.07 8.91
6/6/2022 7:15:00 AM 15.94 60.692 0.136 6.86 2.16 8.95
6/6/2022 7:30:00 AM 15.93 60.674 0.136 6.87 2.09 9
6/6/2022 7:45:00 AM 15.97 60.746 0.135 6.89 2.33 9.11
6/6/2022 8:00:00 AM 16.02 60.836 0.135 6.91 2.06 9.2
6/6/2022 8:15:00 AM 16.11 60.998 0.135 6.94 21.39 9.32
6/6/2022 8:30:00 AM 16.19 61.142 0.135 6.98 1.85 9.38
6/6/2022 8:45:00 AM 16.26 61.268 0.135 7 1.82 9.43
6/6/2022 9:00:00 AM 16.35 61.43 0.134 7.02 1.77 9.46
6/6/2022 9:15:00 AM 16.47 61.646 0.134 7.04 1.73 9.49
6/6/2022 9:30:00 AM 16.58 61.844 0.134 7.05 1.83 9.52
6/6/2022 9:45:00 AM 16.73 62.114 0.134 7.09 1.8 9.63
6/6/2022 10:00:00 AM 16.87 62.366 0.134 7.13 1.78 9.7
6/6/2022 10:15:00 AM 16.96 62.528 0.133 7.15 1.87 9.71
6/6/2022 10:30:00 AM 17.04 62.672 0.133 7.17 1.85 9.73
6/6/2022 10:45:00 AM 17.23 63.014 0.133 7.19 1.74 9.77
6/6/2022 11:00:00 AM 17.47 63.446 0.133 7.22 1.75 9.8
6/6/2022 11:15:00 AM 17.72 63.896 0.133 7.24 1.73 9.79
6/6/2022 11:30:00 AM 18 64.4 0.133 7.27 1.92 9.8
6/6/2022 11:45:00 AM 18.33 64.994 0.132 7.31 1.76 9.83
6/6/2022 12:00:00 PM 18.6 65.48 0.132 7.35 1.8 9.87
6/6/2022 12:15:00 PM 18.88 65.984 0.132 7.39 1.72 9.86
6/6/2022 12:30:00 PM 19.15 66.47 0.132 7.4 1.77 9.82
6/6/2022 12:45:00 PM 19.51 67.118 0.132 7.41 1.8 9.76
6/6/2022 1:00:00 PM 19.97 67.946 0.132 7.43 1.79 9.71
6/6/2022 1:15:00 PM 20.41 68.738 0.132 7.44 1.7 9.7
6/6/2022 1:30:00 PM 20.87 69.566 0.132 7.47 1.81 9.66
6/6/2022 1:45:00 PM 21.31 70.358 0.132 7.49 1.77 9.61
6/6/2022 2:00:00 PM 21.69 71.042 0.132 7.53 1.65 9.59
6/6/2022 2:15:00 PM 22.01 71.618 0.132 7.56 1.77 9.57
6/6/2022 2:30:00 PM 22.37 72.266 0.132 7.59 1.75 9.52
6/6/2022 2:45:00 PM 22.67 72.806 0.132 7.6 1.68 9.47
6/6/2022 3:00:00 PM 22.78 73.004 0.132 7.64 1.69 9.39
6/6/2022 3:15:00 PM 22.76 72.968 0.132 7.63 1.69 9.36
6/6/2022 3:30:00 PM 23.08 73.544 0.132 7.66 1.7 9.33
6/6/2022 3:45:00 PM 23.34 74.012 0.132 7.66 1.65 9.29
6/6/2022 4:00:00 PM 23.25 73.85 0.132 7.64 1.65 9.21
6/6/2022 4:15:00 PM 23.22 73.796 0.132 7.62 1.76 9.16
6/6/2022 4:30:00 PM 23.17 73.706 0.132 7.6 1.7 9.12
6/6/2022 4:45:00 PM 23.05 73.49 0.133 7.59 1.71 9.08
6/6/2022 5:00:00 PM 22.96 73.328 0.133 7.58 1.68 9.04
6/6/2022 5:15:00 PM 22.81 73.058 0.133 7.55 1.73 8.99
6/6/2022 5:30:00 PM 22.66 72.788 0.133 7.51 1.69 8.95
6/6/2022 5:45:00 PM 22.49 72.482 0.133 7.47 1.78 8.89
6/6/2022 6:00:00 PM 22.22 71.996 0.133 7.43 1.76 8.81
6/6/2022 6:15:00 PM 21.97 71.546 0.133 7.37 1.85 8.71
6/6/2022 6:30:00 PM 21.78 71.204 0.132 7.33 1.77 8.66
6/6/2022 6:45:00 PM 21.59 70.862 0.132 7.28 1.83 8.58
6/6/2022 7:00:00 PM 21.41 70.538 0.132 7.24 1.84 8.5
6/6/2022 7:15:00 PM 21.25 70.25 0.132 7.2 1.88 8.46
6/6/2022 7:30:00 PM 21.04 69.872 0.132 7.17 2.17 8.39
6/6/2022 7:45:00 PM 20.85 69.53 0.133 7.15 1.93 8.31
6/6/2022 8:00:00 PM 20.66 69.188 0.133 7.11 1.97 8.19
6/6/2022 8:15:00 PM 20.47 68.846 0.134 7.07 1.93 8.1
6/6/2022 8:30:00 PM 20.29 68.522 0.134 7.05 1.88 8.05
6/6/2022 8:45:00 PM 20.14 68.252 0.135 7.02 1.99 8
6/6/2022 9:00:00 PM 19.98 67.964 0.136 7 2.07 7.97
6/6/2022 9:15:00 PM 19.83 67.694 0.136 6.97 2.14 7.94
6/6/2022 9:30:00 PM 19.7 67.46 0.137 6.95 2.3 7.93
6/6/2022 9:45:00 PM 19.56 67.208 0.137 6.93 2.53 7.93
6/6/2022 10:00:00 PM 19.43 66.974 0.138 6.92 2.28 7.93
6/6/2022 10:15:00 PM 19.31 66.758 0.138 6.9 2.35 7.94
6/6/2022 10:30:00 PM 19.19 66.542 0.138 6.88 2.3 7.95
6/6/2022 10:45:00 PM 19.07 66.326 0.138 6.88 2.41 7.96
6/6/2022 11:00:00 PM 18.97 66.146 0.138 6.86 2.28 7.97
6/6/2022 11:15:00 PM 18.86 65.948 0.138 6.84 2.36 8
6/6/2022 11:30:00 PM 18.74 65.732 0.139 6.83 2.42 8.02
6/6/2022 11:45:00 PM 18.63 65.534 0.139 6.82 2.35 8.03
6/7/2022 12:00:00 AM 18.53 65.354 0.139 6.83 2.28 8.05
6/7/2022 12:15:00 AM 18.44 65.192 0.139 6.82 2.25 8.07
6/7/2022 12:30:00 AM 18.36 65.048 0.139 6.81 2.33 8.07
6/7/2022 12:45:00 AM 18.3 64.94 0.139 6.8 2.27 8.1
6/7/2022 1:00:00 AM 18.26 64.868 0.14 6.79 2.27 8.1
6/7/2022 1:15:00 AM 18.2 64.76 0.14 6.8 2.33 8.12
6/7/2022 1:30:00 AM 18.16 64.688 0.14 6.8 2.27 8.12
6/7/2022 1:45:00 AM 18.1 64.58 0.14 6.81 2.35 8.11
6/7/2022 2:00:00 AM 18.04 64.472 0.14 6.81 2.31 8.13
6/7/2022 2:15:00 AM 18 64.4 0.14 6.83 2.23 8.14
6/7/2022 2:30:00 AM 17.99 64.382 0.14 6.83 2.54 8.13
6/7/2022 2:45:00 AM 17.97 64.346 0.14 6.83 2.31 8.15
6/7/2022 3:00:00 AM 17.94 64.292 0.14 6.85 2.29 8.15
6/7/2022 3:15:00 AM 17.91 64.238 0.14 6.83 2.33 8.14
6/7/2022 3:30:00 AM 17.88 64.184 0.14 6.84 2.21 8.16
6/7/2022 3:45:00 AM 17.86 64.148 0.14 6.83 2.14 8.15
6/7/2022 4:00:00 AM 17.84 64.112 0.14 6.83 2.07 8.17
6/7/2022 4:15:00 AM 17.82 64.076 0.14 6.83 2.16 8.18
6/7/2022 4:30:00 AM 17.78 64.004 0.14 6.84 2.69 8.17
6/7/2022 4:45:00 AM 17.75 63.95 0.14 6.83 2.34 8.18
6/7/2022 5:00:00 AM 17.71 63.878 0.14 6.83 2.39 8.19
6/7/2022 5:15:00 AM 17.67 63.806 0.14 6.83 2.4 8.19
6/7/2022 5:30:00 AM 17.64 63.752 0.14 6.84 2.1 8.22
6/7/2022 5:45:00 AM 17.61 63.698 0.14 6.83 2.08 8.23
6/7/2022 6:00:00 AM 17.6 63.68 0.14 6.84 1.93 8.27
6/7/2022 6:15:00 AM 17.57 63.626 0.14 6.84 1.97 8.32
6/7/2022 6:30:00 AM 17.57 63.626 0.14 6.85 1.96 8.38
6/7/2022 6:45:00 AM 17.57 63.626 0.14 6.86 2.12 8.45
6/7/2022 7:00:00 AM 17.58 63.644 0.139 6.88 1.92 8.52
6/7/2022 7:15:00 AM 17.59 63.662 0.139 6.88 1.94 8.58
6/7/2022 7:30:00 AM 17.61 63.698 0.139 6.9 1.98 8.64
6/7/2022 7:45:00 AM 17.65 63.77 0.139 6.93 1.88 8.73
6/7/2022 8:00:00 AM 17.68 63.824 0.139 6.97 1.83 8.88
6/7/2022 8:15:00 AM 17.72 63.896 0.138 6.99 1.87 9.02
6/7/2022 8:30:00 AM 17.79 64.022 0.138 7.02 1.92 9.16
6/7/2022 8:45:00 AM 17.87 64.166 0.138 7.05 1.88 9.26
6/7/2022 9:00:00 AM 17.92 64.256 0.138 7.08 1.83 9.33
6/7/2022 9:15:00 AM 17.96 64.328 0.137 7.11 1.84 9.34
6/7/2022 9:30:00 AM 18 64.4 0.137 7.11 1.84 9.37
6/7/2022 9:45:00 AM 18.05 64.49 0.137 7.13 1.78 9.36
6/7/2022 10:00:00 AM 18.09 64.562 0.137 7.14 1.79 9.37
6/7/2022 10:15:00 AM 18.18 64.724 0.137 7.17 1.77 9.45
6/7/2022 10:30:00 AM 18.23 64.814 0.137 7.19 1.89 9.48
6/7/2022 10:45:00 AM 18.28 64.904 0.137 7.19 1.83 9.5
6/7/2022 11:00:00 AM 18.37 65.066 0.137 7.24 1.86 9.54
6/7/2022 11:15:00 AM 18.48 65.264 0.136 7.27 1.76 9.58
6/7/2022 11:30:00 AM 18.55 65.39 0.136 7.27 1.79 9.6
6/7/2022 11:45:00 AM 18.68 65.624 0.136 7.31 1.8 9.67
6/7/2022 12:00:00 PM 18.68 65.624 0.136 7.3 1.76 9.54
6/7/2022 12:15:00 PM 18.66 65.588 0.136 7.27 1.76 9.42
6/7/2022 12:30:00 PM 18.72 65.696 0.136 7.29 1.81 9.47
6/7/2022 12:45:00 PM 18.75 65.75 0.136 7.28 1.82 9.44
6/7/2022 1:00:00 PM 18.81 65.858 0.136 7.3 1.85 9.47
6/7/2022 1:15:00 PM 18.81 65.858 0.136 7.28 1.86 9.33
6/7/2022 1:30:00 PM 18.8 65.84 0.137 7.26 2 9.23
6/7/2022 1:45:00 PM 18.8 65.84 0.137 7.24 1.89 9.2
6/7/2022 2:00:00 PM 18.87 65.966 0.138 7.24 2.12 9.26
6/7/2022 2:15:00 PM 18.95 66.11 0.14 7.28 2.37 9.32
6/7/2022 2:30:00 PM 18.96 66.128 0.14 7.27 1.86 9.28
6/7/2022 2:45:00 PM 18.97 66.146 0.14 7.27 1.96 9.22
6/7/2022 3:00:00 PM 18.97 66.146 0.139 7.24 2.22 9.19
6/7/2022 3:15:00 PM 18.99 66.182 0.139 7.24 3.13 9.1
6/7/2022 3:30:00 PM 18.99 66.182 0.138 7.21 2.87 9.06
6/7/2022 3:45:00 PM 18.98 66.164 0.138 7.19 2.47 8.95
6/7/2022 4:00:00 PM 18.93 66.074 0.139 7.14 2.04 8.83
6/7/2022 4:15:00 PM 18.9 66.02 0.139 7.09 2.1 8.71
6/7/2022 4:30:00 PM 18.88 65.984 0.139 7.08 1.98 8.65
6/7/2022 4:45:00 PM 18.86 65.948 0.138 7.07 2.09 8.55
6/7/2022 5:00:00 PM 18.84 65.912 0.137 7.03 2.11 8.53
6/7/2022 5:15:00 PM 18.82 65.876 0.137 7 2.04 8.45
6/7/2022 5:30:00 PM 18.81 65.858 0.137 6.99 1.94 8.46
6/7/2022 5:45:00 PM 18.8 65.84 0.137 7 1.92 8.48
6/7/2022 6:00:00 PM 18.79 65.82201 0.137 6.98 1.82 8.51
6/7/2022 6:15:00 PM 18.78 65.804 0.137 6.98 1.81 8.49
6/7/2022 6:30:00 PM 18.8 65.84 0.137 7 1.88 8.58
6/7/2022 6:45:00 PM 18.78 65.804 0.137 6.99 1.9 8.61
6/7/2022 7:00:00 PM 18.77 65.786 0.138 7.01 1.88 8.67
6/7/2022 7:15:00 PM 18.74 65.732 0.138 6.99 1.87 8.6
6/7/2022 7:30:00 PM 18.69 65.642 0.138 6.99 2.06 8.53
6/7/2022 7:45:00 PM 18.65 65.57 0.138 6.96 1.89 8.43
6/7/2022 8:00:00 PM 18.6 65.48 0.139 6.95 2.08 8.36
6/7/2022 8:15:00 PM 18.56 65.408 0.139 6.93 2.1 8.29
6/7/2022 8:30:00 PM 18.53 65.354 0.139 6.93 2.13 8.25
6/7/2022 8:45:00 PM 18.49 65.282 0.14 6.94 2.57 8.21
6/7/2022 9:00:00 PM 18.45 65.21 0.14 6.93 2.32 8.16
6/7/2022 9:15:00 PM 18.43 65.174 0.14 6.93 2.45 8.13
6/7/2022 9:30:00 PM 18.4 65.12 0.14 6.93 2.3 8.11
6/7/2022 9:45:00 PM 18.38 65.084 0.14 6.91 2.39 8.09
6/7/2022 10:00:00 PM 18.37 65.066 0.141 6.85 2.48 8.09
6/7/2022 10:15:00 PM 18.36 65.048 0.141 6.87 2.49 8.08
6/7/2022 10:30:00 PM 18.35 65.03 0.141 6.86 2.42 8.07
6/7/2022 10:45:00 PM 18.34 65.012 0.141 6.84 2.47 8.08
6/7/2022 11:00:00 PM 18.33 64.994 0.141 6.83 2.44 8.07
6/7/2022 11:15:00 PM 18.32 64.976 0.141 6.83 2.45 8.06
6/7/2022 11:30:00 PM 18.31 64.958 0.141 6.82 2.5 8.06
6/7/2022 11:45:00 PM 18.29 64.922 0.141 6.84 2.4 8.07
6/8/2022 12:00:00 AM 18.28 64.904 0.141 6.81 2.47 8.07
6/8/2022 12:15:00 AM 18.26 64.868 0.141 6.8 2.68 8.07
6/8/2022 12:30:00 AM 18.25 64.85 0.141 6.8 2.47 8.05
6/8/2022 12:45:00 AM 18.22 64.796 0.141 6.8 2.18 8.08
6/8/2022 1:00:00 AM 18.2 64.76 0.141 6.79 46.82 8.09
6/8/2022 1:15:00 AM 18.19 64.742 0.141 6.8 2.16 8.1
6/8/2022 1:30:00 AM 18.17 64.706 0.141 6.8 2.25 8.11
6/8/2022 1:45:00 AM 18.15 64.67 0.141 6.78 2.31 8.12
6/8/2022 2:00:00 AM 18.15 64.67 0.141 6.79 3.73 8.12
6/8/2022 2:15:00 AM 18.14 64.652 0.141 6.81 2.24 8.12
6/8/2022 2:30:00 AM 18.14 64.652 0.141 6.81 2.35 8.12
6/8/2022 2:45:00 AM 18.14 64.652 0.141 6.82 2.3 8.11
6/8/2022 3:00:00 AM 18.13 64.634 0.141 6.82 2.39 8.13
6/8/2022 3:15:00 AM 18.1 64.58 0.141 6.82 2.3 8.13
6/8/2022 3:30:00 AM 18.09 64.562 0.141 6.82 2.33 8.14
6/8/2022 3:45:00 AM 18.07 64.526 0.141 6.81 2.31 8.15
6/8/2022 4:00:00 AM 18.04 64.472 0.141 6.82 2.47 8.16
6/8/2022 4:15:00 AM 17.99 64.382 0.141 6.82 2.69 8.17
6/8/2022 4:30:00 AM 17.94 64.292 0.141 6.83 2.42 8.18
6/8/2022 4:45:00 AM 17.88 64.184 0.141 6.84 2.58 8.18
6/8/2022 5:00:00 AM 17.83 64.094 0.141 6.84 2.34 8.21
6/8/2022 5:15:00 AM 17.77 63.986 0.141 6.82 2.4 8.22
6/8/2022 5:30:00 AM 17.72 63.896 0.141 6.82 2.29 8.25
6/8/2022 5:45:00 AM 17.66 63.788 0.141 6.82 2.29 8.25
6/8/2022 6:00:00 AM 17.61 63.698 0.141 6.84 2.25 8.3
6/8/2022 6:15:00 AM 17.58 63.644 0.141 6.84 2.25 8.35
6/8/2022 6:30:00 AM 17.55 63.59 0.141 6.86 2.31 8.41
6/8/2022 6:45:00 AM 17.54 63.572 0.141 6.86 2.23 8.48
6/8/2022 7:00:00 AM 17.5 63.5 0.141 6.86 2.18 8.56
6/8/2022 7:15:00 AM 17.46 63.428 0.141 6.86 2.22 8.63
6/8/2022 7:30:00 AM 17.44 63.392 0.14 6.89 2.52 8.71
6/8/2022 7:45:00 AM 17.44 63.392 0.14 6.9 2.26 8.79
6/8/2022 8:00:00 AM 17.44 63.392 0.14 6.93 2.27 8.86
6/8/2022 8:15:00 AM 17.46 63.428 0.14 6.94 2.18 8.94
6/8/2022 8:30:00 AM 17.49 63.482 0.14 6.96 2.18 9
6/8/2022 8:45:00 AM 17.52 63.536 0.14 6.96 2.21 9.06
6/8/2022 9:00:00 AM 17.56 63.608 0.14 6.98 2.37 9.13
6/8/2022 9:15:00 AM 17.61 63.698 0.14 7 2.21 9.18
6/8/2022 9:30:00 AM 17.66 63.788 0.14 7.03 2.25 9.24
6/8/2022 9:45:00 AM 17.73 63.914 0.14 7.05 2.34 9.31
6/8/2022 10:00:00 AM 17.76 63.968 0.14 7.06 2.13 9.36
6/8/2022 10:15:00 AM 17.75 63.95 0.14 7.09 2.26 9.39
6/8/2022 10:30:00 AM 17.79 64.022 0.14 7.09 2.25 9.45
6/8/2022 10:45:00 AM 17.79 64.022 0.14 7.13 2.23 9.5
6/8/2022 11:00:00 AM 17.85 64.13 0.139 7.15 2.36 9.54
6/8/2022 11:15:00 AM 18.01 64.418 0.139 7.18 2.24 9.6
6/8/2022 11:30:00 AM 18.2 64.76 0.139 7.19 2.27 9.64
6/8/2022 11:45:00 AM 18.45 65.21 0.139 7.23 2.31 9.66
6/8/2022 12:00:00 PM 18.81 65.858 0.139 7.25 2.34 9.64
6/8/2022 12:15:00 PM 19.11 66.398 0.139 7.29 2.48 9.63
6/8/2022 12:30:00 PM 19.45 67.01 0.139 7.31 2.45 9.61
6/8/2022 12:45:00 PM 19.76 67.568 0.138 7.33 2.35 9.59
6/8/2022 1:00:00 PM 20.07 68.126 0.138 7.36 2.57 9.58
6/8/2022 1:15:00 PM 20.49 68.882 0.138 7.4 2.49 9.57
6/8/2022 1:30:00 PM 20.95 69.71 0.138 7.42 2.43 9.54
6/8/2022 1:45:00 PM 21.46 70.628 0.138 7.45 2.45 9.51
6/8/2022 2:00:00 PM 21.84 71.312 0.138 7.47 2.56 9.45
6/8/2022 2:15:00 PM 22.15 71.87 0.139 7.47 2.54 9.4
6/8/2022 2:30:00 PM 22.38 72.284 0.139 7.48 2.54 9.35
6/8/2022 2:45:00 PM 22.62 72.716 0.139 7.5 2.47 9.31
6/8/2022 3:00:00 PM 22.98 73.364 0.139 7.51 2.33 9.27
6/8/2022 3:15:00 PM 23.26 73.868 0.139 7.53 2.2 9.22
6/8/2022 3:30:00 PM 23.5 74.3 0.139 7.53 2.34 9.17
6/8/2022 3:45:00 PM 23.67 74.606 0.139 7.53 2.39 9.1
6/8/2022 4:00:00 PM 23.76 74.768 0.14 7.53 2.48 9.03
6/8/2022 4:15:00 PM 23.77 74.786 0.14 7.51 2.27 8.98
6/8/2022 4:30:00 PM 23.73 74.714 0.14 7.49 2.16 8.91
6/8/2022 4:45:00 PM 23.62 74.516 0.14 7.47 2.09 8.84
6/8/2022 5:00:00 PM 23.53 74.354 0.14 7.44 2.02 8.78
6/8/2022 5:15:00 PM 23.37 74.066 0.14 7.4 2.14 8.7
6/8/2022 5:30:00 PM 23.13 73.634 0.141 7.37 2.56 8.61
6/8/2022 5:45:00 PM 22.76 72.968 0.141 7.3 2.07 8.44
6/8/2022 6:00:00 PM 22.41 72.338 0.141 7.24 2.04 8.28
6/8/2022 6:15:00 PM 22.15 71.87 0.141 7.19 2.19 8.17
6/8/2022 6:30:00 PM 21.93 71.474 0.142 7.15 2.25 8.08
6/8/2022 6:45:00 PM 21.77 71.186 0.142 7.13 2.26 8.11
6/8/2022 7:00:00 PM 21.67 71.006 0.142 7.12 2.18 8.13
6/8/2022 7:15:00 PM 21.57 70.826 0.142 7.11 2.41 8.14
6/8/2022 7:30:00 PM 21.46 70.628 0.142 7.09 2.26 8.1
6/8/2022 7:45:00 PM 21.35 70.43 0.142 7.08 2.17 8.06
6/8/2022 8:00:00 PM 21.22 70.196 0.142 7.05 2.19 7.99
6/8/2022 8:15:00 PM 21.1 69.98 0.143 7.03 2.18 7.92
6/8/2022 8:30:00 PM 20.97 69.746 0.143 6.99 2.26 7.87
6/8/2022 8:45:00 PM 20.83 69.494 0.143 6.99 2.25 7.8
6/8/2022 9:00:00 PM 20.7 69.26 0.143 6.97 2.29 7.77
6/8/2022 9:15:00 PM 20.58 69.044 0.143 6.95 2.49 7.73
6/8/2022 9:30:00 PM 20.46 68.828 0.143 6.92 2.59 7.72
6/8/2022 9:45:00 PM 20.33 68.594 0.144 6.91 2.55 7.72
6/8/2022 10:00:00 PM 20.21 68.378 0.144 6.9 2.68 7.72
6/8/2022 10:15:00 PM 20.09 68.162 0.144 6.9 2.59 7.73
6/8/2022 10:30:00 PM 19.97 67.946 0.144 6.89 2.6 7.74
6/8/2022 10:45:00 PM 19.85 67.73 0.144 6.88 2.57 7.74
6/8/2022 11:00:00 PM 19.72 67.496 0.144 6.88 2.61 7.77
6/8/2022 11:15:00 PM 19.61 67.298 0.144 6.87 2.58 7.77
6/8/2022 11:30:00 PM 19.5 67.1 0.144 6.87 2.75 7.81
6/8/2022 11:45:00 PM 19.37 66.866 0.144 6.84 2.61 7.83
6/9/2022 12:00:00 AM 19.24 66.632 0.144 6.83 2.75 7.84
6/9/2022 12:15:00 AM 19.07 66.326 0.142 6.83 3.27 7.88
6/9/2022 12:30:00 AM 19.03 66.254 0.139 6.94 14.44 7.92
6/9/2022 12:45:00 AM 18.93 66.074 0.136 6.98 9.89 7.94
6/9/2022 1:00:00 AM 18.76 65.768 0.137 6.94 5.48 7.92
6/9/2022 1:15:00 AM 18.61 65.498 0.137 6.87 4.84 7.93
6/9/2022 1:30:00 AM 18.5 65.3 0.139 6.88 10.57 7.91
6/9/2022 1:45:00 AM 18.39 65.102 0.138 6.86 10.29 7.94
6/9/2022 2:00:00 AM 18.36 65.048 0.137 6.86 8.09 7.94
6/9/2022 2:15:00 AM 18.28 64.904 0.138 6.84 6.39 7.92
6/9/2022 2:30:00 AM 18.24 64.832 0.138 6.8 6.84 7.91
6/9/2022 2:45:00 AM 18.22 64.796 0.138 6.78 4.52 7.92
6/9/2022 3:00:00 AM 18.21 64.778 0.138 6.8 4.08 7.92
6/9/2022 3:15:00 AM 18.2 64.76 0.138 6.78 3.99 7.91
6/9/2022 3:30:00 AM 18.19 64.742 0.138 6.79 3.41 7.91
6/9/2022 3:45:00 AM 18.18 64.724 0.138 6.8 3.21 7.93
6/9/2022 4:00:00 AM 18.18 64.724 0.138 6.8 3.05 7.92
6/9/2022 4:15:00 AM 18.18 64.724 0.137 6.78 2.81 7.92
6/9/2022 4:30:00 AM 18.18 64.724 0.137 6.8 2.82 7.92
6/9/2022 4:45:00 AM 18.18 64.724 0.137 6.8 2.89 7.91
6/9/2022 5:00:00 AM 18.19 64.742 0.137 6.81 2.88 7.92
6/9/2022 5:15:00 AM 18.2 64.76 0.137 6.81 2.7 7.93
6/9/2022 5:30:00 AM 18.21 64.778 0.137 6.81 2.77 7.93
6/9/2022 5:45:00 AM 18.22 64.796 0.137 6.8 2.6 7.94
6/9/2022 6:00:00 AM 18.24 64.832 0.137 6.83 2.59 7.95
6/9/2022 6:15:00 AM 18.26 64.868 0.138 6.83 2.48 7.98
6/9/2022 6:30:00 AM 18.27 64.886 0.138 6.83 2.63 7.99
6/9/2022 6:45:00 AM 18.29 64.922 0.138 6.85 3.52 8.02
6/9/2022 7:00:00 AM 18.31 64.958 0.138 6.83 2.6 8.04
6/9/2022 7:15:00 AM 18.34 65.012 0.139 6.84 2.16 8.1
6/9/2022 7:30:00 AM 18.37 65.066 0.139 6.87 2.19 8.19
6/9/2022 7:45:00 AM 18.41 65.138 0.139 6.88 2.31 8.24
6/9/2022 8:00:00 AM 18.47 65.246 0.139 6.91 2.14 8.29
6/9/2022 8:15:00 AM 18.52 65.336 0.138 6.92 2.15 8.39
6/9/2022 8:30:00 AM 18.61 65.498 0.138 6.93 2.07 8.52
6/9/2022 8:45:00 AM 18.71 65.67799 0.138 6.97 2.31 8.65
6/9/2022 9:00:00 AM 18.79 65.82201 0.138 6.99 2.09 8.73
6/9/2022 9:15:00 AM 18.87 65.966 0.138 7.02 2.09 8.78
6/9/2022 9:30:00 AM 18.93 66.074 0.138 7.03 2.12 8.83
6/9/2022 9:45:00 AM 18.99 66.182 0.138 7.05 2.03 8.88
6/9/2022 10:00:00 AM 19.06 66.308 0.138 7.08 2.08 8.96
6/9/2022 10:15:00 AM 19.18 66.524 0.138 7.12 2.09 9.06
6/9/2022 10:30:00 AM 19.33 66.794 0.138 7.14 1.89 9.15
6/9/2022 10:45:00 AM 19.41 66.938 0.138 7.19 2 9.16
6/9/2022 11:00:00 AM 19.45 67.01 0.138 7.2 2.58 9.2
6/9/2022 11:15:00 AM 19.58 67.244 0.138 7.21 1.93 9.22
6/9/2022 11:30:00 AM 19.72 67.496 0.138 7.26 1.98 9.28
6/9/2022 11:45:00 AM 19.82 67.676 0.138 7.29 1.92 9.3
6/9/2022 12:00:00 PM 19.94 67.892 0.138 7.3 1.95 9.31
6/9/2022 12:15:00 PM 19.97 67.946 0.138 7.31 1.91 9.25
6/9/2022 12:30:00 PM 19.93 67.874 0.139 7.29 1.95 9.21
6/9/2022 12:45:00 PM 20.12 68.216 0.139 7.32 1.95 9.29
6/9/2022 1:00:00 PM 20.34 68.612 0.139 7.35 1.9 9.34
6/9/2022 1:15:00 PM 20.4 68.72 0.139 7.35 1.91 9.32
6/9/2022 1:30:00 PM 20.52 68.936 0.139 7.36 1.9 9.29
6/9/2022 1:45:00 PM 20.47 68.846 0.14 7.33 1.95 9.21
6/9/2022 2:00:00 PM 20.41 68.738 0.14 7.33 2.16 9.19
6/9/2022 2:15:00 PM 20.35 68.63 0.141 7.33 2.35 9.23
6/9/2022 2:30:00 PM 20.46 68.828 0.141 7.37 1.95 9.29
6/9/2022 2:45:00 PM 20.44 68.792 0.141 7.39 1.88 9.32
6/9/2022 3:00:00 PM 20.52 68.936 0.142 7.42 1.99 9.35
6/9/2022 3:15:00 PM 20.66 69.188 0.142 7.41 2.12 9.32
6/9/2022 3:30:00 PM 20.47 68.846 0.142 7.37 1.93 9.17
6/9/2022 3:45:00 PM 20.33 68.594 0.143 7.33 2.14 9.12
6/9/2022 4:00:00 PM 20.4 68.72 0.143 7.37 1.93 9.21
6/9/2022 4:15:00 PM 20.51 68.918 0.143 7.38 2.03 9.21
6/9/2022 4:30:00 PM 20.42 68.756 0.143 7.38 2.08 9.15
6/9/2022 4:45:00 PM 20.38 68.684 0.143 7.39 2.18 9.16
6/9/2022 5:00:00 PM 20.36 68.648 0.143 7.38 2.1 9.13
6/9/2022 5:15:00 PM 20.36 68.648 0.143 7.37 2.06 9.05
6/9/2022 5:30:00 PM 20.28 68.504 0.143 7.29 2.07 8.84
6/9/2022 5:45:00 PM 20.21 68.378 0.143 7.23 2.16 8.69
6/9/2022 6:00:00 PM 20.22 68.396 0.143 7.23 1.98 8.7
6/9/2022 6:15:00 PM 20.24 68.432 0.143 7.22 1.97 8.78
6/9/2022 6:30:00 PM 20.28 68.504 0.143 7.23 2.02 8.8
6/9/2022 6:45:00 PM 20.24 68.432 0.143 7.23 2.14 8.78
6/9/2022 7:00:00 PM 20.21 68.378 0.144 7.21 2.28 8.74
6/9/2022 7:15:00 PM 20.1 68.18 0.144 7.18 2.25 8.63
6/9/2022 7:30:00 PM 20 68 0.144 7.14 2.19 8.52
6/9/2022 7:45:00 PM 19.89 67.802 0.145 7.11 2.3 8.43
6/9/2022 8:00:00 PM 19.77 67.586 0.145 7.09 2.44 8.36
6/9/2022 8:15:00 PM 19.65 67.37 0.145 7.07 2.05 8.3
6/9/2022 8:30:00 PM 19.52 67.136 0.146 7.05 2.19 8.26
6/9/2022 8:45:00 PM 19.4 66.92 0.146 7.02 2.41 8.22
6/9/2022 9:00:00 PM 19.27 66.686 0.146 7 2.28 8.2
6/9/2022 9:15:00 PM 19.13 66.434 0.146 6.98 2.54 8.17
6/9/2022 9:30:00 PM 19.02 66.236 0.146 6.99 2.5 8.16
6/9/2022 9:45:00 PM 18.93 66.074 0.146 6.98 2.72 8.15
6/9/2022 10:00:00 PM 18.86 65.948 0.146 6.97 2.52 8.14
6/9/2022 10:15:00 PM 18.8 65.84 0.146 6.94 2.49 8.14
6/9/2022 10:30:00 PM 18.75 65.75 0.146 6.93 2.52 8.13
6/9/2022 10:45:00 PM 18.7 65.66 0.147 6.91 2.62 8.13
6/9/2022 11:00:00 PM 18.65 65.57 0.147 6.9 2.65 8.13
6/9/2022 11:15:00 PM 18.6 65.48 0.147 6.9 2.58 8.13
6/9/2022 11:30:00 PM 18.54 65.372 0.147 6.9 2.44 8.14
6/9/2022 11:45:00 PM 18.48 65.264 0.147 6.88 2.56 8.15
6/10/2022 12:00:00 AM 18.41 65.138 0.147 6.88 2.62 8.16
6/10/2022 12:15:00 AM 18.34 65.012 0.147 6.88 2.61 8.18
6/10/2022 12:30:00 AM 18.26 64.868 0.147 6.88 2.5 8.2
6/10/2022 12:45:00 AM 18.17 64.706 0.147 6.87 2.66 8.22
6/10/2022 1:00:00 AM 18.09 64.562 0.147 6.87 2.74 8.24
6/10/2022 1:15:00 AM 18 64.4 0.147 6.87 2.63 8.26
6/10/2022 1:30:00 AM 17.92 64.256 0.147 6.87 2.64 8.28
6/10/2022 1:45:00 AM 17.83 64.094 0.147 6.87 2.63 8.31
6/10/2022 2:00:00 AM 17.74 63.932 0.147 6.87 2.82 8.33
6/10/2022 2:15:00 AM 17.66 63.788 0.147 6.87 2.8 8.34
6/10/2022 2:30:00 AM 17.58 63.644 0.147 6.87 2.73 8.37
6/10/2022 2:45:00 AM 17.5 63.5 0.148 6.87 2.67 8.38
6/10/2022 3:00:00 AM 17.44 63.392 0.148 6.88 2.61 8.4
6/10/2022 3:15:00 AM 17.39 63.302 0.148 6.88 2.64 8.41
6/10/2022 3:30:00 AM 17.36 63.248 0.148 6.88 2.57 8.42
6/10/2022 3:45:00 AM 17.32 63.176 0.149 6.87 2.65 8.43
6/10/2022 4:00:00 AM 17.28 63.104 0.149 6.86 2.56 8.44
6/10/2022 4:15:00 AM 17.22 62.996 0.15 6.86 2.51 8.45
6/10/2022 4:30:00 AM 17.2 62.96 0.15 6.86 2.56 8.47
6/10/2022 4:45:00 AM 17.16 62.888 0.151 6.86 2.54 8.47
6/10/2022 5:00:00 AM 17.15 62.87 0.151 6.86 2.61 8.47
6/10/2022 5:15:00 AM 17.13 62.834 0.151 6.85 2.76 8.48
6/10/2022 5:30:00 AM 17.11 62.798 0.151 6.86 2.49 8.49
6/10/2022 5:45:00 AM 17.1 62.78 0.151 6.86 2.58 8.5
6/10/2022 6:00:00 AM 17.08 62.744 0.151 6.87 2.37 8.52
6/10/2022 6:15:00 AM 17.06 62.708 0.151 6.88 2.38 8.54
6/10/2022 6:30:00 AM 17.03 62.654 0.151 6.89 2.38 8.58
6/10/2022 6:45:00 AM 17 62.6 0.151 6.9 2.33 8.62
6/10/2022 7:00:00 AM 17 62.6 0.151 6.9 2.47 8.66
6/10/2022 7:15:00 AM 16.99 62.582 0.151 6.92 2.46 8.73
6/10/2022 7:30:00 AM 17.01 62.618 0.151 6.9 2.54 8.82
6/10/2022 7:45:00 AM 17.04 62.672 0.15 6.94 2.59 8.94
6/10/2022 8:00:00 AM 17.09 62.762 0.15 6.96 2.3 9.01
6/10/2022 8:15:00 AM 17.14 62.852 0.15 6.97 2.33 9.05
6/10/2022 8:30:00 AM 17.18 62.924 0.15 7 2.32 9.07
6/10/2022 8:45:00 AM 17.23 63.014 0.15 7 2.24 9.09
6/10/2022 9:00:00 AM 17.29 63.122 0.15 7.01 2.3 9.09
6/10/2022 9:15:00 AM 17.36 63.248 0.15 7.04 2.31 9.1
6/10/2022 9:30:00 AM 17.42 63.356 0.15 7.05 2.14 9.12
6/10/2022 9:45:00 AM 17.5 63.5 0.15 7.05 2.25 9.15
6/10/2022 10:00:00 AM 17.57 63.626 0.15 7.08 2.33 9.18
6/10/2022 10:15:00 AM 17.64 63.752 0.15 7.09 2.19 9.22
6/10/2022 10:30:00 AM 17.72 63.896 0.15 7.11 2.39 9.27
6/10/2022 10:45:00 AM 17.85 64.13 0.149 7.12 2.13 9.33
6/10/2022 11:00:00 AM 18.03 64.454 0.149 7.11 2.24 9.4
6/10/2022 11:15:00 AM 18.16 64.688 0.149 7.17 2.22 9.41
6/10/2022 11:30:00 AM 18.33 64.994 0.149 7.2 2.18 9.44
6/10/2022 11:45:00 AM 18.5 65.3 0.149 7.22 2.26 9.44
6/10/2022 12:00:00 PM 18.77 65.786 0.148 7.24 2.1 9.46
6/10/2022 12:15:00 PM 19.06 66.308 0.148 7.28 2.02 9.48
6/10/2022 12:30:00 PM 19.4 66.92 0.148 7.31 2.05 9.48
6/10/2022 12:45:00 PM 19.78 67.604 0.148 7.34 2.13 9.49
6/10/2022 1:00:00 PM 20.06 68.108 0.148 7.36 1.97 9.49
6/10/2022 1:15:00 PM 20.36 68.648 0.148 7.39 2.08 9.49
6/10/2022 1:30:00 PM 20.63 69.134 0.147 7.41 2.02 9.48
6/10/2022 1:45:00 PM 20.63 69.134 0.147 7.41 2.04 9.42
6/10/2022 2:00:00 PM 20.71 69.278 0.147 7.41 2.09 9.39
6/10/2022 2:15:00 PM 21.05 69.89 0.147 7.44 1.97 9.41
6/10/2022 2:30:00 PM 21.16 70.088 0.147 7.45 1.95 9.37
6/10/2022 2:45:00 PM 21.56 70.808 0.147 7.48 1.89 9.4
6/10/2022 3:00:00 PM 21.7 71.06 0.147 7.49 2.09 9.35
6/10/2022 3:15:00 PM 21.79 71.222 0.147 7.51 2.08 9.34
6/10/2022 3:30:00 PM 21.92 71.456 0.147 7.53 2 9.34
6/10/2022 3:45:00 PM 22.03 71.654 0.147 7.53 1.89 9.31
6/10/2022 4:00:00 PM 22.07 71.726 0.147 7.51 1.98 9.23
6/10/2022 4:15:00 PM 21.72 71.096 0.147 7.46 1.92 9.12
6/10/2022 4:30:00 PM 21.84 71.312 0.147 7.46 1.87 9.12
6/10/2022 4:45:00 PM 21.7 71.06 0.147 7.43 1.93 9.06
6/10/2022 5:00:00 PM 21.53 70.754 0.148 7.42 1.93 8.99
6/10/2022 5:15:00 PM 21.35 70.43 0.148 7.38 1.8 8.91
6/10/2022 5:30:00 PM 21.33 70.394 0.148 7.37 1.8 8.89
6/10/2022 5:45:00 PM 21.32 70.376 0.148 7.36 1.85 8.88
6/10/2022 6:00:00 PM 21.16 70.088 0.148 7.32 1.88 8.79
6/10/2022 6:15:00 PM 21.06 69.908 0.148 7.3 1.87 8.71
6/10/2022 6:30:00 PM 21 69.8 0.148 7.27 1.87 8.68
6/10/2022 6:45:00 PM 20.9 69.62 0.148 7.25 1.89 8.65
6/10/2022 7:00:00 PM 20.8 69.44 0.148 7.24 1.9 8.61
6/10/2022 7:15:00 PM 20.7 69.26 0.149 7.2 2.1 8.56
6/10/2022 7:30:00 PM 20.59 69.062 0.149 7.18 2 8.48
6/10/2022 7:45:00 PM 20.48 68.864 0.149 7.15 2.07 8.39
6/10/2022 8:00:00 PM 20.37 68.666 0.149 7.12 2.04 8.3
6/10/2022 8:15:00 PM 20.27 68.486 0.15 7.09 2.07 8.21
6/10/2022 8:30:00 PM 20.18 68.324 0.15 7.07 2.02 8.13
6/10/2022 8:45:00 PM 20.08 68.144 0.15 7.03 2.06 8.06
6/10/2022 9:00:00 PM 19.98 67.964 0.15 7.03 2.02 7.99
6/10/2022 9:15:00 PM 19.87 67.766 0.151 7 2.25 7.95
6/10/2022 9:30:00 PM 19.75 67.55 0.151 6.98 2.23 7.94
6/10/2022 9:45:00 PM 19.65 67.37 0.151 6.97 2.41 7.93
6/10/2022 10:00:00 PM 19.53 67.154 0.151 6.96 2.24 7.92
6/10/2022 10:15:00 PM 19.42 66.956 0.151 6.95 2.24 7.93
6/10/2022 10:30:00 PM 19.31 66.758 0.151 6.94 2.26 7.94
6/10/2022 10:45:00 PM 19.2 66.56 0.151 6.94 2.39 7.95
6/10/2022 11:00:00 PM 19.08 66.344 0.151 6.92 2.19 7.96
6/10/2022 11:15:00 PM 18.96 66.128 0.151 6.93 2.2 7.98
6/10/2022 11:30:00 PM 18.85 65.93 0.151 6.91 2.3 8
6/10/2022 11:45:00 PM 18.74 65.732 0.15 6.9 2.93 8.03
6/11/2022 12:00:00 AM 18.62 65.516 0.15 6.89 2.34 8.05
6/11/2022 12:15:00 AM 18.51 65.318 0.15 6.89 2.22 8.07
6/11/2022 12:30:00 AM 18.39 65.102 0.15 6.9 2.26 8.1
6/11/2022 12:45:00 AM 18.28 64.904 0.15 6.86 2.14 8.13
6/11/2022 1:00:00 AM 18.16 64.688 0.15 6.87 2.24 8.16
6/11/2022 1:15:00 AM 18.05 64.49 0.15 6.86 2.23 8.18
6/11/2022 1:30:00 AM 17.94 64.292 0.15 6.87 2.22 8.2
6/11/2022 1:45:00 AM 17.84 64.112 0.15 6.86 2.17 8.23
6/11/2022 2:00:00 AM 17.74 63.932 0.149 6.86 2.19 8.25
6/11/2022 2:15:00 AM 17.64 63.752 0.149 6.85 2.26 8.28
6/11/2022 2:30:00 AM 17.55 63.59 0.149 6.84 2.26 8.31
6/11/2022 2:45:00 AM 17.47 63.446 0.149 6.85 2.29 8.32
6/11/2022 3:00:00 AM 17.38 63.284 0.149 6.84 2.28 8.34
6/11/2022 3:15:00 AM 17.31 63.158 0.149 6.85 2.07 8.36
6/11/2022 3:30:00 AM 17.23 63.014 0.149 6.85 2.11 8.38
6/11/2022 3:45:00 AM 17.16 62.888 0.149 6.84 2.14 8.39
6/11/2022 4:00:00 AM 17.09 62.762 0.149 6.84 2.07 8.41
6/11/2022 4:15:00 AM 17.03 62.654 0.149 6.84 2.02 8.43
6/11/2022 4:30:00 AM 16.98 62.564 0.148 6.83 2.07 8.44
6/11/2022 4:45:00 AM 16.91 62.438 0.148 6.85 2.11 8.46
6/11/2022 5:00:00 AM 16.85 62.33 0.148 6.84 2.06 8.46
6/11/2022 5:15:00 AM 16.79 62.222 0.148 6.84 2.21 8.48
6/11/2022 5:30:00 AM 16.74 62.132 0.148 6.84 2.26 8.49
6/11/2022 5:45:00 AM 16.69 62.042 0.148 6.85 2.04 8.52
6/11/2022 6:00:00 AM 16.65 61.97 0.148 6.85 2.1 8.56
6/11/2022 6:15:00 AM 16.62 61.916 0.148 6.86 1.99 8.61
6/11/2022 6:30:00 AM 16.6 61.88 0.148 6.87 1.95 8.65
6/11/2022 6:45:00 AM 16.58 61.844 0.148 6.87 2.09 8.69
6/11/2022 7:00:00 AM 16.57 61.826 0.148 6.89 2 8.72
6/11/2022 7:15:00 AM 16.56 61.808 0.148 6.9 1.88 8.79
6/11/2022 7:30:00 AM 16.56 61.808 0.147 6.92 1.92 8.87
6/11/2022 7:45:00 AM 16.57 61.826 0.147 6.94 2.06 8.96
6/11/2022 8:00:00 AM 16.61 61.898 0.147 6.97 1.92 9.1
6/11/2022 8:15:00 AM 16.68 62.024 0.147 7 1.92 9.25
6/11/2022 8:30:00 AM 16.77 62.186 0.146 7.03 1.93 9.36
6/11/2022 8:45:00 AM 16.84 62.312 0.146 7.07 2 9.45
6/11/2022 9:00:00 AM 16.9 62.42 0.146 7.09 1.81 9.51
6/11/2022 9:15:00 AM 16.97 62.546 0.146 7.12 1.89 9.56
6/11/2022 9:30:00 AM 17.03 62.654 0.146 7.14 2 9.62
6/11/2022 9:45:00 AM 17.14 62.852 0.146 7.17 1.91 9.68
6/11/2022 10:00:00 AM 17.22 62.996 0.145 7.19 1.81 9.73
6/11/2022 10:15:00 AM 17.33 63.194 0.145 7.23 1.89 9.77
6/11/2022 10:30:00 AM 17.39 63.302 0.145 7.24 1.83 9.76
6/11/2022 10:45:00 AM 17.44 63.392 0.145 7.25 1.84 9.76
6/11/2022 11:00:00 AM 17.51 63.518 0.145 7.28 1.78 9.78
6/11/2022 11:15:00 AM 17.64 63.752 0.145 7.31 1.78 9.84
6/11/2022 11:30:00 AM 17.78 64.004 0.144 7.34 1.85 9.85
6/11/2022 11:45:00 AM 17.9 64.22 0.144 7.36 1.76 9.85
6/11/2022 12:00:00 PM 18.02 64.436 0.144 7.39 1.68 9.86
6/11/2022 12:15:00 PM 18.18 64.724 0.144 7.42 1.72 9.89
6/11/2022 12:30:00 PM 18.36 65.048 0.144 7.46 1.9 9.9
6/11/2022 12:45:00 PM 18.52 65.336 0.144 7.5 1.72 9.87
6/11/2022 1:00:00 PM 18.73 65.714 0.144 7.48 1.95 9.84
6/11/2022 1:15:00 PM 19.05 66.29 0.144 7.52 1.74 9.85
6/11/2022 1:30:00 PM 19.37 66.866 0.144 7.54 1.71 9.83
6/11/2022 1:45:00 PM 19.88 67.784 0.144 7.54 1.7 9.77
6/11/2022 2:00:00 PM 20.28 68.504 0.144 7.56 1.89 9.72
6/11/2022 2:15:00 PM 20.64 69.152 0.144 7.57 1.74 9.66
6/11/2022 2:30:00 PM 20.65 69.17 0.144 7.57 1.84 9.6
6/11/2022 2:45:00 PM 20.67 69.206 0.144 7.57 1.82 9.57
6/11/2022 3:00:00 PM 20.92 69.656 0.144 7.59 1.79 9.56
6/11/2022 3:15:00 PM 21.1 69.98 0.144 7.59 1.69 9.52
6/11/2022 3:30:00 PM 21.21 70.17799 0.144 7.59 1.73 9.48
6/11/2022 3:45:00 PM 21.32 70.376 0.144 7.61 1.71 9.44
6/11/2022 4:00:00 PM 21.08 69.944 0.144 7.57 1.78 9.36
6/11/2022 4:15:00 PM 20.96 69.728 0.144 7.56 1.69 9.31
6/11/2022 4:30:00 PM 21.03 69.854 0.143 7.58 1.8 9.35
6/11/2022 4:45:00 PM 21.2 70.16 0.143 7.6 1.72 9.36
6/11/2022 5:00:00 PM 21.49 70.682 0.143 7.61 1.75 9.35
6/11/2022 5:15:00 PM 21.67 71.006 0.143 7.61 1.74 9.31
6/11/2022 5:30:00 PM 21.54 70.772 0.144 7.58 1.83 9.21
6/11/2022 5:45:00 PM 21.21 70.17799 0.144 7.52 1.89 9.07
6/11/2022 6:00:00 PM 20.84 69.512 0.144 7.43 1.76 8.9
6/11/2022 6:15:00 PM 20.68 69.224 0.144 7.37 1.81 8.82
6/11/2022 6:30:00 PM 20.6 69.08 0.144 7.33 1.86 8.77
6/11/2022 6:45:00 PM 20.46 68.828 0.144 7.3 1.74 8.69
6/11/2022 7:00:00 PM 20.36 68.648 0.144 7.26 1.86 8.62
6/11/2022 7:15:00 PM 20.29 68.522 0.144 7.23 1.75 8.59
6/11/2022 7:30:00 PM 20.15 68.27 0.144 7.2 1.78 8.53
6/11/2022 7:45:00 PM 20.01 68.018 0.144 7.17 1.92 8.43
6/11/2022 8:00:00 PM 19.86 67.748 0.144 7.14 1.83 8.35
6/11/2022 8:15:00 PM 19.7 67.46 0.144 7.11 2.01 8.28
6/11/2022 8:30:00 PM 19.54 67.172 0.144 7.08 1.85 8.21
6/11/2022 8:45:00 PM 19.37 66.866 0.144 7.06 1.93 8.16
6/11/2022 9:00:00 PM 19.19 66.542 0.144 7.04 1.91 8.12
6/11/2022 9:15:00 PM 19 66.2 0.144 7.02 2.06 8.1
6/11/2022 9:30:00 PM 18.82 65.876 0.144 7.01 2.33 8.1
6/11/2022 9:45:00 PM 18.64 65.552 0.144 6.98 2.15 8.11
6/11/2022 10:00:00 PM 18.46 65.228 0.144 6.97 2.25 8.12
6/11/2022 10:15:00 PM 18.29 64.922 0.144 6.96 2.27 8.15
6/11/2022 10:30:00 PM 18.11 64.598 0.144 6.95 2.27 8.17
6/11/2022 10:45:00 PM 17.95 64.31 0.144 6.94 2.25 8.2
6/11/2022 11:00:00 PM 17.8 64.04 0.144 6.93 2.3 8.22
6/11/2022 11:15:00 PM 17.66 63.788 0.144 6.91 2.31 8.24
6/11/2022 11:30:00 PM 17.53 63.554 0.144 6.9 2.25 8.27
6/11/2022 11:45:00 PM 17.42 63.356 0.144 6.9 2.21 8.3
6/12/2022 12:00:00 AM 17.32 63.176 0.144 6.88 2.18 8.32
6/12/2022 12:15:00 AM 17.24 63.032 0.145 6.87 2.24 8.33
6/12/2022 12:30:00 AM 17.17 62.906 0.145 6.87 2.14 8.34
6/12/2022 12:45:00 AM 17.12 62.816 0.145 6.87 2.15 8.35
6/12/2022 1:00:00 AM 17.07 62.726 0.145 6.85 2.17 8.37
6/12/2022 1:15:00 AM 17.03 62.654 0.145 6.86 2.14 8.37
6/12/2022 1:30:00 AM 17 62.6 0.145 6.85 2.22 8.38
6/12/2022 1:45:00 AM 16.96 62.528 0.145 6.85 2.29 8.38
6/12/2022 2:00:00 AM 16.93 62.474 0.145 6.86 2.27 8.39
6/12/2022 2:15:00 AM 16.9 62.42 0.145 6.86 2.21 8.4
6/12/2022 2:30:00 AM 16.87 62.366 0.145 6.86 2.14 8.41
6/12/2022 2:45:00 AM 16.85 62.33 0.146 6.86 2.2 8.41
6/12/2022 3:00:00 AM 16.82 62.276 0.145 6.87 2.08 8.42
6/12/2022 3:15:00 AM 16.8 62.24 0.146 6.86 2.14 8.43
6/12/2022 3:30:00 AM 16.78 62.204 0.146 6.86 2.2 8.44
6/12/2022 3:45:00 AM 16.75 62.15 0.145 6.87 2.31 8.44
6/12/2022 4:00:00 AM 16.73 62.114 0.145 6.85 2.15 8.45
6/12/2022 4:15:00 AM 16.71 62.078 0.145 6.86 1.97 8.45
6/12/2022 4:30:00 AM 16.69 62.042 0.145 6.87 2.5 8.45
6/12/2022 4:45:00 AM 16.67 62.006 0.145 6.86 2.12 8.44
6/12/2022 5:00:00 AM 16.65 61.97 0.145 6.88 2.08 8.47
6/12/2022 5:15:00 AM 16.62 61.916 0.145 6.87 2.03 8.47
6/12/2022 5:30:00 AM 16.61 61.898 0.145 6.87 2.37 8.48
6/12/2022 5:45:00 AM 16.6 61.88 0.145 6.86 1.84 8.49
6/12/2022 6:00:00 AM 16.59 61.862 0.145 6.86 1.81 8.51
6/12/2022 6:15:00 AM 16.57 61.826 0.145 6.88 1.81 8.57
6/12/2022 6:30:00 AM 16.58 61.844 0.145 6.88 1.82 8.62
6/12/2022 6:45:00 AM 16.6 61.88 0.145 6.88 1.86 8.67
6/12/2022 7:00:00 AM 16.62 61.916 0.145 6.91 1.82 8.72
6/12/2022 7:15:00 AM 16.63 61.934 0.145 6.92 1.7 8.75
6/12/2022 7:30:00 AM 16.66 61.988 0.145 6.95 1.75 8.82
6/12/2022 7:45:00 AM 16.73 62.114 0.144 6.97 1.75 8.97
6/12/2022 8:00:00 AM 16.78 62.204 0.144 6.99 1.8 9.07
6/12/2022 8:15:00 AM 16.85 62.33 0.144 7.01 1.77 9.18
6/12/2022 8:30:00 AM 16.91 62.438 0.144 7.03 1.79 9.24
6/12/2022 8:45:00 AM 16.96 62.528 0.144 7.06 2.15 9.25
6/12/2022 9:00:00 AM 17.06 62.708 0.143 7.08 2.02 9.39
6/12/2022 9:15:00 AM 17.17 62.906 0.143 7.12 2.12 9.48
6/12/2022 9:30:00 AM 17.24 63.032 0.143 7.14 2.21 9.5
6/12/2022 9:45:00 AM 17.38 63.284 0.143 7.16 2.05 9.53
6/12/2022 10:00:00 AM 17.58 63.644 0.143 7.2 2.06 9.61
6/12/2022 10:15:00 AM 17.74 63.932 0.142 7.23 2.02 9.69
6/12/2022 10:30:00 AM 17.83 64.094 0.142 7.27 2.15 9.72
6/12/2022 10:45:00 AM 17.98 64.364 0.142 7.31 2.01 9.76
6/12/2022 11:00:00 AM 18.19 64.742 0.142 7.34 2.07 9.76
6/12/2022 11:15:00 AM 18.49 65.282 0.142 7.38 2.06 9.8
6/12/2022 11:30:00 AM 18.84 65.912 0.142 7.41 2.06 9.84
6/12/2022 11:45:00 AM 19.15 66.47 0.142 7.47 2.04 9.84
6/12/2022 12:00:00 PM 19.46 67.028 0.141 7.49 2.04 9.81
6/12/2022 12:15:00 PM 19.76 67.568 0.141 7.52 2.02 9.79
6/12/2022 12:30:00 PM 19.93 67.874 0.141 7.54 1.97 9.78
6/12/2022 12:45:00 PM 20.16 68.288 0.141 7.57 1.91 9.78
6/12/2022 1:00:00 PM 20.31 68.558 0.141 7.6 1.99 9.75
6/12/2022 1:15:00 PM 20.4 68.72 0.141 7.6 1.98 9.66
6/12/2022 1:30:00 PM 20.45 68.81 0.141 7.6 2.03 9.65
6/12/2022 1:45:00 PM 20.33 68.594 0.141 7.51 1.97 9.36
6/12/2022 2:00:00 PM 20.22 68.396 0.141 7.42 1.99 9.15
6/12/2022 2:15:00 PM 20.17 68.306 0.142 7.36 2.01 8.99
6/12/2022 2:30:00 PM 20.24 68.432 0.142 7.34 1.9 9.03
6/12/2022 2:45:00 PM 20.4 68.72 0.141 7.36 1.93 9.07
6/12/2022 3:00:00 PM 20.38 68.684 0.142 7.35 1.68 9.01
6/12/2022 3:15:00 PM 20.36 68.648 0.142 7.31 1.74 8.87
6/12/2022 3:30:00 PM 20.44 68.792 0.142 7.32 1.69 8.93
6/12/2022 3:45:00 PM 20.43 68.774 0.142 7.31 1.74 8.85
6/12/2022 4:00:00 PM 20.36 68.648 0.142 7.28 1.69 8.73
6/12/2022 4:15:00 PM 20.35 68.63 0.142 7.27 1.61 8.8
6/12/2022 4:30:00 PM 20.28 68.504 0.142 7.23 1.69 8.62
6/12/2022 4:45:00 PM 20.19 68.342 0.143 7.21 1.62 8.54
6/12/2022 5:00:00 PM 20.1 68.18 0.142 7.19 1.79 8.44
6/12/2022 5:15:00 PM 20.02 68.036 0.141 7.16 2.18 8.41
6/12/2022 5:30:00 PM 20.09 68.162 0.141 7.22 8.97 8.52
6/12/2022 5:45:00 PM 20.14 68.252 0.14 7.27 3.09 8.72
6/12/2022 6:00:00 PM 20.15 68.27 0.14 7.25 2.04 8.85
6/12/2022 6:15:00 PM 20.09 68.162 0.14 7.26 1.88 8.88
6/12/2022 6:30:00 PM 19.91 67.838 0.139 7.23 1.93 8.79
6/12/2022 6:45:00 PM 19.77 67.586 0.139 7.21 1.99 8.76
6/12/2022 7:00:00 PM 19.66 67.388 0.139 7.18 2.01 8.72
6/12/2022 7:15:00 PM 19.56 67.208 0.139 7.17 2.16 8.7
6/12/2022 7:30:00 PM 19.46 67.028 0.14 7.13 2.02 8.64
6/12/2022 7:45:00 PM 19.35 66.83 0.14 7.13 2.1 8.58
6/12/2022 8:00:00 PM 19.24 66.632 0.141 7.1 2.07 8.5
6/12/2022 8:15:00 PM 19.13 66.434 0.141 7.08 1.98 8.42
6/12/2022 8:30:00 PM 19.02 66.236 0.141 7.05 1.98 8.35
6/12/2022 8:45:00 PM 18.9 66.02 0.14 7.02 1.96 8.29
6/12/2022 9:00:00 PM 18.79 65.82201 0.14 7 2.18 8.22
6/12/2022 9:15:00 PM 18.69 65.642 0.138 6.97 2.39 8.16
6/12/2022 9:30:00 PM 18.6 65.48 0.14 6.94 2.13 8.13
6/12/2022 9:45:00 PM 18.54 65.372 0.14 6.93 2.2 8.1
6/12/2022 10:00:00 PM 18.48 65.264 0.139 6.91 2.24 8.08
6/12/2022 10:15:00 PM 18.43 65.174 0.139 6.89 2.45 8.05
6/12/2022 10:30:00 PM 18.39 65.102 0.14 6.89 2.54 8.04
6/12/2022 10:45:00 PM 18.37 65.066 0.14 6.89 2.8 8.03
6/12/2022 11:00:00 PM 18.35 65.03 0.141 6.89 2.66 8.02
6/12/2022 11:15:00 PM 18.34 65.012 0.142 6.89 3 8.01
6/12/2022 11:30:00 PM 18.34 65.012 0.142 6.87 3.04 8.01
6/12/2022 11:45:00 PM 18.34 65.012 0.143 6.88 2.82 8.02
6/13/2022 12:00:00 AM 18.33 64.994 0.143 6.87 2.74 8.02
6/13/2022 12:15:00 AM 18.33 64.994 0.143 6.88 2.81 8.03
6/13/2022 12:30:00 AM 18.32 64.976 0.143 6.86 2.76 8.03
6/13/2022 12:45:00 AM 18.3 64.94 0.143 6.87 2.63 8.05
6/13/2022 1:00:00 AM 18.29 64.922 0.143 6.87 2.6 8.06
6/13/2022 1:15:00 AM 18.28 64.904 0.143 6.88 2.43 8.07
6/13/2022 1:30:00 AM 18.26 64.868 0.143 6.88 2.44 8.08
6/13/2022 1:45:00 AM 18.25 64.85 0.143 6.87 2.52 8.09
6/13/2022 2:00:00 AM 18.24 64.832 0.144 6.86 2.28 8.1
6/13/2022 2:15:00 AM 18.22 64.796 0.143 6.87 2.55 8.1
6/13/2022 2:30:00 AM 18.21 64.778 0.143 6.86 2.65 8.09
6/13/2022 2:45:00 AM 18.2 64.76 0.143 6.86 2.59 8.1
6/13/2022 3:00:00 AM 18.19 64.742 0.144 6.85 2.37 8.11
6/13/2022 3:15:00 AM 18.18 64.724 0.144 6.85 2.35 8.12
6/13/2022 3:30:00 AM 18.17 64.706 0.144 6.86 2.34 8.13
6/13/2022 3:45:00 AM 18.17 64.706 0.144 6.85 2.46 8.13
6/13/2022 4:00:00 AM 18.17 64.706 0.144 6.85 2.6 8.13
6/13/2022 4:15:00 AM 18.16 64.688 0.144 6.84 2.2 8.14
6/13/2022 4:30:00 AM 18.16 64.688 0.144 6.85 2.35 8.14
6/13/2022 4:45:00 AM 18.16 64.688 0.144 6.85 2.29 8.14
6/13/2022 5:00:00 AM 18.16 64.688 0.144 6.85 2.24 8.15
6/13/2022 5:15:00 AM 18.16 64.688 0.144 6.85 2.47 8.15
6/13/2022 5:30:00 AM 18.16 64.688 0.143 6.86 2.34 8.14
6/13/2022 5:45:00 AM 18.16 64.688 0.143 6.86 2.27 8.15
6/13/2022 6:00:00 AM 18.16 64.688 0.143 6.86 2.06 8.16
6/13/2022 6:15:00 AM 18.16 64.688 0.143 6.87 2.05 8.19
6/13/2022 6:30:00 AM 18.16 64.688 0.143 6.87 1.95 8.24
6/13/2022 6:45:00 AM 18.17 64.706 0.143 6.9 2 8.3
6/13/2022 7:00:00 AM 18.17 64.706 0.142 6.9 1.88 8.36
6/13/2022 7:15:00 AM 18.16 64.688 0.142 6.91 2.07 8.44
6/13/2022 7:30:00 AM 18.16 64.688 0.142 6.92 2.09 8.53
6/13/2022 7:45:00 AM 18.2 64.76 0.142 6.94 2 8.7
6/13/2022 8:00:00 AM 18.27 64.886 0.141 6.97 2.02 8.87
6/13/2022 8:15:00 AM 18.37 65.066 0.141 7.01 2 9.02
6/13/2022 8:30:00 AM 18.49 65.282 0.141 7.03 1.93 9.13
6/13/2022 8:45:00 AM 18.62 65.516 0.141 7.07 1.89 9.24
6/13/2022 9:00:00 AM 18.69 65.642 0.141 7.1 1.9 9.27
6/13/2022 9:15:00 AM 18.74 65.732 0.141 7.12 1.87 9.28
6/13/2022 9:30:00 AM 18.8 65.84 0.141 7.14 1.82 9.33
6/13/2022 9:45:00 AM 18.83 65.894 0.141 7.16 2.04 9.29
6/13/2022 10:00:00 AM 18.92 66.056 0.141 7.18 1.88 9.39
6/13/2022 10:15:00 AM 19.02 66.236 0.141 7.19 1.89 9.41
6/13/2022 10:30:00 AM 19.16 66.488 0.141 7.22 1.93 9.47
6/13/2022 10:45:00 AM 19.28 66.704 0.141 7.25 1.96 9.47
6/13/2022 11:00:00 AM 19.41 66.938 0.141 7.27 1.87 9.5
6/13/2022 11:15:00 AM 19.57 67.226 0.141 7.3 1.88 9.54
6/13/2022 11:30:00 AM 19.71 67.478 0.141 7.33 1.83 9.56
6/13/2022 11:45:00 AM 19.87 67.766 0.141 7.36 2.2 9.56
6/13/2022 12:00:00 PM 20.06 68.108 0.141 7.38 2 9.55
6/13/2022 12:15:00 PM 20.34 68.612 0.141 7.4 2.05 9.58
6/13/2022 12:30:00 PM 20.56 69.008 0.141 7.42 1.91 9.56
6/13/2022 12:45:00 PM 20.84 69.512 0.141 7.44 1.89 9.53
6/13/2022 1:00:00 PM 21.08 69.944 0.149 7.45 1.93 9.49
6/13/2022 1:15:00 PM 21.31 70.358 0.141 7.46 1.78 9.42
6/13/2022 1:30:00 PM 21.7 71.06 0.141 7.47 1.83 9.41
6/13/2022 1:45:00 PM 22.14 71.852 0.141 7.5 1.67 9.4
6/13/2022 2:00:00 PM 22.65 72.77 0.141 7.54 1.79 9.38
6/13/2022 2:15:00 PM 23.21 73.778 0.141 7.57 1.7 9.37
6/13/2022 2:30:00 PM 23.68 74.624 0.141 7.6 1.68 9.27
6/13/2022 2:45:00 PM 24.11 75.398 0.142 7.63 1.75 9.22
6/13/2022 3:00:00 PM 24.47 76.046 0.142 7.64 1.75 9.16
6/13/2022 3:15:00 PM 24.71 76.478 0.142 7.66 1.68 9.09
6/13/2022 3:30:00 PM 24.91 76.838 0.142 7.65 1.69 9.03
6/13/2022 3:45:00 PM 25.03 77.054 0.142 7.67 1.64 8.98
6/13/2022 4:00:00 PM 24.99 76.982 0.143 7.64 1.66 8.92
6/13/2022 4:15:00 PM 25.1 77.18 0.143 7.65 1.77 8.88
6/13/2022 4:30:00 PM 25.05 77.09 0.144 7.63 1.74 8.81
6/13/2022 4:45:00 PM 24.99 76.982 0.144 7.62 1.81 8.76
6/13/2022 5:00:00 PM 24.85 76.73 0.144 7.58 1.8 8.7
6/13/2022 5:15:00 PM 24.69 76.442 0.145 7.55 1.81 8.61
6/13/2022 5:30:00 PM 24.45 76.01 0.146 7.5 2.19 8.54
6/13/2022 5:45:00 PM 24.06 75.308 0.147 7.44 1.93 8.4
6/13/2022 6:00:00 PM 23.63 74.534 0.148 7.35 1.93 8.19
6/13/2022 6:15:00 PM 23.3 73.94 0.149 7.28 1.72 8.05
6/13/2022 6:30:00 PM 22.99 73.382 0.15 7.23 1.81 7.98
6/13/2022 6:45:00 PM 22.77 72.986 0.151 7.2 1.79 7.99
6/13/2022 7:00:00 PM 22.56 72.608 0.151 7.17 1.87 7.93
6/13/2022 7:15:00 PM 22.35 72.23 0.15 7.13 1.88 7.88
6/13/2022 7:30:00 PM 22.15 71.87 0.149 7.11 1.88 7.83
6/13/2022 7:45:00 PM 22 71.6 0.148 7.08 1.86 7.81
6/13/2022 8:00:00 PM 21.86 71.348 0.147 7.06 1.79 7.78
6/13/2022 8:15:00 PM 21.74 71.132 0.147 7.04 1.75 7.77
6/13/2022 8:30:00 PM 21.62 70.916 0.147 7.02 1.84 7.69
6/13/2022 8:45:00 PM 21.51 70.718 0.147 7.02 1.83 7.63
6/13/2022 9:00:00 PM 21.41 70.538 0.147 6.98 1.87 7.57
6/13/2022 9:15:00 PM 21.33 70.394 0.146 6.97 2.08 7.54
6/13/2022 9:30:00 PM 21.25 70.25 0.146 6.96 2.25 7.51
6/13/2022 9:45:00 PM 21.17 70.106 0.146 6.94 2.21 7.49
6/13/2022 10:00:00 PM 21.08 69.944 0.146 6.93 2.29 7.49
6/13/2022 10:15:00 PM 21 69.8 0.146 6.92 2.26 7.49
6/13/2022 10:30:00 PM 20.9 69.62 0.146 6.91 2.19 7.5
6/13/2022 10:45:00 PM 20.8 69.44 0.146 6.9 2.44 7.51
6/13/2022 11:00:00 PM 20.69 69.242 0.146 6.9 2.18 7.53
6/13/2022 11:15:00 PM 20.58 69.044 0.146 6.89 1.97 7.56
6/13/2022 11:30:00 PM 20.46 68.828 0.146 6.89 2.07 7.57
6/13/2022 11:45:00 PM 20.35 68.63 0.146 6.89 2.05 7.59
6/14/2022 12:00:00 AM 20.25 68.45 0.146 6.88 2 7.61
6/14/2022 12:15:00 AM 20.16 68.288 0.146 6.88 2.03 7.63
6/14/2022 12:30:00 AM 20.08 68.144 0.146 6.85 1.99 7.64
6/14/2022 12:45:00 AM 20.01 68.018 0.146 6.86 2.01 7.67
6/14/2022 1:00:00 AM 19.95 67.91 0.146 6.84 1.97 7.68
6/14/2022 1:15:00 AM 19.9 67.82 0.146 6.85 2.11 7.69
6/14/2022 1:30:00 AM 19.85 67.73 0.146 6.84 2.23 7.71
6/14/2022 1:45:00 AM 19.8 67.64 0.146 6.85 2.06 7.72
6/14/2022 2:00:00 AM 19.75 67.55 0.146 6.84 2.12 7.73
6/14/2022 2:15:00 AM 19.71 67.478 0.146 6.84 2.06 7.74
6/14/2022 2:30:00 AM 19.66 67.388 0.146 6.83 2.16 7.75
6/14/2022 2:45:00 AM 19.6 67.28 0.146 6.84 2.52 7.77
6/14/2022 3:00:00 AM 19.54 67.172 0.146 6.85 2.08 7.75
6/14/2022 3:15:00 AM 19.47 67.046 0.146 6.84 2.08 7.79
6/14/2022 3:30:00 AM 19.42 66.956 0.146 6.85 2.21 7.8
6/14/2022 3:45:00 AM 19.36 66.848 0.146 6.85 2.69 7.83
6/14/2022 4:00:00 AM 19.29 66.722 0.146 6.84 2.08 7.82
6/14/2022 4:15:00 AM 19.23 66.614 0.146 6.85 2.12 7.85
6/14/2022 4:30:00 AM 19.17 66.506 0.146 6.85 2.19 7.86
6/14/2022 4:45:00 AM 19.11 66.398 0.146 6.85 2.06 7.87
6/14/2022 5:00:00 AM 19.05 66.29 0.146 6.84 2.17 7.86
6/14/2022 5:15:00 AM 19 66.2 0.146 6.84 2.12 7.9
6/14/2022 5:30:00 AM 18.96 66.128 0.147 6.83 2.18 7.91
6/14/2022 5:45:00 AM 18.93 66.074 0.147 6.83 2.24 7.93
6/14/2022 6:00:00 AM 18.9 66.02 0.147 6.84 2.14 7.95
6/14/2022 6:15:00 AM 18.88 65.984 0.146 6.84 1.99 8.01
6/14/2022 6:30:00 AM 18.86 65.948 0.146 6.86 2.01 8.09
6/14/2022 6:45:00 AM 18.84 65.912 0.146 6.86 2.49 8.13
6/14/2022 7:00:00 AM 18.82 65.876 0.146 6.86 1.93 8.15
6/14/2022 7:15:00 AM 18.82 65.876 0.146 6.87 1.89 8.19
6/14/2022 7:30:00 AM 18.82 65.876 0.146 6.89 1.83 8.25
6/14/2022 7:45:00 AM 18.82 65.876 0.146 6.9 1.89 8.31
6/14/2022 8:00:00 AM 18.83 65.894 0.146 6.9 1.87 8.36
6/14/2022 8:15:00 AM 18.83 65.894 0.146 6.91 1.94 8.37
6/14/2022 8:30:00 AM 18.84 65.912 0.146 6.93 1.88 8.45
6/14/2022 8:45:00 AM 18.87 65.966 0.146 6.95 1.86 8.57
6/14/2022 9:00:00 AM 18.9 66.02 0.145 6.97 1.96 8.62
6/14/2022 9:15:00 AM 18.92 66.056 0.145 6.98 1.91 8.61
6/14/2022 9:30:00 AM 18.93 66.074 0.145 6.98 1.83 8.61
6/14/2022 9:45:00 AM 18.94 66.092 0.145 6.98 1.93 8.6
6/14/2022 10:00:00 AM 18.97 66.146 0.145 6.99 2.35 8.66
6/14/2022 10:15:00 AM 19.06 66.308 0.144 7.02 1.94 8.84
6/14/2022 10:30:00 AM 19.18 66.524 0.144 7.06 1.95 9.03
6/14/2022 10:45:00 AM 19.29 66.722 0.143 7.12 1.88 9.18
6/14/2022 11:00:00 AM 19.44 66.992 0.143 7.15 1.86 9.3
6/14/2022 11:15:00 AM 19.6 67.28 0.142 7.21 1.8 9.38
6/14/2022 11:30:00 AM 19.79 67.622 0.142 7.26 2 9.46
6/14/2022 11:45:00 AM 20 68 0.142 7.31 1.87 9.53
6/14/2022 12:00:00 PM 20.22 68.396 0.142 7.35 1.75 9.55
6/14/2022 12:15:00 PM 20.44 68.792 0.142 7.35 1.83 9.44
6/14/2022 12:30:00 PM 20.76 69.368 0.142 7.36 1.74 9.37
6/14/2022 12:45:00 PM 21.18 70.124 0.142 7.37 1.7 9.31
6/14/2022 1:00:00 PM 21.65 70.97 0.142 7.4 1.71 9.3
6/14/2022 1:15:00 PM 22.13 71.834 0.142 7.41 1.79 9.28
6/14/2022 1:30:00 PM 22.61 72.698 0.142 7.45 1.91 9.26
6/14/2022 1:45:00 PM 23.13 73.634 0.142 7.49 1.82 9.27
6/14/2022 2:00:00 PM 23.62 74.516 0.142 7.52 1.79 9.25
6/14/2022 2:15:00 PM 23.85 74.93 0.142 7.55 1.69 9.18
6/14/2022 2:30:00 PM 23.99 75.182 0.142 7.56 1.69 9.15
6/14/2022 2:45:00 PM 24.32 75.776 0.142 7.57 1.74 9.08
6/14/2022 3:00:00 PM 24.64 76.352 0.142 7.58 1.6 9.06
6/14/2022 3:15:00 PM 24.93 76.874 0.142 7.59 1.7 9.02
6/14/2022 3:30:00 PM 25.17 77.306 0.142 7.59 1.81 8.97
6/14/2022 3:45:00 PM 25.4 77.72 0.142 7.6 1.73 8.91
6/14/2022 4:00:00 PM 25.56 78.008 0.142 7.6 1.7 8.87
6/14/2022 4:15:00 PM 25.69 78.242 0.143 7.59 1.65 8.78
6/14/2022 4:30:00 PM 25.71 78.278 0.143 7.57 1.67 8.7
6/14/2022 4:45:00 PM 25.69 78.242 0.143 7.55 1.7 8.62
6/14/2022 5:00:00 PM 25.59 78.062 0.144 7.52 1.76 8.57
6/14/2022 5:15:00 PM 25.42 77.756 0.144 7.5 1.86 8.49
6/14/2022 5:30:00 PM 25.15 77.27 0.144 7.46 1.8 8.38
6/14/2022 5:45:00 PM 24.77 76.586 0.145 7.42 1.77 8.24
6/14/2022 6:00:00 PM 24.36 75.848 0.146 7.34 1.9 8.04
6/14/2022 6:15:00 PM 24.04 75.272 0.146 7.27 1.78 7.89
6/14/2022 6:30:00 PM 23.81 74.858 0.146 7.22 1.7 7.8
6/14/2022 6:45:00 PM 23.6 74.48 0.147 7.18 1.87 7.72
6/14/2022 7:00:00 PM 23.42 74.156 0.147 7.15 1.78 7.67
6/14/2022 7:15:00 PM 23.25 73.85 0.147 7.13 1.8 7.61
6/14/2022 7:30:00 PM 23.09 73.562 0.147 7.1 1.88 7.58
6/14/2022 7:45:00 PM 22.93 73.274 0.148 7.08 1.98 7.55
6/14/2022 8:00:00 PM 22.78 73.004 0.148 7.06 1.86 7.5
6/14/2022 8:15:00 PM 22.63 72.734 0.148 7.04 1.83 7.5
6/14/2022 8:30:00 PM 22.47 72.446 0.149 7.03 1.82 7.45
6/14/2022 8:45:00 PM 22.3 72.14 0.149 7.02 1.83 7.37
6/14/2022 9:00:00 PM 22.13 71.834 0.15 6.99 1.93 7.41
6/14/2022 9:15:00 PM 21.96 71.528 0.15 6.98 2.41 7.39
6/14/2022 9:30:00 PM 21.79 71.222 0.15 6.97 2.24 7.39
6/14/2022 9:45:00 PM 21.63 70.934 0.15 6.96 2.76 7.39
6/14/2022 10:00:00 PM 21.47 70.646 0.151 6.95 2.51 7.41
6/14/2022 10:15:00 PM 21.32 70.376 0.151 6.94 2.38 7.45
6/14/2022 10:30:00 PM 21.19 70.142 0.151 6.92 2.27 7.46
6/14/2022 10:45:00 PM 21.06 69.908 0.151 6.91 2.4 7.48
6/14/2022 11:00:00 PM 20.94 69.692 0.151 6.91 2.3 7.5
6/14/2022 11:15:00 PM 20.84 69.512 0.151 6.9 2.8 7.51
6/14/2022 11:30:00 PM 20.74 69.332 0.151 6.88 2.77 7.53
6/14/2022 11:45:00 PM 20.65 69.17 0.151 6.88 2.29 7.54
6/15/2022 12:00:00 AM 20.56 69.008 0.151 6.88 2.42 7.55
6/15/2022 12:15:00 AM 20.48 68.864 0.151 6.87 2.27 7.57
6/15/2022 12:30:00 AM 20.42 68.756 0.151 6.88 2.29 7.58
6/15/2022 12:45:00 AM 20.35 68.63 0.151 6.87 2.24 7.58
6/15/2022 1:00:00 AM 20.28 68.504 0.151 6.87 2.5 7.6
6/15/2022 1:15:00 AM 20.22 68.396 0.151 6.87 2.22 7.62
6/15/2022 1:30:00 AM 20.16 68.288 0.151 6.87 2.84 7.62
6/15/2022 1:45:00 AM 20.1 68.18 0.151 6.85 2.27 7.64
6/15/2022 2:00:00 AM 20.04 68.07201 0.151 6.85 2.31 7.65
6/15/2022 2:15:00 AM 19.98 67.964 0.151 6.85 2.16 7.68
6/15/2022 2:30:00 AM 19.92 67.856 0.151 6.86 2.07 7.7
6/15/2022 2:45:00 AM 19.86 67.748 0.151 6.86 2.18 7.71
6/15/2022 3:00:00 AM 19.78 67.604 0.151 6.86 2.19 7.73
6/15/2022 3:15:00 AM 19.72 67.496 0.151 6.86 2.08 7.75
6/15/2022 3:30:00 AM 19.64 67.352 0.151 6.86 2.12 7.77
6/15/2022 3:45:00 AM 19.57 67.226 0.151 6.86 2.37 7.79
6/15/2022 4:00:00 AM 19.49 67.082 0.151 6.87 4.95 7.81
6/15/2022 4:15:00 AM 19.42 66.956 0.151 6.87 2.28 7.83
6/15/2022 4:30:00 AM 19.33 66.794 0.151 6.87 2.12 7.85
6/15/2022 4:45:00 AM 19.26 66.668 0.151 6.87 3.75 7.86
6/15/2022 5:00:00 AM 19.18 66.524 0.151 6.87 2.26 7.88
6/15/2022 5:15:00 AM 19.1 66.38 0.151 6.86 2.35 7.91
6/15/2022 5:30:00 AM 19.02 66.236 0.151 6.86 2.38 7.91
6/15/2022 5:45:00 AM 18.95 66.11 0.151 6.85 2.19 7.93
6/15/2022 6:00:00 AM 18.88 65.984 0.151 6.86 2.1 8.01
6/15/2022 6:15:00 AM 18.81 65.858 0.151 6.86 1.9 8.05
6/15/2022 6:30:00 AM 18.75 65.75 0.151 6.88 1.91 8.11
6/15/2022 6:45:00 AM 18.69 65.642 0.151 6.89 1.95 8.19
6/15/2022 7:00:00 AM 18.65 65.57 0.151 6.9 1.97 8.25
6/15/2022 7:15:00 AM 18.6 65.48 0.151 6.92 1.96 8.3
6/15/2022 7:30:00 AM 18.57 65.426 0.151 6.92 1.93 8.35
6/15/2022 7:45:00 AM 18.58 65.444 0.151 6.94 2.05 8.48
6/15/2022 8:00:00 AM 18.6 65.48 0.15 6.96 1.96 8.55
6/15/2022 8:15:00 AM 18.63 65.534 0.15 6.98 1.95 8.63
6/15/2022 8:30:00 AM 18.7 65.66 0.15 7 1.99 8.72
6/15/2022 8:45:00 AM 18.78 65.804 0.15 7.01 2.01 8.76
6/15/2022 9:00:00 AM 18.87 65.966 0.15 7.04 1.92 8.84
6/15/2022 9:15:00 AM 18.96 66.128 0.15 7.05 2.08 8.87
6/15/2022 9:30:00 AM 19.06 66.308 0.149 7.07 2.08 8.92
6/15/2022 9:45:00 AM 19.18 66.524 0.149 7.1 2.12 8.98
6/15/2022 10:00:00 AM 19.29 66.722 0.149 7.12 1.95 9.01
6/15/2022 10:15:00 AM 19.42 66.956 0.149 7.13 1.86 9.04
6/15/2022 10:30:00 AM 19.56 67.208 0.149 7.15 2.19 9.05
6/15/2022 10:45:00 AM 19.73 67.514 0.149 7.18 2.09 9.09
6/15/2022 11:00:00 AM 19.93 67.874 0.149 7.2 1.94 9.11
6/15/2022 11:15:00 AM 20.16 68.288 0.148 7.22 1.93 9.13
6/15/2022 11:30:00 AM 20.42 68.756 0.148 7.26 1.95 9.17
6/15/2022 11:45:00 AM 20.72 69.296 0.148 7.28 1.89 9.2
6/15/2022 12:00:00 PM 21.04 69.872 0.148 7.31 1.95 9.23
6/15/2022 12:15:00 PM 21.39 70.502 0.148 7.34 1.92 9.2
6/15/2022 12:30:00 PM 21.77 71.186 0.148 7.37 1.72 9.22
6/15/2022 12:45:00 PM 22.18 71.924 0.147 7.4 1.71 9.21
6/15/2022 1:00:00 PM 22.62 72.716 0.147 7.43 1.7 9.21
6/15/2022 1:15:00 PM 23.12 73.616 0.147 7.48 1.71 9.23
6/15/2022 1:30:00 PM 23.49 74.282 0.146 7.52 1.65 9.21
6/15/2022 1:45:00 PM 23.8 74.84 0.146 7.57 2.02 9.26
6/15/2022 2:00:00 PM 24.31 75.758 0.146 7.62 1.66 9.22
6/15/2022 2:15:00 PM 24.64 76.352 0.146 7.65 1.62 9.2
6/15/2022 2:30:00 PM 24.79 76.622 0.146 7.69 1.62 9.16
6/15/2022 2:45:00 PM 25.02 77.036 0.146 7.74 1.77 9.16
6/15/2022 3:00:00 PM 25.32 77.576 0.146 7.78 1.81 9.14
6/15/2022 3:15:00 PM 25.63 78.134 0.146 7.79 1.75 9.06
6/15/2022 3:30:00 PM 25.98 78.764 0.147 7.8 1.86 9.02
6/15/2022 3:45:00 PM 26.18 79.124 0.147 7.81 1.67 8.97
6/15/2022 4:00:00 PM 26.31 79.358 0.147 7.8 2.05 8.9
6/15/2022 4:15:00 PM 26.16 79.088 0.146 7.78 1.68 8.79
6/15/2022 4:30:00 PM 26.21 79.17799 0.146 7.77 1.75 8.77
6/15/2022 4:45:00 PM 26.26 79.268 0.146 7.75 1.68 8.71
6/15/2022 5:00:00 PM 26.34 79.412 0.147 7.73 1.84 8.63
6/15/2022 5:15:00 PM 26.35 79.43 0.147 7.7 1.84 8.59
6/15/2022 5:30:00 PM 26.24 79.232 0.147 7.65 1.72 8.47
6/15/2022 5:45:00 PM 25.99 78.782 0.148 7.57 1.69 8.32
6/15/2022 6:00:00 PM 25.56 78.008 0.148 7.47 1.79 8.06
6/15/2022 6:15:00 PM 25.21 77.378 0.149 7.38 1.76 7.9
6/15/2022 6:30:00 PM 24.94 76.892 0.149 7.32 1.78 7.78
6/15/2022 6:45:00 PM 24.76 76.568 0.149 7.27 1.76 7.74
6/15/2022 7:00:00 PM 24.64 76.352 0.149 7.25 1.84 7.7
6/15/2022 7:15:00 PM 24.53 76.154 0.15 7.22 1.88 7.65
6/15/2022 7:30:00 PM 24.4 75.92 0.15 7.19 1.86 7.57
6/15/2022 7:45:00 PM 24.28 75.704 0.15 7.15 1.9 7.49
6/15/2022 8:00:00 PM 24.16 75.488 0.151 7.13 1.72 7.43
6/15/2022 8:15:00 PM 24.05 75.29 0.151 7.1 1.9 7.37
6/15/2022 8:30:00 PM 23.92 75.056 0.152 7.05 1.84 7.27
6/15/2022 8:45:00 PM 23.79 74.82201 0.152 7.04 2.09 7.22
6/15/2022 9:00:00 PM 23.65 74.57 0.153 7.02 2.13 7.15
6/15/2022 9:15:00 PM 23.51 74.318 0.153 7 2.25 7.11
6/15/2022 9:30:00 PM 23.38 74.084 0.153 6.97 2.13 7.09
6/15/2022 9:45:00 PM 23.23 73.814 0.154 6.97 2.45 7.08
6/15/2022 10:00:00 PM 23.09 73.562 0.154 6.96 2.35 7.09
6/15/2022 10:15:00 PM 22.95 73.31 0.155 6.95 2.18 7.12
6/15/2022 10:30:00 PM 22.8 73.04 0.155 6.94 2.16 7.12
6/15/2022 10:45:00 PM 22.67 72.806 0.155 6.93 2.26 7.14
6/15/2022 11:00:00 PM 22.54 72.57201 0.155 6.92 2.43 7.16
6/15/2022 11:15:00 PM 22.43 72.374 0.156 6.92 2.24 7.16
6/15/2022 11:30:00 PM 22.31 72.158 0.156 6.92 2.36 7.2
6/15/2022 11:45:00 PM 22.2 71.96 0.156 6.9 2.04 7.23
6/16/2022 12:00:00 AM 22.07 71.726 0.156 6.9 2.57 7.27
6/16/2022 12:15:00 AM 21.95 71.51 0.156 6.89 2.21 7.29
6/16/2022 12:30:00 AM 21.84 71.312 0.156 6.89 3.57 7.3
6/16/2022 12:45:00 AM 21.73 71.114 0.156 6.89 2.34 7.31
6/16/2022 1:00:00 AM 21.63 70.934 0.156 6.89 2.48 7.35
6/16/2022 1:15:00 AM 21.53 70.754 0.156 6.89 2.29 7.38
6/16/2022 1:30:00 AM 21.44 70.592 0.156 6.88 2.17 7.39
6/16/2022 1:45:00 AM 21.34 70.412 0.156 6.88 2.4 7.38
6/16/2022 2:00:00 AM 21.26 70.268 0.156 6.88 2.46 7.4
6/16/2022 2:15:00 AM 21.19 70.142 0.156 6.88 2.32 7.44
6/16/2022 2:30:00 AM 21.13 70.034 0.156 6.87 2.16 7.45
6/16/2022 2:45:00 AM 21.07 69.926 0.156 6.88 2.21 7.46
6/16/2022 3:00:00 AM 21.02 69.836 0.156 6.87 2.3 7.46
6/16/2022 3:15:00 AM 20.97 69.746 0.156 6.85 2.25 7.49
6/16/2022 3:30:00 AM 20.93 69.674 0.156 6.86 2.3 7.49
6/16/2022 3:45:00 AM 20.89 69.602 0.156 6.85 2.09 7.51
6/16/2022 4:00:00 AM 20.86 69.548 0.156 6.86 2.26 7.51
6/16/2022 4:15:00 AM 20.83 69.494 0.156 6.86 2.1 7.51
6/16/2022 4:30:00 AM 20.8 69.44 0.156 6.85 2.19 7.53
6/16/2022 4:45:00 AM 20.78 69.404 0.156 6.86 2.12 7.53
6/16/2022 5:00:00 AM 20.76 69.368 0.155 6.86 2.74 7.55
6/16/2022 5:15:00 AM 20.74 69.332 0.154 6.86 3.02 7.49
6/16/2022 5:30:00 AM 20.73 69.314 0.155 6.84 3.22 7.45
6/16/2022 5:45:00 AM 20.71 69.278 0.154 6.86 2.46 7.48
6/16/2022 6:00:00 AM 20.7 69.26 0.154 6.85 2.42 7.46
6/16/2022 6:15:00 AM 20.7 69.26 0.154 6.87 2.54 7.5
6/16/2022 6:30:00 AM 20.71 69.278 0.154 6.86 2.49 7.47
6/16/2022 6:45:00 AM 20.72 69.296 0.154 6.86 2.39 7.5
6/16/2022 7:00:00 AM 20.72 69.296 0.154 6.87 2.31 7.56
6/16/2022 7:15:00 AM 20.74 69.332 0.154 6.88 2.49 7.64
6/16/2022 7:30:00 AM 20.77 69.386 0.154 6.9 2.51 7.8
6/16/2022 7:45:00 AM 20.81 69.458 0.153 6.93 1.98 7.92
6/16/2022 8:00:00 AM 20.87 69.566 0.153 6.94 2.08 8.08
6/16/2022 8:15:00 AM 20.96 69.728 0.152 6.99 2 8.26
6/16/2022 8:30:00 AM 21.03 69.854 0.152 7.01 2.19 8.35
6/16/2022 8:45:00 AM 21.08 69.944 0.152 7.02 2.14 8.4
6/16/2022 9:00:00 AM 21.12 70.016 0.152 7.05 2.03 8.45
6/16/2022 9:15:00 AM 21.15 70.07 0.152 7.07 1.97 8.5
6/16/2022 9:30:00 AM 21.2 70.16 0.151 7.08 2.04 8.59
6/16/2022 9:45:00 AM 21.23 70.214 0.151 7.1 1.93 8.64
6/16/2022 10:00:00 AM 21.26 70.268 0.151 7.13 1.89 8.67
6/16/2022 10:15:00 AM 21.3 70.34 0.151 7.15 3.03 8.7
6/16/2022 10:30:00 AM 21.36 70.448 0.151 7.18 1.75 8.83
6/16/2022 10:45:00 AM 21.47 70.646 0.15 7.22 1.79 8.96
6/16/2022 11:00:00 AM 21.54 70.772 0.15 7.26 2.11 9.02
6/16/2022 11:15:00 AM 21.58 70.844 0.15 7.28 2.25 9.05
6/16/2022 11:30:00 AM 21.68 71.024 0.149 7.33 2.04 9.13
6/16/2022 11:45:00 AM 21.75 71.15 0.149 7.37 2.02 9.2
6/16/2022 12:00:00 PM 21.8 71.24 0.149 7.39 1.92 9.22
6/16/2022 12:15:00 PM 21.8 71.24 0.149 7.4 1.89 9.17
6/16/2022 12:30:00 PM 21.93 71.474 0.149 7.44 1.84 9.25
6/16/2022 12:45:00 PM 22.09 71.762 0.148 7.49 1.9 9.32
6/16/2022 1:00:00 PM 22.19 71.942 0.148 7.53 2.1 9.36
6/16/2022 1:15:00 PM 22.28 72.104 0.148 7.58 1.97 9.36
6/16/2022 1:30:00 PM 22.39 72.302 0.148 7.61 1.84 9.38
6/16/2022 1:45:00 PM 22.7 72.86 0.148 7.67 1.81 9.41
6/16/2022 2:00:00 PM 22.88 73.184 0.148 7.68 1.81 9.37
6/16/2022 2:15:00 PM 22.98 73.364 0.148 7.71 1.82 9.35
6/16/2022 2:30:00 PM 23.09 73.562 0.148 7.73 1.71 9.31
6/16/2022 2:45:00 PM 23.11 73.598 0.148 7.73 1.75 9.26
6/16/2022 3:00:00 PM 23.11 73.598 0.148 7.74 1.75 9.24
6/16/2022 3:15:00 PM 23.16 73.688 0.148 7.74 1.9 9.22
6/16/2022 3:30:00 PM 23.26 73.868 0.148 7.78 1.81 9.22
6/16/2022 3:45:00 PM 23.29 73.922 0.148 7.77 1.9 9.16
6/16/2022 4:00:00 PM 23.43 74.174 0.148 7.78 1.83 9.15
6/16/2022 4:15:00 PM 23.76 74.768 0.149 7.82 2.1 9.16
6/16/2022 4:30:00 PM 24.06 75.308 0.149 7.83 1.77 9.13
6/16/2022 4:45:00 PM 24.31 75.758 0.149 7.83 1.75 9.09
6/16/2022 5:00:00 PM 24.43 75.974 0.149 7.82 1.99 9.03
6/16/2022 5:15:00 PM 24.41 75.938 0.15 7.8 1.85 8.96
6/16/2022 5:30:00 PM 24.12 75.416 0.15 7.71 1.83 8.78
6/16/2022 5:45:00 PM 23.79 74.82201 0.151 7.54 1.9 8.42
6/16/2022 6:00:00 PM 23.59 74.462 0.151 7.39 2.26 8.06
6/16/2022 6:15:00 PM 23.56 74.408 0.148 7.32 12.37 7.76
6/16/2022 6:30:00 PM 23.54 74.372 0.15 7.37 7.15 7.56
6/16/2022 6:45:00 PM 23.37 74.066 0.15 7.24 3.55 7.48
6/16/2022 7:00:00 PM 23.27 73.886 0.151 7.16 2.63 7.43
6/16/2022 7:15:00 PM 23.18 73.724 0.152 7.13 3.77 7.4
6/16/2022 7:30:00 PM 23.09 73.562 0.152 7.09 2.62 7.41
6/16/2022 7:45:00 PM 23 73.4 0.152 7.06 2.61 7.44
6/16/2022 8:00:00 PM 22.89 73.202 0.153 7.04 2.64 7.46
6/16/2022 8:15:00 PM 22.78 73.004 0.153 7.02 2.8 7.46
6/16/2022 8:30:00 PM 22.67 72.806 0.154 7.01 2.77 7.44
6/16/2022 8:45:00 PM 22.56 72.608 0.154 6.99 2.85 7.43
6/16/2022 9:00:00 PM 22.49 72.482 0.149 6.99 7.15 7.45
6/16/2022 9:15:00 PM 22.5 72.5 0.147 7.17 15.47 7.42
6/16/2022 9:30:00 PM 22.3 72.14 0.15 7.06 6.85 7.36
6/16/2022 9:45:00 PM 22.15 71.87 0.151 7.01 5.12 7.36
6/16/2022 10:00:00 PM 22 71.6 0.152 6.98 5.38 7.36
6/16/2022 10:15:00 PM 21.86 71.348 0.152 6.96 5.56 7.41
6/16/2022 10:30:00 PM 21.76 71.168 0.152 6.95 6.76 7.38
6/16/2022 10:45:00 PM 21.65 70.97 0.152 6.95 5.43 7.4
6/16/2022 11:00:00 PM 21.53 70.754 0.153 6.93 4.39 7.43
6/16/2022 11:15:00 PM 21.43 70.574 0.154 6.9 3.88 7.45
6/16/2022 11:30:00 PM 21.36 70.448 0.155 6.9 3.82 7.48
6/16/2022 11:45:00 PM 21.3 70.34 0.155 6.9 3.86 7.5
6/17/2022 12:00:00 AM 21.26 70.268 0.155 6.89 3.69 7.52
6/17/2022 12:15:00 AM 21.23 70.214 0.156 6.88 3.77 7.54
6/17/2022 12:30:00 AM 21.21 70.17799 0.156 6.88 98.2 7.55
6/17/2022 12:45:00 AM 21.19 70.142 0.156 6.88 3.77 7.57
6/17/2022 1:00:00 AM 21.18 70.124 0.156 6.87 3.68 7.57
6/17/2022 1:15:00 AM 21.18 70.124 0.156 6.87 3.77 7.58
6/17/2022 1:30:00 AM 21.18 70.124 0.156 6.87 3.48 7.59
6/17/2022 1:45:00 AM 21.19 70.142 0.157 6.87 3.48 7.6
6/17/2022 2:00:00 AM 21.21 70.17799 0.157 6.88 3.22 7.61
6/17/2022 2:15:00 AM 21.22 70.196 0.157 6.88 3.86 7.61
6/17/2022 2:30:00 AM 21.24 70.232 0.157 6.88 3.24 7.61
6/17/2022 2:45:00 AM 21.24 70.232 0.157 6.9 3.37 7.62
6/17/2022 3:00:00 AM 21.24 70.232 0.157 6.9 3.56 7.62
6/17/2022 3:15:00 AM 21.25 70.25 0.158 6.9 3.3 7.63
6/17/2022 3:30:00 AM 21.24 70.232 0.158 6.91 3.32 7.63
6/17/2022 3:45:00 AM 21.22 70.196 0.158 6.91 3.32 7.64
6/17/2022 4:00:00 AM 21.19 70.142 0.158 6.91 3.19 7.65
6/17/2022 4:15:00 AM 21.15 70.07 0.159 6.91 3.51 7.66
6/17/2022 4:30:00 AM 21.11 69.998 0.159 6.92 4.08 7.67
6/17/2022 4:45:00 AM 21.04 69.872 0.156 6.91 4.19 7.72
6/17/2022 5:00:00 AM 21.04 69.872 0.152 7.01 9.11 7.69
6/17/2022 5:15:00 AM 20.95 69.71 0.157 6.94 4.35 7.65
6/17/2022 5:30:00 AM 20.86 69.548 0.159 6.92 3.93 7.66
6/17/2022 5:45:00 AM 20.81 69.458 0.16 6.92 3.44 7.68
6/17/2022 6:00:00 AM 20.76 69.368 0.161 6.9 3.58 7.72
6/17/2022 6:15:00 AM 20.72 69.296 0.162 6.9 3.44 7.75
6/17/2022 6:30:00 AM 20.68 69.224 0.163 6.9 3.34 7.79
6/17/2022 6:45:00 AM 20.65 69.17 0.164 6.91 3.09 7.85
6/17/2022 7:00:00 AM 20.63 69.134 0.165 6.91 2.96 7.91
6/17/2022 7:15:00 AM 20.63 69.134 0.166 6.93 2.9 7.99
6/17/2022 7:30:00 AM 20.64 69.152 0.166 6.95 2.99 8.08
6/17/2022 7:45:00 AM 20.63 69.134 0.166 6.98 2.88 8.17
6/17/2022 8:00:00 AM 20.67 69.206 0.167 6.99 2.82 8.28
6/17/2022 8:15:00 AM 20.71 69.278 0.167 7.01 2.72 8.36
6/17/2022 8:30:00 AM 20.76 69.368 0.166 7.03 2.68 8.43
6/17/2022 8:45:00 AM 20.8 69.44 0.166 7.05 2.67 8.48
6/17/2022 9:00:00 AM 20.88 69.584 0.166 7.08 2.72 8.54
6/17/2022 9:15:00 AM 20.94 69.692 0.183 7.08 2.92 8.56
6/17/2022 9:30:00 AM 20.98 69.764 0.171 7.11 2.74 8.58
6/17/2022 9:45:00 AM 21.02 69.836 0.177 7.09 2.76 8.59
6/17/2022 10:00:00 AM 21.09 69.962 0.175 7.12 2.57 8.64
6/17/2022 10:15:00 AM 21.16 70.088 0.175 7.13 2.62 8.66
6/17/2022 10:30:00 AM 21.25 70.25 0.174 7.17 2.51 8.7
6/17/2022 10:45:00 AM 21.36 70.448 0.175 7.17 2.6 8.76
6/17/2022 11:00:00 AM 21.45 70.61 0.173 7.21 2.58 8.81
6/17/2022 11:15:00 AM 21.58 70.844 0.172 7.24 2.54 8.86
6/17/2022 11:30:00 AM 21.7 71.06 0.172 7.26 2.44 8.88
6/17/2022 11:45:00 AM 21.84 71.312 0.171 7.3 2.42 8.9
6/17/2022 12:00:00 PM 22.05 71.69 0.171 7.31 2.26 8.91
6/17/2022 12:15:00 PM 22.26 72.068 0.169 7.37 2.4 8.93
6/17/2022 12:30:00 PM 22.58 72.644 0.169 7.4 2.38 8.96
6/17/2022 12:45:00 PM 22.86 73.148 0.169 7.41 2.33 8.94
6/17/2022 1:00:00 PM 23.12 73.616 0.169 7.42 2.34 8.95
6/17/2022 1:15:00 PM 23.5 74.3 0.168 7.47 2.31 8.98
6/17/2022 1:30:00 PM 23.9 75.02 0.168 7.5 2.29 8.99
6/17/2022 1:45:00 PM 24.31 75.758 0.167 7.57 2.31 8.99
6/17/2022 2:00:00 PM 24.58 76.244 0.167 7.59 2.19 8.95
6/17/2022 2:15:00 PM 24.92 76.856 0.168 7.61 2.25 8.95
6/17/2022 2:30:00 PM 25.12 77.216 0.167 7.64 2.18 8.91
6/17/2022 2:45:00 PM 25.35 77.63 0.167 7.66 2.16 8.87
6/17/2022 3:00:00 PM 25.57 78.026 0.167 7.67 2.04 8.86
6/17/2022 3:15:00 PM 25.37 77.666 0.167 7.64 2.11 8.74
6/17/2022 3:30:00 PM 25.43 77.774 0.167 7.61 2.31 8.73
6/17/2022 3:45:00 PM 25.53 77.954 0.166 7.63 2.31 8.68
6/17/2022 4:00:00 PM 25.6 78.08 0.166 7.64 2.41 8.68
6/17/2022 4:15:00 PM 25.69 78.242 0.167 7.63 2.32 8.68
6/17/2022 4:30:00 PM 25.73 78.314 0.166 7.65 2.15 8.63
6/17/2022 4:45:00 PM 25.69 78.242 0.166 7.66 2.24 8.62
6/17/2022 5:00:00 PM 25.59 78.062 0.167 7.61 2.15 8.57
6/17/2022 5:15:00 PM 25.25 77.45 0.165 7.58 2.22 8.47
6/17/2022 5:30:00 PM 25.01 77.018 0.167 7.52 2.14 8.42
6/17/2022 5:45:00 PM 24.68 76.424 0.166 7.47 2.28 8.32
6/17/2022 6:00:00 PM 24.26 75.668 0.166 7.37 2.28 8.12
6/17/2022 6:15:00 PM 24.02 75.236 0.165 7.33 2.17 8.02
6/17/2022 6:30:00 PM 23.84 74.912 0.166 7.25 2.22 7.9
6/17/2022 6:45:00 PM 23.72 74.696 0.166 7.22 2.1 7.85
6/17/2022 7:00:00 PM 23.59 74.462 0.165 7.23 2.32 7.81
6/17/2022 7:15:00 PM 23.51 74.318 0.165 7.19 2.14 7.7
6/17/2022 7:30:00 PM 23.42 74.156 0.166 7.13 2.05 7.61
6/17/2022 7:45:00 PM 23.32 73.976 0.164 7.13 2.16 7.57
6/17/2022 8:00:00 PM 23.28 73.904 0.165 7.09 2.12 7.52
6/17/2022 8:15:00 PM 23.2 73.76 0.165 7.08 2.09 7.47
6/17/2022 8:30:00 PM 23.11 73.598 0.166 7.04 2.21 7.41
6/17/2022 8:45:00 PM 23.02 73.436 0.165 7.02 2.09 7.36
6/17/2022 9:00:00 PM 22.91 73.238 0.165 7.01 2.63 7.32
6/17/2022 9:15:00 PM 22.79 73.022 0.165 6.99 2.74 7.3
6/17/2022 9:30:00 PM 22.69 72.842 0.165 6.98 2.79 7.28
6/17/2022 9:45:00 PM 22.59 72.662 0.166 6.96 2.63 7.28
6/17/2022 10:00:00 PM 22.51 72.518 0.165 6.98 2.81 7.28
6/17/2022 10:15:00 PM 22.41 72.338 0.166 6.94 2.78 7.28
6/17/2022 10:30:00 PM 22.31 72.158 0.165 6.94 2.45 7.29
6/17/2022 10:45:00 PM 22.23 72.014 0.164 6.94 2.88 7.3
6/17/2022 11:00:00 PM 22.12 71.816 0.164 6.94 2.58 7.32
6/17/2022 11:15:00 PM 22.03 71.654 0.164 6.92 2.71 7.33
6/17/2022 11:30:00 PM 21.94 71.492 0.162 6.93 2.45 7.33
6/17/2022 11:45:00 PM 21.85 71.33 0.162 6.91 2.66 7.35
6/18/2022 12:00:00 AM 21.78 71.204 0.161 6.93 2.54 7.36
6/18/2022 12:15:00 AM 21.7 71.06 0.161 6.91 2.46 7.37
6/18/2022 12:30:00 AM 21.63 70.934 0.161 6.91 2.34 7.39
6/18/2022 12:45:00 AM 21.55 70.79 0.161 6.91 2.85 7.4
6/18/2022 1:00:00 AM 21.48 70.664 0.161 6.9 2.94 7.41
6/18/2022 1:15:00 AM 21.41 70.538 0.161 6.9 2.97 7.43
6/18/2022 1:30:00 AM 21.31 70.358 0.161 6.89 2.44 7.43
6/18/2022 1:45:00 AM 21.21 70.17799 0.161 6.89 2.48 7.47
6/18/2022 2:00:00 AM 21.12 70.016 0.161 6.88 2.71 7.49
6/18/2022 2:15:00 AM 21.02 69.836 0.161 6.89 2.47 7.5
6/18/2022 2:30:00 AM 20.94 69.692 0.161 6.91 2.45 7.52
6/18/2022 2:45:00 AM 20.85 69.53 0.161 6.89 2.53 7.54
6/18/2022 3:00:00 AM 20.78 69.404 0.161 6.9 2.49 7.56
6/18/2022 3:15:00 AM 20.68 69.224 0.161 6.88 2.54 7.59
6/18/2022 3:30:00 AM 20.59 69.062 0.161 6.89 2.54 7.61
6/18/2022 3:45:00 AM 20.49 68.882 0.161 6.88 2.4 7.64
6/18/2022 4:00:00 AM 20.43 68.774 0.161 6.9 2.44 7.66
6/18/2022 4:15:00 AM 20.34 68.612 0.161 6.88 2.51 7.68
6/18/2022 4:30:00 AM 20.25 68.45 0.161 6.9 2.63 7.7
6/18/2022 4:45:00 AM 20.18 68.324 0.161 6.9 2.39 7.73
6/18/2022 5:00:00 AM 20.1 68.18 0.161 6.91 2.55 7.73
6/18/2022 5:15:00 AM 20.02 68.036 0.161 6.9 2.5 7.75
6/18/2022 5:30:00 AM 19.94 67.892 0.161 6.9 2.61 7.77
6/18/2022 5:45:00 AM 19.89 67.802 0.161 6.9 2.74 7.79
6/18/2022 6:00:00 AM 19.85 67.73 0.161 6.9 2.73 7.81
6/18/2022 6:15:00 AM 19.75 67.55 0.161 6.91 2.49 7.83
6/18/2022 6:30:00 AM 19.67 67.406 0.161 6.9 2.34 7.85
6/18/2022 6:45:00 AM 19.6 67.28 0.161 6.91 2.72 7.88
6/18/2022 7:00:00 AM 19.53 67.154 0.161 6.92 2.31 7.96
6/18/2022 7:15:00 AM 19.5 67.1 0.161 6.94 2.28 8.07
6/18/2022 7:30:00 AM 19.47 67.046 0.161 6.97 2.39 8.24
6/18/2022 7:45:00 AM 19.45 67.01 0.16 7 2.46 8.4
6/18/2022 8:00:00 AM 19.42 66.956 0.16 7.03 2.43 8.54
6/18/2022 8:15:00 AM 19.39 66.902 0.16 7.05 2.27 8.64
6/18/2022 8:30:00 AM 19.42 66.956 0.159 7.07 2.16 8.74
6/18/2022 8:45:00 AM 19.41 66.938 0.159 7.1 2.17 8.82
6/18/2022 9:00:00 AM 19.42 66.956 0.159 7.13 2.16 8.94
6/18/2022 9:15:00 AM 19.39 66.902 0.159 7.15 2.23 8.99
6/18/2022 9:30:00 AM 19.36 66.848 0.159 7.17 2.19 9.04
6/18/2022 9:45:00 AM 19.36 66.848 0.159 7.2 2.01 9.11
6/18/2022 10:00:00 AM 19.38 66.884 0.158 7.23 2.07 9.16
6/18/2022 10:15:00 AM 19.37 66.866 0.158 7.25 2.09 9.22
6/18/2022 10:30:00 AM 19.42 66.956 0.158 7.3 2.15 9.3
6/18/2022 10:45:00 AM 19.49 67.082 0.158 7.35 2.04 9.39
6/18/2022 11:00:00 AM 19.46 67.028 0.158 7.35 2.02 9.33
6/18/2022 11:15:00 AM 19.44 66.992 0.158 7.35 2 9.31
6/18/2022 11:30:00 AM 19.43 66.974 0.158 7.37 2.01 9.35
6/18/2022 11:45:00 AM 19.43 66.974 0.157 7.41 2.05 9.43
6/18/2022 12:00:00 PM 19.48 67.064 0.157 7.46 1.94 9.52
6/18/2022 12:15:00 PM 19.59 67.262 0.157 7.51 1.98 9.59
6/18/2022 12:30:00 PM 19.77 67.586 0.157 7.57 1.89 9.63
6/18/2022 12:45:00 PM 20.01 68.018 0.157 7.61 1.94 9.64
6/18/2022 1:00:00 PM 20.14 68.252 0.157 7.62 1.85 9.61
6/18/2022 1:15:00 PM 20.37 68.666 0.157 7.64 1.92 9.63
6/18/2022 1:30:00 PM 20.72 69.296 0.157 7.67 1.87 9.59
6/18/2022 1:45:00 PM 21.02 69.836 0.156 7.69 3.16 9.56
6/18/2022 2:00:00 PM 21.48 70.664 0.156 7.7 1.77 9.53
6/18/2022 2:15:00 PM 21.9 71.42 0.157 7.72 1.86 9.49
6/18/2022 2:30:00 PM 22.26 72.068 0.156 7.77 1.77 9.46
6/18/2022 2:45:00 PM 22.6 72.68 0.156 7.77 1.89 9.43
6/18/2022 3:00:00 PM 22.9 73.22 0.156 7.82 1.86 9.37
6/18/2022 3:15:00 PM 23.02 73.436 0.157 7.81 1.81 9.34
6/18/2022 3:30:00 PM 23.27 73.886 0.157 7.84 1.85 9.31
6/18/2022 3:45:00 PM 23.45 74.21 0.157 7.85 1.83 9.24
6/18/2022 4:00:00 PM 23.56 74.408 0.157 7.82 1.95 9.23
6/18/2022 4:15:00 PM 23.64 74.552 0.157 7.85 1.76 9.17
6/18/2022 4:30:00 PM 23.72 74.696 0.157 7.83 1.85 9.12
6/18/2022 4:45:00 PM 23.68 74.624 0.157 7.79 1.86 9.05
6/18/2022 5:00:00 PM 23.58 74.444 0.157 7.78 1.81 8.98
6/18/2022 5:15:00 PM 23.39 74.102 0.157 7.73 1.71 8.92
6/18/2022 5:30:00 PM 23.05 73.49 0.158 7.67 1.73 8.84
6/18/2022 5:45:00 PM 22.71 72.878 0.158 7.6 1.74 8.7
6/18/2022 6:00:00 PM 22.28 72.104 0.159 7.49 1.78 8.48
6/18/2022 6:15:00 PM 21.89 71.402 0.159 7.4 1.86 8.33
6/18/2022 6:30:00 PM 21.59 70.862 0.159 7.36 1.84 8.24
6/18/2022 6:45:00 PM 21.37 70.466 0.159 7.29 1.79 8.18
6/18/2022 7:00:00 PM 21.22 70.196 0.159 7.25 1.73 8.13
6/18/2022 7:15:00 PM 21.07 69.926 0.16 7.25 1.77 8.07
6/18/2022 7:30:00 PM 20.93 69.674 0.16 7.22 1.94 8.03
6/18/2022 7:45:00 PM 20.79 69.422 0.16 7.19 1.85 7.99
6/18/2022 8:00:00 PM 20.66 69.188 0.16 7.15 1.89 7.96
6/18/2022 8:15:00 PM 20.5 68.9 0.16 7.14 1.89 7.94
6/18/2022 8:30:00 PM 20.38 68.684 0.16 7.11 1.77 7.92
6/18/2022 8:45:00 PM 20.21 68.378 0.16 7.1 1.97 7.89
6/18/2022 9:00:00 PM 20.05 68.09 0.161 7.08 1.94 7.85
6/18/2022 9:15:00 PM 19.9 67.82 0.161 7.05 1.96 7.83
6/18/2022 9:30:00 PM 19.78 67.604 0.161 7.04 2.06 7.83
6/18/2022 9:45:00 PM 19.64 67.352 0.161 7.02 2.33 7.83
6/18/2022 10:00:00 PM 19.53 67.154 0.161 7.01 2.15 7.81
6/18/2022 10:15:00 PM 19.39 66.902 0.161 7 2.26 7.87
6/18/2022 10:30:00 PM 19.24 66.632 0.161 6.99 2.05 7.86
6/18/2022 10:45:00 PM 19.11 66.398 0.161 6.98 2.09 7.9
6/18/2022 11:00:00 PM 18.96 66.128 0.161 6.97 2.23 7.93
6/18/2022 11:15:00 PM 18.86 65.948 0.161 6.96 2.09 7.96
6/18/2022 11:30:00 PM 18.73 65.714 0.161 6.96 2.27 7.99
6/18/2022 11:45:00 PM 18.6 65.48 0.161 6.95 2.32 8.01
6/19/2022 12:00:00 AM 18.49 65.282 0.161 6.94 2.2 8.03
6/19/2022 12:15:00 AM 18.38 65.084 0.161 6.95 2.11 8.06
6/19/2022 12:30:00 AM 18.28 64.904 0.161 6.93 2.07 8.09
6/19/2022 12:45:00 AM 18.15 64.67 0.161 6.94 2.24 8.12
6/19/2022 1:00:00 AM 18.04 64.472 0.161 6.94 1.97 8.14
6/19/2022 1:15:00 AM 17.94 64.292 0.161 6.94 2.02 8.16
6/19/2022 1:30:00 AM 17.85 64.13 0.161 6.94 2.04 8.19
6/19/2022 1:45:00 AM 17.75 63.95 0.161 6.94 2.03 8.21
6/19/2022 2:00:00 AM 17.66 63.788 0.161 6.93 2.1 8.23
6/19/2022 2:15:00 AM 17.57 63.626 0.161 6.94 2.05 8.26
6/19/2022 2:30:00 AM 17.48 63.464 0.161 6.93 2.11 8.28
6/19/2022 2:45:00 AM 17.38 63.284 0.16 6.93 1.98 8.3
6/19/2022 3:00:00 AM 17.29 63.122 0.16 6.93 2.05 8.33
6/19/2022 3:15:00 AM 17.2 62.96 0.16 6.94 2.09 8.35
6/19/2022 3:30:00 AM 17.1 62.78 0.16 6.93 2.09 8.37
6/19/2022 3:45:00 AM 17.02 62.636 0.16 6.94 2.13 8.39
6/19/2022 4:00:00 AM 16.93 62.474 0.16 6.94 2.06 8.42
6/19/2022 4:15:00 AM 16.84 62.312 0.16 6.94 2.19 8.44
6/19/2022 4:30:00 AM 16.75 62.15 0.16 6.95 2.09 8.45
6/19/2022 4:45:00 AM 16.67 62.006 0.16 6.95 2.11 8.48
6/19/2022 5:00:00 AM 16.59 61.862 0.16 6.95 2.09 8.5
6/19/2022 5:15:00 AM 16.5 61.7 0.16 6.94 2.1 8.51
6/19/2022 5:30:00 AM 16.42 61.556 0.159 6.95 2.07 8.55
6/19/2022 5:45:00 AM 16.33 61.394 0.159 6.95 2.04 8.58
6/19/2022 6:00:00 AM 16.26 61.268 0.159 6.95 2.06 8.64
6/19/2022 6:15:00 AM 16.18 61.124 0.159 6.96 1.95 8.7
6/19/2022 6:30:00 AM 16.11 60.998 0.159 6.97 1.99 8.76
6/19/2022 6:45:00 AM 16.04 60.872 0.158 6.98 1.97 8.83
6/19/2022 7:00:00 AM 15.97 60.746 0.158 6.99 1.81 8.89
6/19/2022 7:15:00 AM 15.92 60.656 0.158 6.99 1.98 8.95
6/19/2022 7:30:00 AM 15.88 60.584 0.158 7 1.97 9.01
6/19/2022 7:45:00 AM 15.88 60.584 0.158 7.02 1.87 9.12
6/19/2022 8:00:00 AM 15.91 60.638 0.157 7.04 2.05 9.21
6/19/2022 8:15:00 AM 15.96 60.728 0.157 7.06 1.84 9.28
6/19/2022 8:30:00 AM 16.04 60.872 0.157 7.08 1.79 9.36
6/19/2022 8:45:00 AM 16.11 60.998 0.156 7.1 1.89 9.43
6/19/2022 9:00:00 AM 16.18 61.124 0.156 7.13 1.98 9.49
6/19/2022 9:15:00 AM 16.26 61.268 0.156 7.14 1.91 9.54
6/19/2022 9:30:00 AM 16.36 61.448 0.156 7.16 1.86 9.56
6/19/2022 9:45:00 AM 16.41 61.538 0.156 7.18 1.85 9.6
6/19/2022 10:00:00 AM 16.48 61.664 0.155 7.2 1.98 9.62
6/19/2022 10:15:00 AM 16.57 61.826 0.155 7.21 1.89 9.64
6/19/2022 10:30:00 AM 16.67 62.006 0.155 7.23 2 9.67
6/19/2022 10:45:00 AM 16.81 62.258 0.155 7.26 1.86 9.69
6/19/2022 11:00:00 AM 16.99 62.582 0.155 7.28 1.79 9.72
6/19/2022 11:15:00 AM 17.2 62.96 0.155 7.3 1.88 9.74
6/19/2022 11:30:00 AM 17.45 63.41 0.154 7.34 1.86 9.82
6/19/2022 11:45:00 AM 17.71 63.878 0.154 7.37 1.8 9.87
6/19/2022 12:00:00 PM 17.99 64.382 0.154 7.42 1.78 9.88
6/19/2022 12:15:00 PM 18.32 64.976 0.154 7.45 1.8 9.91
6/19/2022 12:30:00 PM 18.7 65.66 0.154 7.48 1.84 9.89
6/19/2022 12:45:00 PM 19.09 66.362 0.153 7.51 1.88 9.84
6/19/2022 1:00:00 PM 19.49 67.082 0.153 7.54 1.79 9.83
6/19/2022 1:15:00 PM 19.93 67.874 0.153 7.58 1.84 9.81
6/19/2022 1:30:00 PM 20.41 68.738 0.153 7.62 1.72 9.8
6/19/2022 1:45:00 PM 20.9 69.62 0.153 7.66 1.75 9.78
6/19/2022 2:00:00 PM 21.36 70.448 0.153 7.67 1.86 9.75
6/19/2022 2:15:00 PM 21.85 71.33 0.153 7.72 1.82 9.71
6/19/2022 2:30:00 PM 22.28 72.104 0.153 7.77 1.8 9.68
6/19/2022 2:45:00 PM 22.6 72.68 0.153 7.77 1.8 9.62
6/19/2022 3:00:00 PM 22.91 73.238 0.153 7.83 2.68 9.59
6/19/2022 3:15:00 PM 23.17 73.706 0.153 7.84 1.87 9.55
6/19/2022 3:30:00 PM 23.39 74.102 0.153 7.88 1.96 9.47
6/19/2022 3:45:00 PM 23.51 74.318 0.153 7.9 2.05 9.45
6/19/2022 4:00:00 PM 23.6 74.48 0.153 7.91 1.83 9.4
6/19/2022 4:15:00 PM 23.55 74.39 0.153 7.92 1.89 9.35
6/19/2022 4:30:00 PM 23.48 74.264 0.153 7.92 1.93 9.31
6/19/2022 4:45:00 PM 23.4 74.12 0.153 7.91 1.74 9.27
6/19/2022 5:00:00 PM 23.3 73.94 0.153 7.9 1.8 9.23
6/19/2022 5:15:00 PM 23.01 73.418 0.154 7.85 1.84 9.21
6/19/2022 5:30:00 PM 22.84 73.112 0.154 7.85 1.78 9.17
6/19/2022 5:45:00 PM 22.55 72.59 0.154 7.79 1.91 9.08
6/19/2022 6:00:00 PM 22.14 71.852 0.154 7.68 2.05 8.93
6/19/2022 6:15:00 PM 21.7 71.06 0.155 7.6 1.9 8.75
6/19/2022 6:30:00 PM 21.43 70.574 0.155 7.51 1.97 8.64
6/19/2022 6:45:00 PM 21.22 70.196 0.155 7.42 1.9 8.53
6/19/2022 7:00:00 PM 20.99 69.782 0.156 7.38 1.82 8.43
6/19/2022 7:15:00 PM 20.83 69.494 0.156 7.32 1.8 8.33
6/19/2022 7:30:00 PM 20.68 69.224 0.156 7.32 1.74 8.24
6/19/2022 7:45:00 PM 20.55 68.99 0.156 7.27 1.99 8.15
6/19/2022 8:00:00 PM 20.41 68.738 0.157 7.23 1.84 8.09
6/19/2022 8:15:00 PM 20.29 68.522 0.157 7.21 1.78 8.02
6/19/2022 8:30:00 PM 20.14 68.252 0.157 7.19 1.92 7.98
6/19/2022 8:45:00 PM 19.96 67.92799 0.157 7.16 1.9 7.94
6/19/2022 9:00:00 PM 19.79 67.622 0.158 7.14 1.98 7.91
6/19/2022 9:15:00 PM 19.63 67.334 0.158 7.13 1.94 7.87
6/19/2022 9:30:00 PM 19.45 67.01 0.158 7.1 2.11 7.88
6/19/2022 9:45:00 PM 19.27 66.686 0.158 7.09 2.14 7.88
6/19/2022 10:00:00 PM 19.11 66.398 0.158 7.07 1.95 7.9
6/19/2022 10:15:00 PM 18.96 66.128 0.158 7.07 2.23 7.92
6/19/2022 10:30:00 PM 18.81 65.858 0.158 7.06 2.04 7.94
6/19/2022 10:45:00 PM 18.65 65.57 0.158 7.04 2.98 7.96
6/19/2022 11:00:00 PM 18.5 65.3 0.158 7.05 2.17 7.99
6/19/2022 11:15:00 PM 18.35 65.03 0.159 7.02 2.08 8.02
6/19/2022 11:30:00 PM 18.21 64.778 0.159 7.03 2.12 8.06
6/19/2022 11:45:00 PM 18.06 64.508 0.159 7.02 2.11 8.09
6/20/2022 12:00:00 AM 17.92 64.256 0.159 7.03 1.94 8.12
6/20/2022 12:15:00 AM 17.78 64.004 0.159 7 2.15 8.15
6/20/2022 12:30:00 AM 17.63 63.734 0.159 7.01 1.99 8.18
6/20/2022 12:45:00 AM 17.49 63.482 0.159 7 1.93 8.23
6/20/2022 1:00:00 AM 17.35 63.23 0.159 7.01 2.08 8.25
6/20/2022 1:15:00 AM 17.22 62.996 0.159 6.98 1.93 8.28
6/20/2022 1:30:00 AM 17.09 62.762 0.159 6.99 1.82 8.31
6/20/2022 1:45:00 AM 16.97 62.546 0.159 6.98 2.14 8.34
6/20/2022 2:00:00 AM 16.84 62.312 0.159 6.98 1.99 8.37
6/20/2022 2:15:00 AM 16.72 62.096 0.159 6.97 2.21 8.42
6/20/2022 2:30:00 AM 16.6 61.88 0.159 6.97 2.26 8.43
6/20/2022 2:45:00 AM 16.49 61.682 0.159 6.98 2.44 8.47
6/20/2022 3:00:00 AM 16.38 61.484 0.159 6.96 1.88 8.48
6/20/2022 3:15:00 AM 16.28 61.304 0.159 6.97 1.97 8.51
6/20/2022 3:30:00 AM 16.18 61.124 0.159 6.97 12.76 8.55
6/20/2022 3:45:00 AM 16.1 60.98 0.159 6.97 1.91 8.57
6/20/2022 4:00:00 AM 16.05 60.89 0.159 6.96 1.95 8.58
6/20/2022 4:15:00 AM 15.98 60.764 0.159 6.95 1.98 8.59
6/20/2022 4:30:00 AM 15.93 60.674 0.159 6.96 1.79 8.62
6/20/2022 4:45:00 AM 15.86 60.548 0.159 6.96 1.95 8.64
6/20/2022 5:00:00 AM 15.81 60.458 0.159 6.95 2.01 8.65
6/20/2022 5:15:00 AM 15.77 60.386 0.159 6.95 2.09 8.67
6/20/2022 5:30:00 AM 15.72 60.296 0.158 6.94 2.07 8.67
6/20/2022 5:45:00 AM 15.68 60.224 0.158 6.95 2 8.69
6/20/2022 6:00:00 AM 15.63 60.134 0.158 6.96 1.85 8.72
6/20/2022 6:15:00 AM 15.58 60.044 0.158 6.95 1.7 8.79
6/20/2022 6:30:00 AM 15.54 59.972 0.158 6.97 1.75 8.86
6/20/2022 6:45:00 AM 15.52 59.936 0.158 6.98 1.8 8.97
6/20/2022 7:00:00 AM 15.54 59.972 0.158 7.01 1.68 9.14
6/20/2022 7:15:00 AM 15.56 60.008 0.157 7.03 1.66 9.31
6/20/2022 7:30:00 AM 15.57 60.026 0.157 7.04 1.84 9.43
6/20/2022 7:45:00 AM 15.59 60.062 0.157 7.07 1.8 9.51
6/20/2022 8:00:00 AM 15.58 60.044 0.156 7.09 1.62 9.54
6/20/2022 8:15:00 AM 15.61 60.098 0.156 7.09 1.78 9.57
6/20/2022 8:30:00 AM 15.7 60.26 0.156 7.11 1.79 9.61
6/20/2022 8:45:00 AM 15.83 60.494 0.156 7.13 1.65 9.69
6/20/2022 9:00:00 AM 16.02 60.836 0.156 7.17 1.65 9.83
6/20/2022 9:15:00 AM 16.14 61.052 0.155 7.21 1.65 9.89
6/20/2022 9:30:00 AM 16.25 61.25 0.155 7.23 1.66 9.91
6/20/2022 9:45:00 AM 16.37 61.466 0.155 7.26 1.71 9.89
6/20/2022 10:00:00 AM 16.48 61.664 0.155 7.26 1.61 9.85
6/20/2022 10:15:00 AM 16.62 61.916 0.155 7.27 1.67 9.82
6/20/2022 10:30:00 AM 16.76 62.168 0.155 7.29 1.58 9.81
6/20/2022 10:45:00 AM 16.92 62.456 0.155 7.3 1.64 9.82
6/20/2022 11:00:00 AM 17.1 62.78 0.154 7.33 1.69 9.83
6/20/2022 11:15:00 AM 17.37 63.266 0.154 7.35 1.67 9.91
6/20/2022 11:30:00 AM 17.71 63.878 0.154 7.42 1.61 10.06
6/20/2022 11:45:00 AM 18.03 64.454 0.153 7.5 1.62 10.14
6/20/2022 12:00:00 PM 18.21 64.778 0.153 7.51 1.68 10.04
6/20/2022 12:15:00 PM 18.41 65.138 0.153 7.53 1.65 9.99
6/20/2022 12:30:00 PM 18.72 65.696 0.153 7.53 1.71 9.9
6/20/2022 12:45:00 PM 19.09 66.362 0.153 7.55 1.59 9.89
6/20/2022 1:00:00 PM 19.52 67.136 0.153 7.58 1.65 9.86
6/20/2022 1:15:00 PM 20.01 68.018 0.153 7.62 1.63 9.82
6/20/2022 1:30:00 PM 20.51 68.918 0.153 7.64 1.61 9.82
6/20/2022 1:45:00 PM 21.04 69.872 0.153 7.69 1.64 9.78
6/20/2022 2:00:00 PM 21.53 70.754 0.152 7.73 1.55 9.75
6/20/2022 2:15:00 PM 22.02 71.636 0.152 7.78 1.57 9.75
6/20/2022 2:30:00 PM 22.49 72.482 0.152 7.83 1.57 9.72
6/20/2022 2:45:00 PM 22.87 73.166 0.152 7.88 1.64 9.63
6/20/2022 3:00:00 PM 23.19 73.742 0.152 7.92 1.54 9.61
6/20/2022 3:15:00 PM 23.54 74.372 0.152 7.97 1.76 9.57
6/20/2022 3:30:00 PM 23.67 74.606 0.152 8 1.86 9.51
6/20/2022 3:45:00 PM 23.77 74.786 0.152 8.02 1.66 9.49
6/20/2022 4:00:00 PM 23.85 74.93 0.152 8.07 1.6 9.46
6/20/2022 4:15:00 PM 23.68 74.624 0.152 8.05 1.64 9.41
6/20/2022 4:30:00 PM 23.63 74.534 0.152 8.07 1.65 9.39
6/20/2022 4:45:00 PM 23.7 74.66 0.152 8.09 1.58 9.39
6/20/2022 5:00:00 PM 23.79 74.82201 0.152 8.07 1.49 9.3
6/20/2022 5:15:00 PM 23.6 74.48 0.152 8.03 1.67 9.23
6/20/2022 5:30:00 PM 23.36 74.048 0.153 7.98 1.55 9.14
6/20/2022 5:45:00 PM 23.22 73.796 0.153 7.94 1.53 9.08
6/20/2022 6:00:00 PM 22.98 73.364 0.153 7.85 1.82 8.95
6/20/2022 6:15:00 PM 22.75 72.95 0.154 7.74 1.64 8.81
6/20/2022 6:30:00 PM 22.53 72.554 0.154 7.67 1.71 8.67
6/20/2022 6:45:00 PM 22.3 72.14 0.155 7.56 1.69 8.49
6/20/2022 7:00:00 PM 22.13 71.834 0.155 7.49 1.73 8.39
6/20/2022 7:15:00 PM 21.99 71.582 0.155 7.43 1.59 8.26
6/20/2022 7:30:00 PM 21.84 71.312 0.156 7.37 1.56 8.15
6/20/2022 7:45:00 PM 21.72 71.096 0.156 7.3 1.82 8.05
6/20/2022 8:00:00 PM 21.62 70.916 0.156 7.27 1.66 7.92
6/20/2022 8:15:00 PM 21.5 70.7 0.157 7.23 1.66 7.79
6/20/2022 8:30:00 PM 21.39 70.502 0.157 7.16 1.65 7.69
6/20/2022 8:45:00 PM 21.28 70.304 0.157 7.17 1.83 7.62
6/20/2022 9:00:00 PM 21.15 70.07 0.158 7.11 1.69 7.58
6/20/2022 9:15:00 PM 21.02 69.836 0.158 7.12 1.76 7.55
6/20/2022 9:30:00 PM 20.89 69.602 0.158 7.11 2.11 7.51
6/20/2022 9:45:00 PM 20.76 69.368 0.158 7.08 2.09 7.48
6/20/2022 10:00:00 PM 20.64 69.152 0.159 7.06 2.06 7.5
6/20/2022 10:15:00 PM 20.52 68.936 0.159 7.03 1.97 7.51
6/20/2022 10:30:00 PM 20.4 68.72 0.159 7.04 1.99 7.52
6/20/2022 10:45:00 PM 20.28 68.504 0.159 7.04 1.86 7.51
6/20/2022 11:00:00 PM 20.16 68.288 0.159 7.04 1.78 7.55
6/20/2022 11:15:00 PM 20.04 68.07201 0.159 7.03 1.89 7.58
6/20/2022 11:30:00 PM 19.93 67.874 0.159 7.03 2.01 7.59
6/20/2022 11:45:00 PM 19.83 67.694 0.16 7.02 1.94 7.61
6/21/2022 12:00:00 AM 19.75 67.55 0.16 7.02 1.78 7.61
6/21/2022 12:15:00 AM 19.66 67.388 0.16 7.01 1.78 7.64
6/21/2022 12:30:00 AM 19.57 67.226 0.16 6.99 1.8 7.66
6/21/2022 12:45:00 AM 19.5 67.1 0.16 7 1.67 7.68
6/21/2022 1:00:00 AM 19.44 66.992 0.16 6.99 1.9 7.72
6/21/2022 1:15:00 AM 19.38 66.884 0.16 6.99 2.05 7.69
6/21/2022 1:30:00 AM 19.32 66.776 0.16 6.99 1.93 7.74
6/21/2022 1:45:00 AM 19.26 66.668 0.16 6.99 1.82 7.76
6/21/2022 2:00:00 AM 19.2 66.56 0.16 6.99 1.81 7.78
6/21/2022 2:15:00 AM 19.14 66.452 0.16 6.98 2.21 7.78
6/21/2022 2:30:00 AM 19.09 66.362 0.16 6.98 2.61 7.79
6/21/2022 2:45:00 AM 19.04 66.272 0.16 6.97 1.81 7.78
6/21/2022 3:00:00 AM 18.99 66.182 0.16 6.97 1.77 7.83
6/21/2022 3:15:00 AM 18.95 66.11 0.16 6.96 2 7.79
6/21/2022 3:30:00 AM 18.91 66.038 0.16 6.97 1.82 7.8
6/21/2022 3:45:00 AM 18.86 65.948 0.16 6.96 1.81 7.85
6/21/2022 4:00:00 AM 18.82 65.876 0.16 6.96 1.84 7.87
6/21/2022 4:15:00 AM 18.78 65.804 0.16 6.97 1.95 7.9
6/21/2022 4:30:00 AM 18.74 65.732 0.16 6.96 1.86 7.88
6/21/2022 4:45:00 AM 18.7 65.66 0.16 6.96 1.92 7.91
6/21/2022 5:00:00 AM 18.66 65.588 0.16 6.95 1.94 7.92
6/21/2022 5:15:00 AM 18.62 65.516 0.16 6.96 1.85 7.94
6/21/2022 5:30:00 AM 18.58 65.444 0.16 6.96 1.91 7.95
6/21/2022 5:45:00 AM 18.54 65.372 0.16 6.96 1.97 7.98
6/21/2022 6:00:00 AM 18.48 65.264 0.159 6.95 1.68 8.03
6/21/2022 6:15:00 AM 18.43 65.174 0.159 6.95 1.77 8.09
6/21/2022 6:30:00 AM 18.39 65.102 0.159 6.97 1.9 8.18
6/21/2022 6:45:00 AM 18.36 65.048 0.159 6.98 1.77 8.3
6/21/2022 7:00:00 AM 18.36 65.048 0.159 6.99 1.87 8.44
6/21/2022 7:15:00 AM 18.37 65.066 0.158 7.02 1.73 8.55
6/21/2022 7:30:00 AM 18.36 65.048 0.158 7.02 1.64 8.55
6/21/2022 7:45:00 AM 18.36 65.048 0.158 7.03 1.68 8.51
6/21/2022 8:00:00 AM 18.37 65.066 0.158 7.03 1.72 8.56
6/21/2022 8:15:00 AM 18.36 65.048 0.158 7.04 1.71 8.62
6/21/2022 8:30:00 AM 18.36 65.048 0.158 7.04 1.95 8.63
6/21/2022 8:45:00 AM 18.36 65.048 0.158 7.05 1.76 8.66
6/21/2022 9:00:00 AM 18.38 65.084 0.157 7.06 1.68 8.76
6/21/2022 9:15:00 AM 18.41 65.138 0.157 7.08 1.76 8.92
6/21/2022 9:30:00 AM 18.49 65.282 0.156 7.12 1.81 9.1
6/21/2022 9:45:00 AM 18.63 65.534 0.156 7.17 1.71 9.38
6/21/2022 10:00:00 AM 18.76 65.768 0.156 7.23 1.75 9.52
6/21/2022 10:15:00 AM 18.91 66.038 0.155 7.28 1.78 9.63
6/21/2022 10:30:00 AM 19.05 66.29 0.155 7.31 1.65 9.66
6/21/2022 10:45:00 AM 19.2 66.56 0.155 7.35 1.72 9.7
6/21/2022 11:00:00 AM 19.39 66.902 0.155 7.41 1.66 9.79
6/21/2022 11:15:00 AM 19.59 67.262 0.154 7.47 1.65 9.84
6/21/2022 11:30:00 AM 19.8 67.64 0.154 7.54 1.62 9.94
6/21/2022 11:45:00 AM 20 68 0.154 7.6 1.72 9.97
6/21/2022 12:00:00 PM 20.22 68.396 0.154 7.64 1.72 9.93
6/21/2022 12:15:00 PM 20.51 68.918 0.154 7.67 1.61 9.93
6/21/2022 12:30:00 PM 20.82 69.476 0.153 7.73 1.69 9.9
6/21/2022 12:45:00 PM 21.12 70.016 0.153 7.78 1.56 9.85
6/21/2022 1:00:00 PM 21.43 70.574 0.153 7.82 1.76 9.83
6/21/2022 1:15:00 PM 21.86 71.348 0.153 7.85 1.74 9.82
6/21/2022 1:30:00 PM 22.12 71.816 0.153 7.9 1.58 9.77
6/21/2022 1:45:00 PM 22.47 72.446 0.153 7.91 1.63 9.77
6/21/2022 2:00:00 PM 23.05 73.49 0.153 7.95 1.72 9.67
6/21/2022 2:15:00 PM 23.58 74.444 0.154 7.96 1.79 9.59
6/21/2022 2:30:00 PM 24.03 75.254 0.163 7.98 1.83 9.56
6/21/2022 2:45:00 PM 24.51 76.118 0.153 8.01 1.86 9.47
6/21/2022 3:00:00 PM 24.96 76.92799 0.153 8.03 1.63 9.41
6/21/2022 3:15:00 PM 25.31 77.558 0.152 8.04 1.53 9.28
6/21/2022 3:30:00 PM 25.58 78.044 0.152 8.06 1.58 9.23
6/21/2022 3:45:00 PM 25.77 78.386 0.153 8.08 1.63 9.18
6/21/2022 4:00:00 PM 25.91 78.638 0.153 8.08 1.59 9.1
6/21/2022 4:15:00 PM 26.03 78.854 0.153 8.06 1.51 9.04
6/21/2022 4:30:00 PM 26.1 78.98 0.153 8.05 1.61 8.96
6/21/2022 4:45:00 PM 26.13 79.034 0.153 8.04 1.54 8.94
6/21/2022 5:00:00 PM 26.1 78.98 0.153 7.99 1.72 8.85
6/21/2022 5:15:00 PM 26.04 78.872 0.153 7.96 1.63 8.78
6/21/2022 5:30:00 PM 25.89 78.602 0.154 7.9 1.7 8.67
6/21/2022 5:45:00 PM 25.68 78.224 0.154 7.83 1.47 8.58
6/21/2022 6:00:00 PM 25.33 77.594 0.155 7.7 1.59 8.38
6/21/2022 6:15:00 PM 24.93 76.874 0.158 7.56 1.74 8.1
6/21/2022 6:30:00 PM 24.63 76.334 0.159 7.47 1.53 7.94
6/21/2022 6:45:00 PM 24.41 75.938 0.162 7.4 1.76 7.85
6/21/2022 7:00:00 PM 24.24 75.632 0.163 7.33 3.05 7.69
6/21/2022 7:15:00 PM 24.11 75.398 0.164 7.29 1.61 7.54
6/21/2022 7:30:00 PM 23.99 75.182 0.165 7.24 1.55 7.48
6/21/2022 7:45:00 PM 23.88 74.984 0.166 7.22 1.62 7.38
6/21/2022 8:00:00 PM 23.76 74.768 0.167 7.17 1.86 7.31
6/21/2022 8:15:00 PM 23.65 74.57 0.167 7.15 1.71 7.21
6/21/2022 8:30:00 PM 23.53 74.354 0.168 7.12 1.59 7.16
6/21/2022 8:45:00 PM 23.41 74.138 0.168 7.08 1.54 7.12
6/21/2022 9:00:00 PM 23.3 73.94 0.167 7.09 1.9 7.05
6/21/2022 9:15:00 PM 23.18 73.724 0.167 7.05 2.19 7
6/21/2022 9:30:00 PM 23.06 73.508 0.166 7.05 2.15 6.94
6/21/2022 9:45:00 PM 22.95 73.31 0.165 7.01 1.95 6.95
6/21/2022 10:00:00 PM 22.83 73.094 0.165 7.02 2.16 6.91
6/21/2022 10:15:00 PM 22.72 72.896 0.165 7.01 2.48 6.93
6/21/2022 10:30:00 PM 22.61 72.698 0.166 7 2.09 6.95
6/21/2022 10:45:00 PM 22.51 72.518 0.166 6.99 2 6.99
6/21/2022 11:00:00 PM 22.41 72.338 0.166 6.98 2.06 7.01
6/21/2022 11:15:00 PM 22.3 72.14 0.166 6.98 1.95 7.02
6/21/2022 11:30:00 PM 22.2 71.96 0.166 6.96 1.88 7.02
6/21/2022 11:45:00 PM 22.1 71.78 0.166 6.96 1.93 7.05
6/22/2022 12:00:00 AM 21.99 71.582 0.165 6.96 2.95 7.09
6/22/2022 12:15:00 AM 21.87 71.366 0.165 6.95 1.79 7.11
6/22/2022 12:30:00 AM 21.75 71.15 0.164 6.95 1.84 7.14
6/22/2022 12:45:00 AM 21.63 70.934 0.164 6.94 1.86 7.18
6/22/2022 1:00:00 AM 21.5 70.7 0.164 6.94 1.87 7.21
6/22/2022 1:15:00 AM 21.37 70.466 0.164 6.94 2.03 7.23
6/22/2022 1:30:00 AM 21.24 70.232 0.165 6.92 1.83 7.27
6/22/2022 1:45:00 AM 21.12 70.016 0.166 6.93 1.79 7.29
6/22/2022 2:00:00 AM 21 69.8 0.166 6.89 1.89 7.32
6/22/2022 2:15:00 AM 20.87 69.566 0.164 6.93 2.17 7.35
6/22/2022 2:30:00 AM 20.76 69.368 0.165 6.92 2.08 7.4
6/22/2022 2:45:00 AM 20.65 69.17 0.164 6.93 1.96 7.43
6/22/2022 3:00:00 AM 20.56 69.008 0.165 6.91 3.83 7.44
6/22/2022 3:15:00 AM 20.48 68.864 0.164 6.92 1.8 7.47
6/22/2022 3:30:00 AM 20.4 68.72 0.164 6.91 2.1 7.51
6/22/2022 3:45:00 AM 20.33 68.594 0.164 6.92 2 7.5
6/22/2022 4:00:00 AM 20.27 68.486 0.163 6.91 1.8 7.53
6/22/2022 4:15:00 AM 20.2 68.36 0.163 6.91 2.16 7.55
6/22/2022 4:30:00 AM 20.15 68.27 0.163 6.91 1.9 7.56
6/22/2022 4:45:00 AM 20.1 68.18 0.163 6.9 1.8 7.56
6/22/2022 5:00:00 AM 20.04 68.07201 0.163 6.89 3.11 7.58
6/22/2022 5:15:00 AM 20 68 0.162 6.9 2.29 7.58
6/22/2022 5:30:00 AM 19.96 67.92799 0.162 6.9 2.35 7.59
6/22/2022 5:45:00 AM 19.92 67.856 0.162 6.9 2.22 7.6
6/22/2022 6:00:00 AM 19.89 67.802 0.162 6.9 1.95 7.64
6/22/2022 6:15:00 AM 19.87 67.766 0.162 6.9 1.98 7.67
6/22/2022 6:30:00 AM 19.86 67.748 0.162 6.92 3.05 7.77
6/22/2022 6:45:00 AM 19.86 67.748 0.161 6.92 1.9 7.9
6/22/2022 7:00:00 AM 19.87 67.766 0.161 6.95 1.92 8.03
6/22/2022 7:15:00 AM 19.89 67.802 0.161 6.97 2.04 8.15
6/22/2022 7:30:00 AM 19.93 67.874 0.16 6.98 2.11 8.29
6/22/2022 7:45:00 AM 19.97 67.946 0.16 7 1.8 8.41
6/22/2022 8:00:00 AM 20.03 68.054 0.159 7.01 2.5 8.53
6/22/2022 8:15:00 AM 20.08 68.144 0.159 7.07 2.29 8.64
6/22/2022 8:30:00 AM 20.11 68.198 0.159 7.08 1.86 8.66
6/22/2022 8:45:00 AM 20.21 68.378 0.159 7.12 2.15 8.77
6/22/2022 9:00:00 AM 20.41 68.738 0.158 7.17 1.7 8.99
6/22/2022 9:15:00 AM 20.6 69.08 0.158 7.21 1.8 9.16
6/22/2022 9:30:00 AM 20.74 69.332 0.157 7.26 1.66 9.2
6/22/2022 9:45:00 AM 20.83 69.494 0.157 7.29 1.73 9.19
6/22/2022 10:00:00 AM 20.93 69.674 0.157 7.31 1.9 9.22
6/22/2022 10:15:00 AM 21.02 69.836 0.157 7.32 1.63 9.24
6/22/2022 10:30:00 AM 21.11 69.998 0.157 7.36 1.84 9.22
6/22/2022 10:45:00 AM 21.27 70.286 0.157 7.43 1.67 9.36
6/22/2022 11:00:00 AM 21.43 70.574 0.156 7.49 1.53 9.42
6/22/2022 11:15:00 AM 21.63 70.934 0.156 7.55 1.67 9.42
6/22/2022 11:30:00 AM 21.81 71.258 0.156 7.62 1.82 9.53
6/22/2022 11:45:00 AM 21.94 71.492 0.156 7.67 1.65 9.48
6/22/2022 12:00:00 PM 22.11 71.798 0.156 7.7 1.5 9.49
6/22/2022 12:15:00 PM 22.27 72.086 0.156 7.76 1.56 9.53
6/22/2022 12:30:00 PM 22.49 72.482 0.155 7.83 1.65 9.59
6/22/2022 12:45:00 PM 22.74 72.932 0.155 7.89 1.96 9.56
6/22/2022 1:00:00 PM 23.1 73.58 0.155 7.92 1.58 9.57
6/22/2022 1:15:00 PM 23.56 74.408 0.155 8.01 1.83 9.58
6/22/2022 1:30:00 PM 24.03 75.254 0.155 8.04 1.85 9.5
6/22/2022 1:45:00 PM 24.47 76.046 0.155 8.09 2.09 9.42
6/22/2022 2:00:00 PM 24.99 76.982 0.154 8.14 1.6 9.42
6/22/2022 2:15:00 PM 25.51 77.918 0.154 8.15 1.7 9.37
6/22/2022 2:30:00 PM 25.81 78.458 0.154 8.16 1.55 9.24
6/22/2022 2:45:00 PM 26.13 79.034 0.154 8.18 1.62 9.19
6/22/2022 3:00:00 PM 26.28 79.304 0.154 8.17 1.67 9.07
6/22/2022 3:15:00 PM 26.46 79.628 0.154 8.17 1.66 9.01
6/22/2022 3:30:00 PM 26.23 79.214 0.154 7.98 1.69 8.61
6/22/2022 3:45:00 PM 25.79 78.422 0.154 7.73 1.88 8.14
6/22/2022 4:00:00 PM 25.5 77.9 0.154 7.55 2.2 7.7
6/22/2022 4:15:00 PM 25.36 77.648 0.154 7.47 2.19 7.76
6/22/2022 4:30:00 PM 25.36 77.648 0.154 7.48 2.05 7.93
6/22/2022 4:45:00 PM 25.46 77.828 0.153 7.51 1.94 8.1
6/22/2022 5:00:00 PM 25.61 78.098 0.153 7.57 1.68 8.28
6/22/2022 5:15:00 PM 25.81 78.458 0.153 7.62 1.82 8.39
6/22/2022 5:30:00 PM 25.82 78.476 0.153 7.62 1.86 8.33
6/22/2022 5:45:00 PM 25.55 77.99 0.154 7.52 1.67 8
6/22/2022 6:00:00 PM 25.29 77.522 0.154 7.37 3.19 7.76
6/22/2022 6:15:00 PM 25.12 77.216 0.155 7.32 1.82 7.56
6/22/2022 6:30:00 PM 24.97 76.946 0.155 7.26 1.85 7.31
6/22/2022 6:45:00 PM 24.85 76.73 0.155 7.22 2.16 7.11
6/22/2022 7:00:00 PM 24.77 76.586 0.156 7.17 2.02 6.97
6/22/2022 7:15:00 PM 24.72 76.496 0.156 7.14 1.88 6.84
6/22/2022 7:30:00 PM 24.65 76.37 0.157 7.11 1.92 6.76
6/22/2022 7:45:00 PM 24.56 76.208 0.157 7.06 1.91 6.73
6/22/2022 8:00:00 PM 24.41 75.938 0.156 7.07 2.72 6.68
6/22/2022 8:15:00 PM 24.25 75.65 0.156 7.08 6.52 6.61
6/22/2022 8:30:00 PM 24.12 75.416 0.153 7.1 4.55 6.61
6/22/2022 8:45:00 PM 23.99 75.182 0.152 7.07 4.44 6.58
6/22/2022 9:00:00 PM 23.88 74.984 0.151 7.05 3.19 6.63
6/22/2022 9:15:00 PM 23.75 74.75 0.152 6.99 2.74 6.62
6/22/2022 9:30:00 PM 23.59 74.462 0.152 6.97 2.82 6.64
6/22/2022 9:45:00 PM 23.46 74.228 0.15 7.02 3.91 6.67
6/22/2022 10:00:00 PM 23.36 74.048 0.151 7 2.95 6.69
6/22/2022 10:15:00 PM 23.25 73.85 0.153 6.99 2.88 6.69
6/22/2022 10:30:00 PM 23.13 73.634 0.153 6.97 2.37 6.75
6/22/2022 10:45:00 PM 23.02 73.436 0.154 6.97 2.56 6.77
6/22/2022 11:00:00 PM 22.9 73.22 0.154 6.94 2.46 6.8
6/22/2022 11:15:00 PM 22.77 72.986 0.155 6.95 2.46 6.87
6/22/2022 11:30:00 PM 22.62 72.716 0.155 6.95 2.42 6.9
6/22/2022 11:45:00 PM 22.46 72.42799 0.155 6.96 2.66 6.96
6/23/2022 12:00:00 AM 22.31 72.158 0.156 6.95 2.5 7.02
6/23/2022 12:15:00 AM 22.17 71.906 0.156 6.96 2.49 7.03
6/23/2022 12:30:00 AM 22.04 71.672 0.156 6.94 2.75 7.09
6/23/2022 12:45:00 AM 21.92 71.456 0.156 6.95 2.74 7.1
6/23/2022 1:00:00 AM 21.8 71.24 0.156 6.96 2.75 7.18
6/23/2022 1:15:00 AM 21.69 71.042 0.157 6.94 2.36 7.19
6/23/2022 1:30:00 AM 21.59 70.862 0.157 6.94 2.39 7.22
6/23/2022 1:45:00 AM 21.5 70.7 0.157 6.93 2.54 7.24
6/23/2022 2:00:00 AM 21.43 70.574 0.157 6.94 3 7.27
6/23/2022 2:15:00 AM 21.36 70.448 0.157 6.94 2.47 7.29
6/23/2022 2:30:00 AM 21.3 70.34 0.157 6.9 2.44 7.32
6/23/2022 2:45:00 AM 21.24 70.232 0.157 6.92 2.37 7.33
6/23/2022 3:00:00 AM 21.18 70.124 0.156 6.9 2.73 7.33
6/23/2022 3:15:00 AM 21.13 70.034 0.156 6.94 2.69 7.32
6/23/2022 3:30:00 AM 21.09 69.962 0.156 6.92 2.7 7.35
6/23/2022 3:45:00 AM 21.05 69.89 0.156 6.93 2.87 7.39
6/23/2022 4:00:00 AM 21.01 69.818 0.157 6.92 2.61 7.41
6/23/2022 4:15:00 AM 20.97 69.746 0.157 6.93 2.73 7.43
6/23/2022 4:30:00 AM 20.93 69.674 0.157 6.91 2.76 7.45
6/23/2022 4:45:00 AM 20.89 69.602 0.157 6.94 3.01 7.48
6/23/2022 5:00:00 AM 20.86 69.548 0.157 6.94 2.78 7.5
6/23/2022 5:15:00 AM 20.82 69.476 0.157 6.91 3.37 7.52
6/23/2022 5:30:00 AM 20.79 69.422 0.157 6.94 2.69 7.53
6/23/2022 5:45:00 AM 20.76 69.368 0.158 6.93 2.95 7.56
6/23/2022 6:00:00 AM 20.72 69.296 0.158 6.95 3.11 7.59
6/23/2022 6:15:00 AM 20.69 69.242 0.158 6.96 2.78 7.64
6/23/2022 6:30:00 AM 20.68 69.224 0.158 6.96 4.01 7.71
6/23/2022 6:45:00 AM 20.68 69.224 0.159 6.97 4.13 7.77
6/23/2022 7:00:00 AM 20.68 69.224 0.159 6.97 2.82 7.81
6/23/2022 7:15:00 AM 20.69 69.242 0.159 6.99 3.19 7.85
6/23/2022 7:30:00 AM 20.69 69.242 0.159 7 2.81 7.87
6/23/2022 7:45:00 AM 20.7 69.26 0.159 7.01 3.02 7.88
6/23/2022 8:00:00 AM 20.71 69.278 0.16 7 2.86 7.91
6/23/2022 8:15:00 AM 20.73 69.314 0.16 7 3.42 7.94
6/23/2022 8:30:00 AM 20.78 69.404 0.16 7.02 2.91 8.06
6/23/2022 8:45:00 AM 20.85 69.53 0.16 7.06 3.38 8.24
6/23/2022 9:00:00 AM 20.91 69.638 0.16 7.07 3.52 8.33
6/23/2022 9:15:00 AM 20.95 69.71 0.16 7.1 3.01 8.36
6/23/2022 9:30:00 AM 21 69.8 0.16 7.09 3.05 8.39
6/23/2022 9:45:00 AM 21.08 69.944 0.161 7.15 2.86 8.52
6/23/2022 10:00:00 AM 21.2 70.16 0.161 7.2 2.96 8.69
6/23/2022 10:15:00 AM 21.3 70.34 0.161 7.24 2.95 8.79
6/23/2022 10:30:00 AM 21.41 70.538 0.161 7.27 2.84 8.87
6/23/2022 10:45:00 AM 21.47 70.646 0.162 7.31 2.89 8.86
6/23/2022 11:00:00 AM 21.51 70.718 0.162 7.32 3.07 8.89
6/23/2022 11:15:00 AM 21.59 70.862 0.162 7.36 2.9 8.96
6/23/2022 11:30:00 AM 21.72 71.096 0.162 7.39 3.08 9.04
6/23/2022 11:45:00 AM 21.92 71.456 0.163 7.46 2.94 9.09
6/23/2022 12:00:00 PM 22.21 71.978 0.163 7.48 2.71 9.05
6/23/2022 12:15:00 PM 22.44 72.392 0.163 7.5 3.22 9.08
6/23/2022 12:30:00 PM 22.71 72.878 0.163 7.55 2.98 9.16
6/23/2022 12:45:00 PM 22.77 72.986 0.164 7.59 3.07 9.13
6/23/2022 1:00:00 PM 22.8 73.04 0.164 7.6 2.91 9.12
6/23/2022 1:15:00 PM 22.91 73.238 0.164 7.64 2.82 9.14
6/23/2022 1:30:00 PM 23.21 73.778 0.164 7.69 2.68 9.18
6/23/2022 1:45:00 PM 23.45 74.21 0.164 7.71 2.71 9.18
6/23/2022 2:00:00 PM 23.73 74.714 0.165 7.76 2.73 9.21
6/23/2022 2:15:00 PM 24.06 75.308 0.165 7.81 2.82 9.24
6/23/2022 2:30:00 PM 24.34 75.812 0.165 7.84 3 9.24
6/23/2022 2:45:00 PM 24.58 76.244 0.165 7.9 2.72 9.22
6/23/2022 3:00:00 PM 24.8 76.64 0.165 7.91 2.78 9.22
6/23/2022 3:15:00 PM 24.97 76.946 0.165 7.94 2.67 9.2
6/23/2022 3:30:00 PM 25.04 77.07201 0.166 7.94 2.66 9.14
6/23/2022 3:45:00 PM 25.02 77.036 0.166 7.95 2.51 9.12
6/23/2022 4:00:00 PM 24.73 76.514 0.166 7.9 2.82 9.03
6/23/2022 4:15:00 PM 24.67 76.406 0.166 7.9 2.58 9.05
6/23/2022 4:30:00 PM 24.5 76.1 0.167 7.91 2.72 9.04
6/23/2022 4:45:00 PM 24.36 75.848 0.167 7.91 2.93 9.05
6/23/2022 5:00:00 PM 24.14 75.452 0.167 7.88 2.73 9.02
6/23/2022 5:15:00 PM 23.9 75.02 0.168 7.84 2.86 8.95
6/23/2022 5:30:00 PM 23.61 74.498 0.168 7.76 2.72 8.84
6/23/2022 5:45:00 PM 23.25 73.85 0.169 7.67 2.91 8.7
6/23/2022 6:00:00 PM 22.92 73.256 0.17 7.56 3.04 8.51
6/23/2022 6:15:00 PM 22.7 72.86 0.17 7.46 2.8 8.44
6/23/2022 6:30:00 PM 22.54 72.57201 0.17 7.43 2.93 8.4
6/23/2022 6:45:00 PM 22.48 72.464 0.171 7.41 2.96 8.41
6/23/2022 7:00:00 PM 22.4 72.32 0.171 7.38 3.03 8.37
6/23/2022 7:15:00 PM 22.3 72.14 0.171 7.35 2.92 8.32
6/23/2022 7:30:00 PM 22.19 71.942 0.172 7.32 2.86 8.26
6/23/2022 7:45:00 PM 22.08 71.744 0.172 7.28 2.94 8.2
6/23/2022 8:00:00 PM 21.97 71.546 0.173 7.24 2.88 8.12
6/23/2022 8:15:00 PM 21.84 71.312 0.174 7.22 2.9 8.05
6/23/2022 8:30:00 PM 21.7 71.06 0.175 7.16 2.91 8
6/23/2022 8:45:00 PM 21.58 70.844 0.175 7.16 3.08 7.95
6/23/2022 9:00:00 PM 21.46 70.628 0.176 7.14 3.07 7.91
6/23/2022 9:15:00 PM 21.37 70.466 0.176 7.11 3.2 7.88
6/23/2022 9:30:00 PM 21.25 70.25 0.176 7.1 3.38 7.87
6/23/2022 9:45:00 PM 21.14 70.052 0.177 7.06 3.45 7.86
6/23/2022 10:00:00 PM 21.04 69.872 0.177 7.06 3.3 7.86
6/23/2022 10:15:00 PM 20.94 69.692 0.177 7.05 3.45 7.86
6/23/2022 10:30:00 PM 20.85 69.53 0.178 7.04 3.18 7.86
6/23/2022 10:45:00 PM 20.77 69.386 0.178 7.02 3.22 7.87
6/23/2022 11:00:00 PM 20.7 69.26 0.177 7.02 3.11 7.88
6/23/2022 11:15:00 PM 20.63 69.134 0.177 7.02 3.25 7.88
6/23/2022 11:30:00 PM 20.57 69.026 0.176 7.01 3.26 7.88
6/23/2022 11:45:00 PM 20.53 68.954 0.176 7.02 3.05 7.89
6/24/2022 12:00:00 AM 20.51 68.918 0.175 7 3.25 7.88
6/24/2022 12:15:00 AM 20.5 68.9 0.174 7 3.12 7.88
6/24/2022 12:30:00 AM 20.5 68.9 0.173 6.99 2.97 7.88
6/24/2022 12:45:00 AM 20.51 68.918 0.173 6.99 3.15 7.87
6/24/2022 1:00:00 AM 20.52 68.936 0.172 6.99 2.98 7.86
6/24/2022 1:15:00 AM 20.55 68.99 0.172 6.98 3.28 7.86
6/24/2022 1:30:00 AM 20.57 69.026 0.171 6.99 3.14 7.85
6/24/2022 1:45:00 AM 20.59 69.062 0.171 6.98 3.3 7.84
6/24/2022 2:00:00 AM 20.61 69.098 0.17 6.98 3.09 7.84
6/24/2022 2:15:00 AM 20.63 69.134 0.17 6.99 3.5 7.84
6/24/2022 2:30:00 AM 20.65 69.17 0.17 6.99 3.33 7.83
6/24/2022 2:45:00 AM 20.66 69.188 0.17 6.98 3.35 7.82
6/24/2022 3:00:00 AM 20.68 69.224 0.17 6.99 3.05 7.82
6/24/2022 3:15:00 AM 20.69 69.242 0.169 6.98 3.07 7.82
6/24/2022 3:30:00 AM 20.69 69.242 0.169 6.98 3.13 7.81
6/24/2022 3:45:00 AM 20.71 69.278 0.169 6.98 2.88 7.81
6/24/2022 4:00:00 AM 20.72 69.296 0.169 6.98 3.11 7.81
6/24/2022 4:15:00 AM 20.73 69.314 0.169 6.98 3.17 7.8
6/24/2022 4:30:00 AM 20.74 69.332 0.168 6.98 3.21 7.8
6/24/2022 4:45:00 AM 20.76 69.368 0.168 6.98 2.94 7.79
6/24/2022 5:00:00 AM 20.77 69.386 0.168 6.97 3.26 7.78
6/24/2022 5:15:00 AM 20.79 69.422 0.168 6.98 3.12 7.78
6/24/2022 5:30:00 AM 20.79 69.422 0.168 6.97 3.22 7.78
6/24/2022 5:45:00 AM 20.79 69.422 0.168 6.98 3.63 7.79
6/24/2022 6:00:00 AM 20.79 69.422 0.167 6.99 3.01 7.81
6/24/2022 6:15:00 AM 20.79 69.422 0.167 6.99 2.99 7.84
6/24/2022 6:30:00 AM 20.8 69.44 0.167 7 2.94 7.89
6/24/2022 6:45:00 AM 20.8 69.44 0.167 7.01 2.87 7.95
6/24/2022 7:00:00 AM 20.82 69.476 0.167 7.02 2.81 8.03
6/24/2022 7:15:00 AM 20.84 69.512 0.166 7.04 2.81 8.12
6/24/2022 7:30:00 AM 20.87 69.566 0.166 7.06 2.83 8.21
6/24/2022 7:45:00 AM 20.9 69.62 0.166 7.08 2.83 8.32
6/24/2022 8:00:00 AM 20.93 69.674 0.165 7.11 2.81 8.44
6/24/2022 8:15:00 AM 20.98 69.764 0.165 7.14 2.7 8.54
6/24/2022 8:30:00 AM 21.04 69.872 0.165 7.16 2.77 8.64
6/24/2022 8:45:00 AM 21.1 69.98 0.164 7.17 2.81 8.74
6/24/2022 9:00:00 AM 21.16 70.088 0.164 7.23 2.59 8.83
6/24/2022 9:15:00 AM 21.22 70.196 0.163 7.27 2.57 8.91
6/24/2022 9:30:00 AM 21.26 70.268 0.163 7.29 2.79 8.96
6/24/2022 9:45:00 AM 21.33 70.394 0.163 7.33 2.59 9.04
6/24/2022 10:00:00 AM 21.39 70.502 0.162 7.37 2.5 9.08
6/24/2022 10:15:00 AM 21.45 70.61 0.162 7.39 2.48 9.07
6/24/2022 10:30:00 AM 21.52 70.736 0.161 7.39 2.49 9.02
6/24/2022 10:45:00 AM 21.64 70.952 0.161 7.39 2.31 9
6/24/2022 11:00:00 AM 21.79 71.222 0.16 7.41 2.35 9
6/24/2022 11:15:00 AM 21.98 71.564 0.16 7.43 2.44 9.04
6/24/2022 11:30:00 AM 22.21 71.978 0.159 7.48 2.51 9.08
6/24/2022 11:45:00 AM 22.46 72.42799 0.158 7.52 2.22 9.14
6/24/2022 12:00:00 PM 22.74 72.932 0.158 7.58 2.33 9.18
6/24/2022 12:15:00 PM 23.05 73.49 0.158 7.62 2.24 9.2
6/24/2022 12:30:00 PM 23.35 74.03 0.157 7.68 2.24 9.23
6/24/2022 12:45:00 PM 23.55 74.39 0.157 7.71 2.04 9.2
6/24/2022 1:00:00 PM 23.82 74.876 0.157 7.76 2.84 9.21
6/24/2022 1:15:00 PM 24.22 75.596 0.157 7.8 2.23 9.22
6/24/2022 1:30:00 PM 24.47 76.046 0.157 7.82 2.45 9.18
6/24/2022 1:45:00 PM 24.91 76.838 0.157 7.88 2.25 9.21
6/24/2022 2:00:00 PM 25.12 77.216 0.157 7.88 2.22 9.12
6/24/2022 2:15:00 PM 25.49 77.882 0.157 7.91 2.15 9.06
6/24/2022 2:30:00 PM 25.86 78.548 0.157 7.93 2.16 9.04
6/24/2022 2:45:00 PM 26.21 79.17799 0.157 7.98 2.02 9.02
6/24/2022 3:00:00 PM 26.61 79.898 0.157 8.01 2.11 9.01
6/24/2022 3:15:00 PM 26.91 80.438 0.157 8.05 2.07 8.98
6/24/2022 3:30:00 PM 27.11 80.798 0.157 8.07 2.13 8.93
6/24/2022 3:45:00 PM 27.22 80.996 0.161 8.07 2.1 8.87
6/24/2022 4:00:00 PM 27.29 81.122 0.158 8.06 2.01 8.83
6/24/2022 4:15:00 PM 27.21 80.978 0.158 8.04 2.14 8.76
6/24/2022 4:30:00 PM 26.91 80.438 0.158 7.98 2.19 8.64
6/24/2022 4:45:00 PM 26.42 79.556 0.159 7.81 2.04 8.4
6/24/2022 5:00:00 PM 26.48 79.664 0.159 7.81 2 8.41
6/24/2022 5:15:00 PM 26.46 79.628 0.159 7.78 2.12 8.43
6/24/2022 5:30:00 PM 26.4 79.52 0.159 7.79 2.03 8.41
6/24/2022 5:45:00 PM 26.02 78.836 0.16 7.69 2.4 8.21
6/24/2022 6:00:00 PM 25.6 78.08 0.16 7.55 2.14 7.98
6/24/2022 6:15:00 PM 25.39 77.702 0.16 7.47 2.13 7.91
6/24/2022 6:30:00 PM 25.28 77.504 0.161 7.46 2.15 7.92
6/24/2022 6:45:00 PM 25.14 77.252 0.161 7.42 2.56 7.86
6/24/2022 7:00:00 PM 24.97 76.946 0.161 7.37 2.2 7.77
6/24/2022 7:15:00 PM 24.8 76.64 0.161 7.33 2.49 7.7
6/24/2022 7:30:00 PM 24.64 76.352 0.162 7.3 2.32 7.65
6/24/2022 7:45:00 PM 24.47 76.046 0.162 7.26 2.17 7.6
6/24/2022 8:00:00 PM 24.31 75.758 0.162 7.23 2.28 7.57
6/24/2022 8:15:00 PM 24.15 75.47 0.162 7.21 2.48 7.54
6/24/2022 8:30:00 PM 23.97 75.146 0.162 7.19 1.97 7.49
6/24/2022 8:45:00 PM 23.79 74.82201 0.163 7.18 2.33 7.44
6/24/2022 9:00:00 PM 23.62 74.516 0.163 7.15 2.2 7.39
6/24/2022 9:15:00 PM 23.47 74.246 0.163 7.09 2.58 7.35
6/24/2022 9:30:00 PM 23.32 73.976 0.163 7.1 2.63 7.32
6/24/2022 9:45:00 PM 23.18 73.724 0.163 7.09 2.49 7.31
6/24/2022 10:00:00 PM 23.06 73.508 0.163 7.07 2.44 7.31
6/24/2022 10:15:00 PM 22.95 73.31 0.163 7.03 2.42 7.32
6/24/2022 10:30:00 PM 22.87 73.166 0.163 7.06 2.36 7.32
6/24/2022 10:45:00 PM 22.78 73.004 0.163 7.05 2.6 7.32
6/24/2022 11:00:00 PM 22.71 72.878 0.163 7.04 2.59 7.32
6/24/2022 11:15:00 PM 22.64 72.752 0.163 7.03 2.71 7.33
6/24/2022 11:30:00 PM 22.55 72.59 0.163 7.02 2.35 7.34
6/24/2022 11:45:00 PM 22.47 72.446 0.163 7.02 2.31 7.35
6/25/2022 12:00:00 AM 22.38 72.284 0.163 7.02 2.53 7.36
6/25/2022 12:15:00 AM 22.29 72.122 0.163 7.01 2.23 7.38
6/25/2022 12:30:00 AM 22.19 71.942 0.163 7.01 2.34 7.4
6/25/2022 12:45:00 AM 22.09 71.762 0.163 7 2.35 7.42
6/25/2022 1:00:00 AM 21.99 71.582 0.163 6.99 2.41 7.43
6/25/2022 1:15:00 AM 21.9 71.42 0.163 6.99 2.53 7.46
6/25/2022 1:30:00 AM 21.8 71.24 0.163 6.99 2.37 7.48
6/25/2022 1:45:00 AM 21.7 71.06 0.163 6.99 2.45 7.5
6/25/2022 2:00:00 AM 21.6 70.88 0.163 6.98 2.49 7.52
6/25/2022 2:15:00 AM 21.5 70.7 0.162 6.98 2.46 7.54
6/25/2022 2:30:00 AM 21.41 70.538 0.162 6.98 2.35 7.57
6/25/2022 2:45:00 AM 21.32 70.376 0.162 6.98 2.44 7.58
6/25/2022 3:00:00 AM 21.23 70.214 0.161 6.97 2.58 7.6
6/25/2022 3:15:00 AM 21.14 70.052 0.161 6.94 2.37 7.62
6/25/2022 3:30:00 AM 21.06 69.908 0.161 6.97 2.22 7.64
6/25/2022 3:45:00 AM 20.98 69.764 0.16 6.96 2.49 7.65
6/25/2022 4:00:00 AM 20.91 69.638 0.16 6.96 2.38 7.67
6/25/2022 4:15:00 AM 20.84 69.512 0.159 6.96 2.47 7.67
6/25/2022 4:30:00 AM 20.78 69.404 0.159 6.97 2.81 7.7
6/25/2022 4:45:00 AM 20.72 69.296 0.159 6.95 2.54 7.7
6/25/2022 5:00:00 AM 20.67 69.206 0.159 6.95 2.45 7.7
6/25/2022 5:15:00 AM 20.62 69.116 0.159 6.94 2.36 7.72
6/25/2022 5:30:00 AM 20.57 69.026 0.158 6.94 2.55 7.72
6/25/2022 5:45:00 AM 20.54 68.972 0.158 6.95 2.32 7.75
6/25/2022 6:00:00 AM 20.51 68.918 0.158 6.95 2.55 7.78
6/25/2022 6:15:00 AM 20.5 68.9 0.158 6.95 2.3 7.83
6/25/2022 6:30:00 AM 20.5 68.9 0.158 6.96 2.42 7.89
6/25/2022 6:45:00 AM 20.52 68.936 0.158 6.98 2.61 7.94
6/25/2022 7:00:00 AM 20.53 68.954 0.158 6.99 2.46 8.03
6/25/2022 7:15:00 AM 20.56 69.008 0.157 7.01 2.33 8.11
6/25/2022 7:30:00 AM 20.59 69.062 0.157 7.02 2.36 8.24
6/25/2022 7:45:00 AM 20.64 69.152 0.157 7.05 2.36 8.35
6/25/2022 8:00:00 AM 20.66 69.188 0.157 7.08 2.22 8.38
6/25/2022 8:15:00 AM 20.69 69.242 0.157 7.09 2.47 8.43
6/25/2022 8:30:00 AM 20.76 69.368 0.156 7.11 2.2 8.49
6/25/2022 8:45:00 AM 20.85 69.53 0.156 7.13 2.25 8.54
6/25/2022 9:00:00 AM 20.94 69.692 0.156 7.13 2.13 8.58
6/25/2022 9:15:00 AM 21.02 69.836 0.156 7.17 2.32 8.62
6/25/2022 9:30:00 AM 21.11 69.998 0.156 7.19 2.14 8.62
6/25/2022 9:45:00 AM 21.21 70.17799 0.156 7.2 2.15 8.67
6/25/2022 10:00:00 AM 21.32 70.376 0.156 7.2 2.31 8.68
6/25/2022 10:15:00 AM 21.44 70.592 0.156 7.24 2.18 8.72
6/25/2022 10:30:00 AM 21.58 70.844 0.156 7.25 2.17 8.74
6/25/2022 10:45:00 AM 21.75 71.15 0.155 7.27 1.96 8.77
6/25/2022 11:00:00 AM 21.96 71.528 0.155 7.31 1.99 8.84
6/25/2022 11:15:00 AM 22.21 71.978 0.155 7.35 2.12 8.94
6/25/2022 11:30:00 AM 22.5 72.5 0.155 7.41 1.94 9.06
6/25/2022 11:45:00 AM 22.76 72.968 0.154 7.47 2.11 9.11
6/25/2022 12:00:00 PM 22.89 73.202 0.154 7.5 2.13 9.11
6/25/2022 12:15:00 PM 22.92 73.256 0.154 7.51 1.97 9.03
6/25/2022 12:30:00 PM 23.11 73.598 0.154 7.54 2.09 9.08
6/25/2022 12:45:00 PM 23.5 74.3 0.153 7.59 1.92 9.11
6/25/2022 1:00:00 PM 23.98 75.164 0.153 7.65 2.12 9.14
6/25/2022 1:15:00 PM 24.46 76.028 0.153 7.7 2.01 9.14
6/25/2022 1:30:00 PM 24.95 76.91 0.153 7.76 1.95 9.14
6/25/2022 1:45:00 PM 25.45 77.81 0.152 7.82 1.96 9.15
6/25/2022 2:00:00 PM 25.98 78.764 0.152 7.89 1.91 9.14
6/25/2022 2:15:00 PM 26.47 79.646 0.152 7.93 2.13 9.08
6/25/2022 2:30:00 PM 26.92 80.456 0.152 7.99 1.87 9.06
6/25/2022 2:45:00 PM 27.33 81.194 0.152 8.04 1.93 9.02
6/25/2022 3:00:00 PM 27.7 81.86 0.152 8.08 1.77 8.96
6/25/2022 3:15:00 PM 28.05 82.49 0.152 8.11 1.9 8.91
6/25/2022 3:30:00 PM 28.3 82.94 0.152 8.13 1.78 8.86
6/25/2022 3:45:00 PM 28.5 83.3 0.153 8.14 2.06 8.76
6/25/2022 4:00:00 PM 28.62 83.51601 0.153 8.12 1.74 8.71
6/25/2022 4:15:00 PM 28.7 83.66 0.153 8.11 1.88 8.64
6/25/2022 4:30:00 PM 28.7 83.66 0.154 8.07 2.15 8.56
6/25/2022 4:45:00 PM 28.63 83.534 0.154 8.06 1.85 8.53
6/25/2022 5:00:00 PM 28.51 83.318 0.154 8.02 1.93 8.45
6/25/2022 5:15:00 PM 28.26 82.868 0.154 7.95 1.93 8.34
6/25/2022 5:30:00 PM 27.81 82.058 0.155 7.81 1.9 8.08
6/25/2022 5:45:00 PM 27.28 81.104 0.156 7.6 2.29 7.79
6/25/2022 6:00:00 PM 26.89 80.402 0.156 7.48 2.71 7.57
6/25/2022 6:15:00 PM 26.75 80.15 0.155 7.44 2.18 7.59
6/25/2022 6:30:00 PM 26.55 79.79 0.157 7.4 1.95 7.54
6/25/2022 6:45:00 PM 26.31 79.358 0.157 7.33 1.84 7.46
6/25/2022 7:00:00 PM 26.17 79.106 0.157 7.3 2.13 7.43
6/25/2022 7:15:00 PM 26.01 78.818 0.157 7.31 1.98 7.42
6/25/2022 7:30:00 PM 25.84 78.512 0.158 7.24 1.97 7.37
6/25/2022 7:45:00 PM 25.66 78.188 0.158 7.24 2.03 7.28
6/25/2022 8:00:00 PM 25.47 77.846 0.158 7.21 2.11 7.21
6/25/2022 8:15:00 PM 25.28 77.504 0.159 7.18 2.36 7.16
6/25/2022 8:30:00 PM 25.1 77.18 0.159 7.12 2.18 7.1
6/25/2022 8:45:00 PM 24.91 76.838 0.159 7.11 2.34 7.06
6/25/2022 9:00:00 PM 24.73 76.514 0.159 7.1 2.62 7.02
6/25/2022 9:15:00 PM 24.54 76.172 0.16 7.09 3.24 7.03
6/25/2022 9:30:00 PM 24.36 75.848 0.16 7.09 2.51 7.02
6/25/2022 9:45:00 PM 24.18 75.524 0.16 7.07 2.35 7.03
6/25/2022 10:00:00 PM 24 75.2 0.16 7.06 2.37 7.04
6/25/2022 10:15:00 PM 23.83 74.894 0.16 7.04 2.29 7.06
6/25/2022 10:30:00 PM 23.65 74.57 0.16 7.03 2.27 7.1
6/25/2022 10:45:00 PM 23.49 74.282 0.16 7.04 2.33 7.12
6/25/2022 11:00:00 PM 23.32 73.976 0.16 7.01 2.22 7.16
6/25/2022 11:15:00 PM 23.16 73.688 0.16 7.02 2.23 7.18
6/25/2022 11:30:00 PM 23.01 73.418 0.16 7.02 2.43 7.2
6/25/2022 11:45:00 PM 22.86 73.148 0.16 7.01 2.24 7.25
6/26/2022 12:00:00 AM 22.71 72.878 0.16 7 8.91 7.28
6/26/2022 12:15:00 AM 22.58 72.644 0.16 6.96 2.4 7.3
6/26/2022 12:30:00 AM 22.45 72.41 0.16 6.97 2.43 7.33
6/26/2022 12:45:00 AM 22.32 72.176 0.16 7 2.4 7.35
6/26/2022 1:00:00 AM 22.21 71.978 0.16 6.98 2.36 7.34
6/26/2022 1:15:00 AM 22.09 71.762 0.16 6.98 2.49 7.38
6/26/2022 1:30:00 AM 21.98 71.564 0.16 6.98 2.44 7.4
6/26/2022 1:45:00 AM 21.88 71.384 0.16 6.97 2.27 7.44
6/26/2022 2:00:00 AM 21.78 71.204 0.16 6.97 2.32 7.45
6/26/2022 2:15:00 AM 21.69 71.042 0.159 6.97 2.14 7.47
6/26/2022 2:30:00 AM 21.6 70.88 0.159 6.96 3.07 7.49
6/26/2022 2:45:00 AM 21.52 70.736 0.159 6.95 2.32 7.51
6/26/2022 3:00:00 AM 21.44 70.592 0.159 6.93 2.34 7.52
6/26/2022 3:15:00 AM 21.37 70.466 0.159 6.96 2.42 7.52
6/26/2022 3:30:00 AM 21.3 70.34 0.159 6.92 2.4 7.56
6/26/2022 3:45:00 AM 21.24 70.232 0.159 6.94 2.43 7.55
6/26/2022 4:00:00 AM 21.19 70.142 0.159 6.95 2.72 7.54
6/26/2022 4:15:00 AM 21.14 70.052 0.159 6.94 2.41 7.56
6/26/2022 4:30:00 AM 21.1 69.98 0.159 6.94 2.26 7.56
6/26/2022 4:45:00 AM 21.07 69.926 0.159 6.94 2.66 7.58
6/26/2022 5:00:00 AM 21.04 69.872 0.159 6.94 2.5 7.57
6/26/2022 5:15:00 AM 21.02 69.836 0.159 6.94 2.29 7.59
6/26/2022 5:30:00 AM 20.99 69.782 0.159 6.92 2.38 7.54
6/26/2022 5:45:00 AM 20.97 69.746 0.159 6.94 2.58 7.61
6/26/2022 6:00:00 AM 20.96 69.728 0.158 6.94 2.48 7.64
6/26/2022 6:15:00 AM 20.96 69.728 0.158 6.96 2.23 7.7
6/26/2022 6:30:00 AM 20.96 69.728 0.158 6.97 2.2 7.74
6/26/2022 6:45:00 AM 20.97 69.746 0.158 6.98 2.42 7.85
6/26/2022 7:00:00 AM 20.98 69.764 0.158 6.96 2.14 7.9
6/26/2022 7:15:00 AM 20.98 69.764 0.158 7 2.18 7.96
6/26/2022 7:30:00 AM 20.99 69.782 0.157 7.01 2.06 8.02
6/26/2022 7:45:00 AM 21.04 69.872 0.157 7.02 2.34 8.13
6/26/2022 8:00:00 AM 21.1 69.98 0.157 7.05 2.22 8.19
6/26/2022 8:15:00 AM 21.17 70.106 0.157 7.07 2.34 8.28
6/26/2022 8:30:00 AM 21.27 70.286 0.156 7.1 2.06 8.37
6/26/2022 8:45:00 AM 21.4 70.52 0.156 7.13 2.32 8.48
6/26/2022 9:00:00 AM 21.52 70.736 0.156 7.14 2.06 8.53
6/26/2022 9:15:00 AM 21.66 70.988 0.156 7.18 2.35 8.58
6/26/2022 9:30:00 AM 21.82 71.276 0.156 7.18 2.18 8.67
6/26/2022 9:45:00 AM 21.97 71.546 0.155 7.24 2.13 8.73
6/26/2022 10:00:00 AM 22.11 71.798 0.155 7.28 1.97 8.79
6/26/2022 10:15:00 AM 22.26 72.068 0.155 7.3 2.33 8.82
6/26/2022 10:30:00 AM 22.43 72.374 0.155 7.32 2.28 8.89
6/26/2022 10:45:00 AM 22.65 72.77 0.154 7.42 2.08 9.04
6/26/2022 11:00:00 AM 22.91 73.238 0.154 7.49 2.04 9.17
6/26/2022 11:15:00 AM 23.18 73.724 0.154 7.56 2.1 9.19
6/26/2022 11:30:00 AM 23.44 74.192 0.154 7.61 1.93 9.24
6/26/2022 11:45:00 AM 23.69 74.642 0.153 7.68 1.92 9.29
6/26/2022 12:00:00 PM 23.92 75.056 0.153 7.72 2.1 9.25
6/26/2022 12:15:00 PM 24.24 75.632 0.153 7.77 1.92 9.26
6/26/2022 12:30:00 PM 24.62 76.316 0.153 7.85 1.93 9.33
6/26/2022 12:45:00 PM 24.89 76.802 0.153 7.93 1.84 9.29
6/26/2022 1:00:00 PM 25.03 77.054 0.152 7.98 1.91 9.27
6/26/2022 1:15:00 PM 25.11 77.198 0.152 7.95 1.95 9.13
6/26/2022 1:30:00 PM 25.47 77.846 0.152 7.99 1.88 9.16
6/26/2022 1:45:00 PM 25.85 78.53 0.152 8.07 1.88 9.16
6/26/2022 2:00:00 PM 26.13 79.034 0.152 8.11 1.89 9.16
6/26/2022 2:15:00 PM 26.43 79.574 0.151 8.16 1.85 9.13
6/26/2022 2:30:00 PM 26.52 79.736 0.151 8.15 1.93 8.99
6/26/2022 2:45:00 PM 26.54 79.772 0.151 8.15 1.77 8.94
6/26/2022 3:00:00 PM 26.7 80.06 0.151 8.17 2.01 8.9
6/26/2022 3:15:00 PM 26.59 79.862 0.151 8.05 1.78 8.61
6/26/2022 3:30:00 PM 26.46 79.628 0.152 7.89 1.78 8.38
6/26/2022 3:45:00 PM 26.41 79.538 0.152 7.76 1.77 8.14
6/26/2022 4:00:00 PM 26.42 79.556 0.152 7.69 1.98 8.08
6/26/2022 4:15:00 PM 26.61 79.898 0.152 7.76 2.88 8.32
6/26/2022 4:30:00 PM 26.68 80.024 0.152 7.83 2.11 8.36
6/26/2022 4:45:00 PM 26.61 79.898 0.153 7.79 1.78 8.29
6/26/2022 5:00:00 PM 26.5 79.7 0.153 7.74 2.28 8.23
6/26/2022 5:15:00 PM 26.7 80.06 0.152 7.82 2.15 8.39
6/26/2022 5:30:00 PM 26.76 80.168 0.153 7.87 2.27 8.44
6/26/2022 5:45:00 PM 26.55 79.79 0.153 7.79 1.76 8.3
6/26/2022 6:00:00 PM 26.32 79.376 0.153 7.65 2.01 8.07
6/26/2022 6:15:00 PM 26.18 79.124 0.153 7.61 1.96 8.01
6/26/2022 6:30:00 PM 26.07 78.926 0.154 7.58 1.98 7.99
6/26/2022 6:45:00 PM 25.97 78.746 0.154 7.53 2.08 7.93
6/26/2022 7:00:00 PM 25.86 78.548 0.154 7.49 1.9 7.85
6/26/2022 7:15:00 PM 25.74 78.332 0.155 7.43 1.95 7.65
6/26/2022 7:30:00 PM 25.6 78.08 0.156 7.34 2.15 7.43
6/26/2022 7:45:00 PM 25.46 77.828 0.157 7.28 1.86 7.27
6/26/2022 8:00:00 PM 25.28 77.504 0.157 7.26 2.06 7.11
6/26/2022 8:15:00 PM 25.12 77.216 0.158 7.22 1.99 7.06
6/26/2022 8:30:00 PM 24.96 76.92799 0.158 7.19 1.92 6.94
6/26/2022 8:45:00 PM 24.81 76.658 0.159 7.15 1.99 6.96
6/26/2022 9:00:00 PM 24.68 76.424 0.159 7.15 2.77 6.92
6/26/2022 9:15:00 PM 24.54 76.172 0.16 7.12 2.3 6.89
6/26/2022 9:30:00 PM 24.39 75.902 0.16 7.11 2.31 6.86
6/26/2022 9:45:00 PM 24.26 75.668 0.16 7.09 2.67 6.89
6/26/2022 10:00:00 PM 24.13 75.434 0.161 7.1 2.31 6.91
6/26/2022 10:15:00 PM 24 75.2 0.161 7.08 2.28 6.94
6/26/2022 10:30:00 PM 23.86 74.948 0.161 7.06 2.22 6.97
6/26/2022 10:45:00 PM 23.71 74.67799 0.161 7.07 2.13 6.99
6/26/2022 11:00:00 PM 23.58 74.444 0.161 7.05 2.37 7
6/26/2022 11:15:00 PM 23.44 74.192 0.161 7.05 2.32 7.03
6/26/2022 11:30:00 PM 23.31 73.958 0.162 7.05 2.22 7.08
6/26/2022 11:45:00 PM 23.18 73.724 0.162 7.04 2.81 7.11
6/27/2022 12:00:00 AM 23.07 73.526 0.162 7.04 2.41 7.12
6/27/2022 12:15:00 AM 22.96 73.328 0.162 7.03 2.75 7.14
6/27/2022 12:30:00 AM 22.85 73.13 0.162 7.03 2.49 7.17
6/27/2022 12:45:00 AM 22.76 72.968 0.162 7.03 2.44 7.19
6/27/2022 1:00:00 AM 22.69 72.842 0.162 7 2.25 7.2
6/27/2022 1:15:00 AM 22.62 72.716 0.162 7.02 2.37 7.21
6/27/2022 1:30:00 AM 22.56 72.608 0.162 7.01 2.53 7.22
6/27/2022 1:45:00 AM 22.52 72.536 0.162 6.98 2.32 7.23
6/27/2022 2:00:00 AM 22.48 72.464 0.162 6.98 2.19 7.24
6/27/2022 2:15:00 AM 22.45 72.41 0.162 7.01 2.33 7.24
6/27/2022 2:30:00 AM 22.43 72.374 0.162 6.99 2.27 7.25
6/27/2022 2:45:00 AM 22.43 72.374 0.162 7 2.23 7.26
6/27/2022 3:00:00 AM 22.43 72.374 0.162 6.98 2.29 7.26
6/27/2022 3:15:00 AM 22.43 72.374 0.161 6.99 2.45 7.24
6/27/2022 3:30:00 AM 22.44 72.392 0.161 6.98 2.29 7.25
6/27/2022 3:45:00 AM 22.44 72.392 0.161 6.99 2.33 7.25
6/27/2022 4:00:00 AM 22.44 72.392 0.161 6.99 2.57 7.24
6/27/2022 4:15:00 AM 22.44 72.392 0.161 6.96 2.31 7.24
6/27/2022 4:30:00 AM 22.45 72.41 0.161 6.98 2.39 7.24
6/27/2022 4:45:00 AM 22.44 72.392 0.161 6.97 2.47 7.24
6/27/2022 5:00:00 AM 22.43 72.374 0.161 6.97 2.79 7.24
6/27/2022 5:15:00 AM 22.43 72.374 0.161 6.98 2.6 7.24
6/27/2022 5:30:00 AM 22.43 72.374 0.161 6.97 2.56 7.23
6/27/2022 5:45:00 AM 22.43 72.374 0.161 6.95 2.53 7.24
6/27/2022 6:00:00 AM 22.43 72.374 0.16 6.97 2.39 7.24
6/27/2022 6:15:00 AM 22.44 72.392 0.16 6.95 3.07 7.26
6/27/2022 6:30:00 AM 22.44 72.392 0.16 6.98 2.96 7.29
6/27/2022 6:45:00 AM 22.44 72.392 0.16 6.99 2.33 7.39
6/27/2022 7:00:00 AM 22.45 72.41 0.16 7.01 2.48 7.5
6/27/2022 7:15:00 AM 22.46 72.42799 0.16 7.01 2.5 7.55
6/27/2022 7:30:00 AM 22.5 72.5 0.159 7.02 2.24 7.73
6/27/2022 7:45:00 AM 22.5 72.5 0.159 7.06 2.36 7.86
6/27/2022 8:00:00 AM 22.49 72.482 0.159 7.08 2.41 7.95
6/27/2022 8:15:00 AM 22.45 72.41 0.158 7.1 2.51 8
6/27/2022 8:30:00 AM 22.49 72.482 0.158 7.12 2.32 8.14
6/27/2022 8:45:00 AM 22.6 72.68 0.158 7.17 2.24 8.35
6/27/2022 9:00:00 AM 22.62 72.716 0.157 7.17 2.22 8.38
6/27/2022 9:15:00 AM 22.61 72.698 0.157 7.22 2.21 8.44
6/27/2022 9:30:00 AM 22.6 72.68 0.157 7.24 2.02 8.53
6/27/2022 9:45:00 AM 22.54 72.57201 0.157 7.24 2.29 8.51
6/27/2022 10:00:00 AM 22.5 72.5 0.157 7.26 2.58 8.49
6/27/2022 10:15:00 AM 22.55 72.59 0.157 7.26 2.13 8.54
6/27/2022 10:30:00 AM 22.68 72.824 0.156 7.31 2.05 8.6
6/27/2022 10:45:00 AM 22.8 73.04 0.156 7.33 2.33 8.68